<?xml version="1.0" encoding="UTF-8" standalone="no" ?>
<gpx xmlns="http://www.topografix.com/GPX/1/1" xmlns:xsi="http://www.w3.org/2001/XMLSchema-instance" xsi:schemaLocation="http://www.topografix.com/GPX/1/1 http://www.topografix.com/GPX/1/1/gpx.xsd" version="1.1" creator="VisuGPX - https://www.visugpx.com">
  <metadata>
    <name>lundi 2015 10 12</name>
    <desc><![CDATA[rando du lundi]]></desc>
  </metadata>
  <trk>
    <name><![CDATA[lundi 2015 10 12]]></name>
    <trkseg>
      <trkpt lat="48.8577" lon="2.35099">
        <ele>9</ele>
        <time>2015-10-12T18:22:30.000Z</time>
      </trkpt>
      <trkpt lat="48.85733" lon="2.35139">
        <ele>72.400001525879</ele>
        <time>2015-10-12T18:22:33.000Z</time>
      </trkpt>
      <trkpt lat="48.85761" lon="2.35136">
        <ele>8.8000001907349</ele>
        <time>2015-10-12T18:22:41.000Z</time>
      </trkpt>
      <trkpt lat="48.85765" lon="2.35144">
        <ele>13</ele>
        <time>2015-10-12T18:22:42.000Z</time>
      </trkpt>
      <trkpt lat="48.85753" lon="2.35157">
        <ele>24.200000762939</ele>
        <time>2015-10-12T18:22:48.000Z</time>
      </trkpt>
      <trkpt lat="48.85737" lon="2.35179">
        <ele>27</ele>
        <time>2015-10-12T18:22:58.000Z</time>
      </trkpt>
      <trkpt lat="48.85737" lon="2.35193">
        <ele>25</ele>
        <time>2015-10-12T18:23:01.000Z</time>
      </trkpt>
      <trkpt lat="48.85738" lon="2.35208">
        <ele>23</ele>
        <time>2015-10-12T18:23:04.000Z</time>
      </trkpt>
      <trkpt lat="48.8574" lon="2.35226">
        <ele>20.799999237061</ele>
        <time>2015-10-12T18:23:07.000Z</time>
      </trkpt>
      <trkpt lat="48.8575" lon="2.35243">
        <ele>19.60000038147</ele>
        <time>2015-10-12T18:23:11.000Z</time>
      </trkpt>
      <trkpt lat="48.85764" lon="2.35261">
        <ele>18.200000762939</ele>
        <time>2015-10-12T18:23:16.000Z</time>
      </trkpt>
      <trkpt lat="48.85779" lon="2.35281">
        <ele>15.199999809265</ele>
        <time>2015-10-12T18:23:22.000Z</time>
      </trkpt>
      <trkpt lat="48.85785" lon="2.35294">
        <ele>13.199999809265</ele>
        <time>2015-10-12T18:23:25.000Z</time>
      </trkpt>
      <trkpt lat="48.85786" lon="2.35316">
        <ele>12.199999809265</ele>
        <time>2015-10-12T18:23:29.000Z</time>
      </trkpt>
      <trkpt lat="48.85778" lon="2.35341">
        <ele>11.39999961853</ele>
        <time>2015-10-12T18:23:34.000Z</time>
      </trkpt>
      <trkpt lat="48.85767" lon="2.35368">
        <ele>12.199999809265</ele>
        <time>2015-10-12T18:23:39.000Z</time>
      </trkpt>
      <trkpt lat="48.85761" lon="2.35396">
        <ele>15.60000038147</ele>
        <time>2015-10-12T18:23:45.000Z</time>
      </trkpt>
      <trkpt lat="48.85755" lon="2.35423">
        <ele>18.60000038147</ele>
        <time>2015-10-12T18:23:53.000Z</time>
      </trkpt>
      <trkpt lat="48.85742" lon="2.35446">
        <ele>21</ele>
        <time>2015-10-12T18:23:59.000Z</time>
      </trkpt>
      <trkpt lat="48.85731" lon="2.35471">
        <ele>23.200000762939</ele>
        <time>2015-10-12T18:24:04.000Z</time>
      </trkpt>
      <trkpt lat="48.85721" lon="2.35495">
        <ele>26</ele>
        <time>2015-10-12T18:24:09.000Z</time>
      </trkpt>
      <trkpt lat="48.85709" lon="2.35524">
        <ele>27.200000762939</ele>
        <time>2015-10-12T18:24:15.000Z</time>
      </trkpt>
      <trkpt lat="48.85701" lon="2.35557">
        <ele>25.39999961853</ele>
        <time>2015-10-12T18:24:20.000Z</time>
      </trkpt>
      <trkpt lat="48.85698" lon="2.35568">
        <ele>26</ele>
        <time>2015-10-12T18:24:22.000Z</time>
      </trkpt>
      <trkpt lat="48.85704" lon="2.35594">
        <ele>28</ele>
        <time>2015-10-12T18:24:28.000Z</time>
      </trkpt>
      <trkpt lat="48.85717" lon="2.35613">
        <ele>29.200000762939</ele>
        <time>2015-10-12T18:24:33.000Z</time>
      </trkpt>
      <trkpt lat="48.85731" lon="2.35639">
        <ele>30.60000038147</ele>
        <time>2015-10-12T18:24:39.000Z</time>
      </trkpt>
      <trkpt lat="48.85745" lon="2.35658">
        <ele>31.60000038147</ele>
        <time>2015-10-12T18:24:44.000Z</time>
      </trkpt>
      <trkpt lat="48.85762" lon="2.35676">
        <ele>32.400001525879</ele>
        <time>2015-10-12T18:24:49.000Z</time>
      </trkpt>
      <trkpt lat="48.85778" lon="2.35674">
        <ele>31.799999237061</ele>
        <time>2015-10-12T18:24:52.000Z</time>
      </trkpt>
      <trkpt lat="48.85782" lon="2.35693">
        <ele>32</ele>
        <time>2015-10-12T18:24:57.000Z</time>
      </trkpt>
      <trkpt lat="48.8579" lon="2.35723">
        <ele>33.200000762939</ele>
        <time>2015-10-12T18:25:04.000Z</time>
      </trkpt>
      <trkpt lat="48.85803" lon="2.35744">
        <ele>34.599998474121</ele>
        <time>2015-10-12T18:25:09.000Z</time>
      </trkpt>
      <trkpt lat="48.85819" lon="2.35765">
        <ele>35.599998474121</ele>
        <time>2015-10-12T18:25:14.000Z</time>
      </trkpt>
      <trkpt lat="48.85837" lon="2.35781">
        <ele>36.200000762939</ele>
        <time>2015-10-12T18:25:19.000Z</time>
      </trkpt>
      <trkpt lat="48.8586" lon="2.35792">
        <ele>36.200000762939</ele>
        <time>2015-10-12T18:25:25.000Z</time>
      </trkpt>
      <trkpt lat="48.85846" lon="2.35814">
        <ele>36.599998474121</ele>
        <time>2015-10-12T18:25:30.000Z</time>
      </trkpt>
      <trkpt lat="48.85844" lon="2.3584">
        <ele>37</ele>
        <time>2015-10-12T18:25:35.000Z</time>
      </trkpt>
      <trkpt lat="48.85855" lon="2.35864">
        <ele>36.599998474121</ele>
        <time>2015-10-12T18:25:40.000Z</time>
      </trkpt>
      <trkpt lat="48.85871" lon="2.35875">
        <ele>36.799999237061</ele>
        <time>2015-10-12T18:25:45.000Z</time>
      </trkpt>
      <trkpt lat="48.85888" lon="2.35892">
        <ele>38.400001525879</ele>
        <time>2015-10-12T18:25:51.000Z</time>
      </trkpt>
      <trkpt lat="48.85902" lon="2.35912">
        <ele>39.799999237061</ele>
        <time>2015-10-12T18:25:57.000Z</time>
      </trkpt>
      <trkpt lat="48.85915" lon="2.35931">
        <ele>41.200000762939</ele>
        <time>2015-10-12T18:26:02.000Z</time>
      </trkpt>
      <trkpt lat="48.85929" lon="2.35952">
        <ele>42.400001525879</ele>
        <time>2015-10-12T18:26:07.000Z</time>
      </trkpt>
      <trkpt lat="48.85939" lon="2.35976">
        <ele>43.599998474121</ele>
        <time>2015-10-12T18:26:12.000Z</time>
      </trkpt>
      <trkpt lat="48.85953" lon="2.35995">
        <ele>44.400001525879</ele>
        <time>2015-10-12T18:26:16.000Z</time>
      </trkpt>
      <trkpt lat="48.85967" lon="2.36016">
        <ele>44.799999237061</ele>
        <time>2015-10-12T18:26:20.000Z</time>
      </trkpt>
      <trkpt lat="48.85984" lon="2.36037">
        <ele>44.599998474121</ele>
        <time>2015-10-12T18:26:24.000Z</time>
      </trkpt>
      <trkpt lat="48.86002" lon="2.36056">
        <ele>44.200000762939</ele>
        <time>2015-10-12T18:26:28.000Z</time>
      </trkpt>
      <trkpt lat="48.86012" lon="2.36078">
        <ele>43.799999237061</ele>
        <time>2015-10-12T18:26:33.000Z</time>
      </trkpt>
      <trkpt lat="48.86013" lon="2.36082">
        <ele>43.599998474121</ele>
        <time>2015-10-12T18:26:34.000Z</time>
      </trkpt>
      <trkpt lat="48.86025" lon="2.36109">
        <ele>42.599998474121</ele>
        <time>2015-10-12T18:26:40.000Z</time>
      </trkpt>
      <trkpt lat="48.86037" lon="2.36135">
        <ele>42.599998474121</ele>
        <time>2015-10-12T18:26:46.000Z</time>
      </trkpt>
      <trkpt lat="48.86047" lon="2.36162">
        <ele>43.599998474121</ele>
        <time>2015-10-12T18:26:51.000Z</time>
      </trkpt>
      <trkpt lat="48.86059" lon="2.36189">
        <ele>44</ele>
        <time>2015-10-12T18:26:57.000Z</time>
      </trkpt>
      <trkpt lat="48.8607" lon="2.36213">
        <ele>42.799999237061</ele>
        <time>2015-10-12T18:27:02.000Z</time>
      </trkpt>
      <trkpt lat="48.8608" lon="2.36236">
        <ele>43</ele>
        <time>2015-10-12T18:27:10.000Z</time>
      </trkpt>
      <trkpt lat="48.86092" lon="2.36262">
        <ele>44.400001525879</ele>
        <time>2015-10-12T18:27:17.000Z</time>
      </trkpt>
      <trkpt lat="48.86106" lon="2.3628">
        <ele>44.400001525879</ele>
        <time>2015-10-12T18:27:22.000Z</time>
      </trkpt>
      <trkpt lat="48.86118" lon="2.36305">
        <ele>44.200000762939</ele>
        <time>2015-10-12T18:27:27.000Z</time>
      </trkpt>
      <trkpt lat="48.86129" lon="2.36332">
        <ele>43.599998474121</ele>
        <time>2015-10-12T18:27:32.000Z</time>
      </trkpt>
      <trkpt lat="48.86152" lon="2.36347">
        <ele>42</ele>
        <time>2015-10-12T18:27:37.000Z</time>
      </trkpt>
      <trkpt lat="48.86165" lon="2.36369">
        <ele>40.799999237061</ele>
        <time>2015-10-12T18:27:42.000Z</time>
      </trkpt>
      <trkpt lat="48.86173" lon="2.36394">
        <ele>39.200000762939</ele>
        <time>2015-10-12T18:27:47.000Z</time>
      </trkpt>
      <trkpt lat="48.86184" lon="2.36418">
        <ele>38.799999237061</ele>
        <time>2015-10-12T18:27:52.000Z</time>
      </trkpt>
      <trkpt lat="48.862" lon="2.36443">
        <ele>38</ele>
        <time>2015-10-12T18:27:58.000Z</time>
      </trkpt>
      <trkpt lat="48.86212" lon="2.36467">
        <ele>37</ele>
        <time>2015-10-12T18:28:03.000Z</time>
      </trkpt>
      <trkpt lat="48.86226" lon="2.36488">
        <ele>36.400001525879</ele>
        <time>2015-10-12T18:28:07.000Z</time>
      </trkpt>
      <trkpt lat="48.86239" lon="2.36514">
        <ele>35.200000762939</ele>
        <time>2015-10-12T18:28:12.000Z</time>
      </trkpt>
      <trkpt lat="48.8625" lon="2.36536">
        <ele>34.799999237061</ele>
        <time>2015-10-12T18:28:16.000Z</time>
      </trkpt>
      <trkpt lat="48.86261" lon="2.36559">
        <ele>34.799999237061</ele>
        <time>2015-10-12T18:28:20.000Z</time>
      </trkpt>
      <trkpt lat="48.86271" lon="2.36589">
        <ele>33.599998474121</ele>
        <time>2015-10-12T18:28:25.000Z</time>
      </trkpt>
      <trkpt lat="48.86281" lon="2.36614">
        <ele>33</ele>
        <time>2015-10-12T18:28:29.000Z</time>
      </trkpt>
      <trkpt lat="48.86292" lon="2.3664">
        <ele>33</ele>
        <time>2015-10-12T18:28:34.000Z</time>
      </trkpt>
      <trkpt lat="48.863" lon="2.36653">
        <ele>32.799999237061</ele>
        <time>2015-10-12T18:28:38.000Z</time>
      </trkpt>
      <trkpt lat="48.86308" lon="2.36661">
        <ele>33.400001525879</ele>
        <time>2015-10-12T18:28:43.000Z</time>
      </trkpt>
      <trkpt lat="48.86312" lon="2.36667">
        <ele>33.400001525879</ele>
        <time>2015-10-12T18:28:47.000Z</time>
      </trkpt>
      <trkpt lat="48.86325" lon="2.36672">
        <ele>34.799999237061</ele>
        <time>2015-10-12T18:29:05.000Z</time>
      </trkpt>
      <trkpt lat="48.86342" lon="2.36662">
        <ele>33.799999237061</ele>
        <time>2015-10-12T18:29:10.000Z</time>
      </trkpt>
      <trkpt lat="48.8636" lon="2.36648">
        <ele>35</ele>
        <time>2015-10-12T18:29:16.000Z</time>
      </trkpt>
      <trkpt lat="48.86379" lon="2.36632">
        <ele>35.599998474121</ele>
        <time>2015-10-12T18:29:22.000Z</time>
      </trkpt>
      <trkpt lat="48.86396" lon="2.3662">
        <ele>36.200000762939</ele>
        <time>2015-10-12T18:29:27.000Z</time>
      </trkpt>
      <trkpt lat="48.86415" lon="2.36607">
        <ele>35.799999237061</ele>
        <time>2015-10-12T18:29:33.000Z</time>
      </trkpt>
      <trkpt lat="48.86435" lon="2.36594">
        <ele>35.400001525879</ele>
        <time>2015-10-12T18:29:38.000Z</time>
      </trkpt>
      <trkpt lat="48.86452" lon="2.36581">
        <ele>35.599998474121</ele>
        <time>2015-10-12T18:29:42.000Z</time>
      </trkpt>
      <trkpt lat="48.86469" lon="2.36568">
        <ele>37.599998474121</ele>
        <time>2015-10-12T18:29:46.000Z</time>
      </trkpt>
      <trkpt lat="48.86488" lon="2.36556">
        <ele>38.400001525879</ele>
        <time>2015-10-12T18:29:50.000Z</time>
      </trkpt>
      <trkpt lat="48.86507" lon="2.36544">
        <ele>39.799999237061</ele>
        <time>2015-10-12T18:29:54.000Z</time>
      </trkpt>
      <trkpt lat="48.86512" lon="2.36542">
        <ele>38.799999237061</ele>
        <time>2015-10-12T18:29:55.000Z</time>
      </trkpt>
      <trkpt lat="48.8652" lon="2.36538">
        <ele>39</ele>
        <time>2015-10-12T18:29:57.000Z</time>
      </trkpt>
      <trkpt lat="48.86538" lon="2.36527">
        <ele>39.200000762939</ele>
        <time>2015-10-12T18:30:01.000Z</time>
      </trkpt>
      <trkpt lat="48.86557" lon="2.36516">
        <ele>41.400001525879</ele>
        <time>2015-10-12T18:30:05.000Z</time>
      </trkpt>
      <trkpt lat="48.86577" lon="2.36505">
        <ele>40.400001525879</ele>
        <time>2015-10-12T18:30:09.000Z</time>
      </trkpt>
      <trkpt lat="48.86596" lon="2.36493">
        <ele>41</ele>
        <time>2015-10-12T18:30:13.000Z</time>
      </trkpt>
      <trkpt lat="48.86605" lon="2.36488">
        <ele>41</ele>
        <time>2015-10-12T18:30:15.000Z</time>
      </trkpt>
      <trkpt lat="48.86623" lon="2.36478">
        <ele>41.599998474121</ele>
        <time>2015-10-12T18:30:19.000Z</time>
      </trkpt>
      <trkpt lat="48.8664" lon="2.3647">
        <ele>41.599998474121</ele>
        <time>2015-10-12T18:30:24.000Z</time>
      </trkpt>
      <trkpt lat="48.86642" lon="2.3647">
        <ele>42</ele>
        <time>2015-10-12T18:30:25.000Z</time>
      </trkpt>
      <trkpt lat="48.86643" lon="2.3647">
        <ele>43</ele>
        <time>2015-10-12T18:30:27.000Z</time>
      </trkpt>
      <trkpt lat="48.86645" lon="2.36476">
        <ele>43.400001525879</ele>
        <time>2015-10-12T18:30:36.000Z</time>
      </trkpt>
      <trkpt lat="48.86657" lon="2.36482">
        <ele>42.799999237061</ele>
        <time>2015-10-12T18:31:01.000Z</time>
      </trkpt>
      <trkpt lat="48.86673" lon="2.36477">
        <ele>45</ele>
        <time>2015-10-12T18:31:11.000Z</time>
      </trkpt>
      <trkpt lat="48.86681" lon="2.36471">
        <ele>45</ele>
        <time>2015-10-12T18:31:18.000Z</time>
      </trkpt>
      <trkpt lat="48.86686" lon="2.36475">
        <ele>43.400001525879</ele>
        <time>2015-10-12T18:31:26.000Z</time>
      </trkpt>
      <trkpt lat="48.86684" lon="2.36484">
        <ele>36.799999237061</ele>
        <time>2015-10-12T18:32:22.000Z</time>
      </trkpt>
      <trkpt lat="48.86689" lon="2.36477">
        <ele>35.799999237061</ele>
        <time>2015-10-12T18:34:05.000Z</time>
      </trkpt>
      <trkpt lat="48.86693" lon="2.36469">
        <ele>34.200000762939</ele>
        <time>2015-10-12T18:35:10.000Z</time>
      </trkpt>
      <trkpt lat="48.86711" lon="2.36464">
        <ele>34.400001525879</ele>
        <time>2015-10-12T18:35:19.000Z</time>
      </trkpt>
      <trkpt lat="48.86718" lon="2.3646">
        <ele>34.200000762939</ele>
        <time>2015-10-12T18:35:22.000Z</time>
      </trkpt>
      <trkpt lat="48.86733" lon="2.36441">
        <ele>33.200000762939</ele>
        <time>2015-10-12T18:35:29.000Z</time>
      </trkpt>
      <trkpt lat="48.86752" lon="2.36433">
        <ele>29.60000038147</ele>
        <time>2015-10-12T18:35:35.000Z</time>
      </trkpt>
      <trkpt lat="48.8677" lon="2.36442">
        <ele>28.60000038147</ele>
        <time>2015-10-12T18:35:41.000Z</time>
      </trkpt>
      <trkpt lat="48.86784" lon="2.3646">
        <ele>27.60000038147</ele>
        <time>2015-10-12T18:35:46.000Z</time>
      </trkpt>
      <trkpt lat="48.86794" lon="2.36484">
        <ele>28.60000038147</ele>
        <time>2015-10-12T18:35:51.000Z</time>
      </trkpt>
      <trkpt lat="48.86804" lon="2.3651">
        <ele>33.599998474121</ele>
        <time>2015-10-12T18:35:56.000Z</time>
      </trkpt>
      <trkpt lat="48.86813" lon="2.36539">
        <ele>36.799999237061</ele>
        <time>2015-10-12T18:36:01.000Z</time>
      </trkpt>
      <trkpt lat="48.86821" lon="2.36567">
        <ele>38.200000762939</ele>
        <time>2015-10-12T18:36:06.000Z</time>
      </trkpt>
      <trkpt lat="48.86834" lon="2.36592">
        <ele>39.599998474121</ele>
        <time>2015-10-12T18:36:11.000Z</time>
      </trkpt>
      <trkpt lat="48.86845" lon="2.36619">
        <ele>40.200000762939</ele>
        <time>2015-10-12T18:36:17.000Z</time>
      </trkpt>
      <trkpt lat="48.86853" lon="2.36644">
        <ele>42.599998474121</ele>
        <time>2015-10-12T18:36:22.000Z</time>
      </trkpt>
      <trkpt lat="48.8686" lon="2.36672">
        <ele>43</ele>
        <time>2015-10-12T18:36:27.000Z</time>
      </trkpt>
      <trkpt lat="48.86868" lon="2.36697">
        <ele>44.200000762939</ele>
        <time>2015-10-12T18:36:34.000Z</time>
      </trkpt>
      <trkpt lat="48.86867" lon="2.36711">
        <ele>46.400001525879</ele>
        <time>2015-10-12T18:36:39.000Z</time>
      </trkpt>
      <trkpt lat="48.86874" lon="2.36728">
        <ele>45.799999237061</ele>
        <time>2015-10-12T18:36:45.000Z</time>
      </trkpt>
      <trkpt lat="48.8688" lon="2.36754">
        <ele>47.400001525879</ele>
        <time>2015-10-12T18:36:54.000Z</time>
      </trkpt>
      <trkpt lat="48.86886" lon="2.36768">
        <ele>49.599998474121</ele>
        <time>2015-10-12T18:37:02.000Z</time>
      </trkpt>
      <trkpt lat="48.86892" lon="2.36785">
        <ele>51.799999237061</ele>
        <time>2015-10-12T18:37:10.000Z</time>
      </trkpt>
      <trkpt lat="48.86891" lon="2.36786">
        <ele>52.200000762939</ele>
        <time>2015-10-12T18:37:11.000Z</time>
      </trkpt>
      <trkpt lat="48.86878" lon="2.36805">
        <ele>52.599998474121</ele>
        <time>2015-10-12T18:37:17.000Z</time>
      </trkpt>
      <trkpt lat="48.86871" lon="2.36824">
        <ele>53.400001525879</ele>
        <time>2015-10-12T18:37:21.000Z</time>
      </trkpt>
      <trkpt lat="48.86863" lon="2.36854">
        <ele>53.400001525879</ele>
        <time>2015-10-12T18:37:26.000Z</time>
      </trkpt>
      <trkpt lat="48.86858" lon="2.36884">
        <ele>54.400001525879</ele>
        <time>2015-10-12T18:37:31.000Z</time>
      </trkpt>
      <trkpt lat="48.86854" lon="2.36914">
        <ele>54.799999237061</ele>
        <time>2015-10-12T18:37:36.000Z</time>
      </trkpt>
      <trkpt lat="48.86852" lon="2.36942">
        <ele>54.400001525879</ele>
        <time>2015-10-12T18:37:41.000Z</time>
      </trkpt>
      <trkpt lat="48.86847" lon="2.36972">
        <ele>54.599998474121</ele>
        <time>2015-10-12T18:37:47.000Z</time>
      </trkpt>
      <trkpt lat="48.86839" lon="2.37002">
        <ele>57.200000762939</ele>
        <time>2015-10-12T18:37:53.000Z</time>
      </trkpt>
      <trkpt lat="48.86836" lon="2.37032">
        <ele>60</ele>
        <time>2015-10-12T18:37:58.000Z</time>
      </trkpt>
      <trkpt lat="48.86834" lon="2.37062">
        <ele>62.599998474121</ele>
        <time>2015-10-12T18:38:03.000Z</time>
      </trkpt>
      <trkpt lat="48.86831" lon="2.37093">
        <ele>63</ele>
        <time>2015-10-12T18:38:08.000Z</time>
      </trkpt>
      <trkpt lat="48.86825" lon="2.37122">
        <ele>61.799999237061</ele>
        <time>2015-10-12T18:38:13.000Z</time>
      </trkpt>
      <trkpt lat="48.86821" lon="2.3715">
        <ele>62.799999237061</ele>
        <time>2015-10-12T18:38:18.000Z</time>
      </trkpt>
      <trkpt lat="48.86817" lon="2.37179">
        <ele>63.400001525879</ele>
        <time>2015-10-12T18:38:23.000Z</time>
      </trkpt>
      <trkpt lat="48.86815" lon="2.37209">
        <ele>64.599998474121</ele>
        <time>2015-10-12T18:38:29.000Z</time>
      </trkpt>
      <trkpt lat="48.86818" lon="2.37213">
        <ele>65.400001525879</ele>
        <time>2015-10-12T18:38:32.000Z</time>
      </trkpt>
      <trkpt lat="48.8683" lon="2.37217">
        <ele>58.799999237061</ele>
        <time>2015-10-12T18:38:52.000Z</time>
      </trkpt>
      <trkpt lat="48.8685" lon="2.37207">
        <ele>57.799999237061</ele>
        <time>2015-10-12T18:39:01.000Z</time>
      </trkpt>
      <trkpt lat="48.86869" lon="2.37194">
        <ele>58.200000762939</ele>
        <time>2015-10-12T18:39:06.000Z</time>
      </trkpt>
      <trkpt lat="48.86885" lon="2.37182">
        <ele>57.200000762939</ele>
        <time>2015-10-12T18:39:10.000Z</time>
      </trkpt>
      <trkpt lat="48.86902" lon="2.37168">
        <ele>57.599998474121</ele>
        <time>2015-10-12T18:39:14.000Z</time>
      </trkpt>
      <trkpt lat="48.86921" lon="2.37155">
        <ele>57.599998474121</ele>
        <time>2015-10-12T18:39:19.000Z</time>
      </trkpt>
      <trkpt lat="48.86942" lon="2.37142">
        <ele>58.200000762939</ele>
        <time>2015-10-12T18:39:24.000Z</time>
      </trkpt>
      <trkpt lat="48.86959" lon="2.37132">
        <ele>58</ele>
        <time>2015-10-12T18:39:28.000Z</time>
      </trkpt>
      <trkpt lat="48.86977" lon="2.37117">
        <ele>56.799999237061</ele>
        <time>2015-10-12T18:39:32.000Z</time>
      </trkpt>
      <trkpt lat="48.86996" lon="2.37102">
        <ele>56.200000762939</ele>
        <time>2015-10-12T18:39:36.000Z</time>
      </trkpt>
      <trkpt lat="48.87015" lon="2.3709">
        <ele>54.400001525879</ele>
        <time>2015-10-12T18:39:40.000Z</time>
      </trkpt>
      <trkpt lat="48.87034" lon="2.37076">
        <ele>52.799999237061</ele>
        <time>2015-10-12T18:39:44.000Z</time>
      </trkpt>
      <trkpt lat="48.87053" lon="2.37062">
        <ele>49.799999237061</ele>
        <time>2015-10-12T18:39:48.000Z</time>
      </trkpt>
      <trkpt lat="48.87071" lon="2.37049">
        <ele>47</ele>
        <time>2015-10-12T18:39:52.000Z</time>
      </trkpt>
      <trkpt lat="48.87091" lon="2.37034">
        <ele>44.400001525879</ele>
        <time>2015-10-12T18:39:57.000Z</time>
      </trkpt>
      <trkpt lat="48.8711" lon="2.37021">
        <ele>40.200000762939</ele>
        <time>2015-10-12T18:40:02.000Z</time>
      </trkpt>
      <trkpt lat="48.8712" lon="2.37015">
        <ele>38.400001525879</ele>
        <time>2015-10-12T18:40:05.000Z</time>
      </trkpt>
      <trkpt lat="48.87128" lon="2.37027">
        <ele>39</ele>
        <time>2015-10-12T18:40:09.000Z</time>
      </trkpt>
      <trkpt lat="48.87131" lon="2.37039">
        <ele>40</ele>
        <time>2015-10-12T18:40:11.000Z</time>
      </trkpt>
      <trkpt lat="48.87141" lon="2.37065">
        <ele>42.200000762939</ele>
        <time>2015-10-12T18:40:16.000Z</time>
      </trkpt>
      <trkpt lat="48.87151" lon="2.37089">
        <ele>42.599998474121</ele>
        <time>2015-10-12T18:40:21.000Z</time>
      </trkpt>
      <trkpt lat="48.8716" lon="2.37112">
        <ele>42.799999237061</ele>
        <time>2015-10-12T18:40:26.000Z</time>
      </trkpt>
      <trkpt lat="48.87171" lon="2.37139">
        <ele>42.599998474121</ele>
        <time>2015-10-12T18:40:31.000Z</time>
      </trkpt>
      <trkpt lat="48.87179" lon="2.37164">
        <ele>42.400001525879</ele>
        <time>2015-10-12T18:40:36.000Z</time>
      </trkpt>
      <trkpt lat="48.87187" lon="2.37187">
        <ele>41</ele>
        <time>2015-10-12T18:40:49.000Z</time>
      </trkpt>
      <trkpt lat="48.87189" lon="2.37186">
        <ele>40.799999237061</ele>
        <time>2015-10-12T18:40:50.000Z</time>
      </trkpt>
      <trkpt lat="48.87205" lon="2.37172">
        <ele>41.200000762939</ele>
        <time>2015-10-12T18:40:57.000Z</time>
      </trkpt>
      <trkpt lat="48.87219" lon="2.37155">
        <ele>43</ele>
        <time>2015-10-12T18:41:02.000Z</time>
      </trkpt>
      <trkpt lat="48.87237" lon="2.37141">
        <ele>45</ele>
        <time>2015-10-12T18:41:08.000Z</time>
      </trkpt>
      <trkpt lat="48.87247" lon="2.37135">
        <ele>46.799999237061</ele>
        <time>2015-10-12T18:41:12.000Z</time>
      </trkpt>
      <trkpt lat="48.87257" lon="2.37159">
        <ele>48</ele>
        <time>2015-10-12T18:41:17.000Z</time>
      </trkpt>
      <trkpt lat="48.87269" lon="2.37184">
        <ele>48.799999237061</ele>
        <time>2015-10-12T18:41:22.000Z</time>
      </trkpt>
      <trkpt lat="48.8728" lon="2.37207">
        <ele>49.400001525879</ele>
        <time>2015-10-12T18:41:26.000Z</time>
      </trkpt>
      <trkpt lat="48.87291" lon="2.37232">
        <ele>49.200000762939</ele>
        <time>2015-10-12T18:41:30.000Z</time>
      </trkpt>
      <trkpt lat="48.87302" lon="2.3726">
        <ele>51</ele>
        <time>2015-10-12T18:41:35.000Z</time>
      </trkpt>
      <trkpt lat="48.87314" lon="2.37286">
        <ele>51.200000762939</ele>
        <time>2015-10-12T18:41:40.000Z</time>
      </trkpt>
      <trkpt lat="48.87326" lon="2.3731">
        <ele>50.799999237061</ele>
        <time>2015-10-12T18:41:45.000Z</time>
      </trkpt>
      <trkpt lat="48.87335" lon="2.37337">
        <ele>51.599998474121</ele>
        <time>2015-10-12T18:41:51.000Z</time>
      </trkpt>
      <trkpt lat="48.87349" lon="2.37359">
        <ele>53.200000762939</ele>
        <time>2015-10-12T18:42:00.000Z</time>
      </trkpt>
      <trkpt lat="48.87356" lon="2.37366">
        <ele>55</ele>
        <time>2015-10-12T18:42:07.000Z</time>
      </trkpt>
      <trkpt lat="48.87368" lon="2.37353">
        <ele>58.200000762939</ele>
        <time>2015-10-12T18:42:25.000Z</time>
      </trkpt>
      <trkpt lat="48.87381" lon="2.3733">
        <ele>56.799999237061</ele>
        <time>2015-10-12T18:42:32.000Z</time>
      </trkpt>
      <trkpt lat="48.87394" lon="2.3731">
        <ele>53.599998474121</ele>
        <time>2015-10-12T18:42:38.000Z</time>
      </trkpt>
      <trkpt lat="48.87409" lon="2.37289">
        <ele>52.599998474121</ele>
        <time>2015-10-12T18:42:44.000Z</time>
      </trkpt>
      <trkpt lat="48.87415" lon="2.37274">
        <ele>52.400001525879</ele>
        <time>2015-10-12T18:42:48.000Z</time>
      </trkpt>
      <trkpt lat="48.87424" lon="2.37263">
        <ele>51.599998474121</ele>
        <time>2015-10-12T18:42:55.000Z</time>
      </trkpt>
      <trkpt lat="48.87434" lon="2.37288">
        <ele>49.799999237061</ele>
        <time>2015-10-12T18:43:03.000Z</time>
      </trkpt>
      <trkpt lat="48.87446" lon="2.3731">
        <ele>49.200000762939</ele>
        <time>2015-10-12T18:43:10.000Z</time>
      </trkpt>
      <trkpt lat="48.87449" lon="2.3731">
        <ele>49</ele>
        <time>2015-10-12T18:43:11.000Z</time>
      </trkpt>
      <trkpt lat="48.87455" lon="2.37312">
        <ele>48.799999237061</ele>
        <time>2015-10-12T18:43:14.000Z</time>
      </trkpt>
      <trkpt lat="48.87465" lon="2.37286">
        <ele>47.400001525879</ele>
        <time>2015-10-12T18:43:21.000Z</time>
      </trkpt>
      <trkpt lat="48.87469" lon="2.3726">
        <ele>45.599998474121</ele>
        <time>2015-10-12T18:43:26.000Z</time>
      </trkpt>
      <trkpt lat="48.87472" lon="2.37232">
        <ele>43.400001525879</ele>
        <time>2015-10-12T18:43:31.000Z</time>
      </trkpt>
      <trkpt lat="48.87478" lon="2.37201">
        <ele>41.400001525879</ele>
        <time>2015-10-12T18:43:36.000Z</time>
      </trkpt>
      <trkpt lat="48.8748" lon="2.37169">
        <ele>39.799999237061</ele>
        <time>2015-10-12T18:43:41.000Z</time>
      </trkpt>
      <trkpt lat="48.87488" lon="2.37138">
        <ele>38</ele>
        <time>2015-10-12T18:43:46.000Z</time>
      </trkpt>
      <trkpt lat="48.87496" lon="2.37113">
        <ele>36.599998474121</ele>
        <time>2015-10-12T18:43:50.000Z</time>
      </trkpt>
      <trkpt lat="48.87504" lon="2.37087">
        <ele>34.799999237061</ele>
        <time>2015-10-12T18:43:54.000Z</time>
      </trkpt>
      <trkpt lat="48.87508" lon="2.37068">
        <ele>33.599998474121</ele>
        <time>2015-10-12T18:43:57.000Z</time>
      </trkpt>
      <trkpt lat="48.87519" lon="2.37043">
        <ele>32.400001525879</ele>
        <time>2015-10-12T18:44:02.000Z</time>
      </trkpt>
      <trkpt lat="48.87532" lon="2.37037">
        <ele>34.400001525879</ele>
        <time>2015-10-12T18:44:06.000Z</time>
      </trkpt>
      <trkpt lat="48.87535" lon="2.37036">
        <ele>35.599998474121</ele>
        <time>2015-10-12T18:44:07.000Z</time>
      </trkpt>
      <trkpt lat="48.87535" lon="2.37009">
        <ele>41.799999237061</ele>
        <time>2015-10-12T18:44:19.000Z</time>
      </trkpt>
      <trkpt lat="48.87537" lon="2.3698">
        <ele>41.599998474121</ele>
        <time>2015-10-12T18:44:24.000Z</time>
      </trkpt>
      <trkpt lat="48.87539" lon="2.36951">
        <ele>40.400001525879</ele>
        <time>2015-10-12T18:44:29.000Z</time>
      </trkpt>
      <trkpt lat="48.8754" lon="2.36924">
        <ele>40.200000762939</ele>
        <time>2015-10-12T18:44:34.000Z</time>
      </trkpt>
      <trkpt lat="48.87544" lon="2.36922">
        <ele>40.200000762939</ele>
        <time>2015-10-12T18:44:35.000Z</time>
      </trkpt>
      <trkpt lat="48.8756" lon="2.36908">
        <ele>40.799999237061</ele>
        <time>2015-10-12T18:44:41.000Z</time>
      </trkpt>
      <trkpt lat="48.87576" lon="2.36892">
        <ele>41</ele>
        <time>2015-10-12T18:44:47.000Z</time>
      </trkpt>
      <trkpt lat="48.87587" lon="2.36869">
        <ele>43.599998474121</ele>
        <time>2015-10-12T18:44:52.000Z</time>
      </trkpt>
      <trkpt lat="48.87604" lon="2.36855">
        <ele>44.200000762939</ele>
        <time>2015-10-12T18:44:58.000Z</time>
      </trkpt>
      <trkpt lat="48.87617" lon="2.36834">
        <ele>44.599998474121</ele>
        <time>2015-10-12T18:45:05.000Z</time>
      </trkpt>
      <trkpt lat="48.87627" lon="2.36808">
        <ele>44</ele>
        <time>2015-10-12T18:45:12.000Z</time>
      </trkpt>
      <trkpt lat="48.87639" lon="2.36783">
        <ele>42.400001525879</ele>
        <time>2015-10-12T18:45:17.000Z</time>
      </trkpt>
      <trkpt lat="48.8765" lon="2.36758">
        <ele>41.200000762939</ele>
        <time>2015-10-12T18:45:21.000Z</time>
      </trkpt>
      <trkpt lat="48.87661" lon="2.36732">
        <ele>39.200000762939</ele>
        <time>2015-10-12T18:45:25.000Z</time>
      </trkpt>
      <trkpt lat="48.87671" lon="2.36708">
        <ele>38.200000762939</ele>
        <time>2015-10-12T18:45:29.000Z</time>
      </trkpt>
      <trkpt lat="48.87683" lon="2.3668">
        <ele>35.799999237061</ele>
        <time>2015-10-12T18:45:34.000Z</time>
      </trkpt>
      <trkpt lat="48.87692" lon="2.36656">
        <ele>33.400001525879</ele>
        <time>2015-10-12T18:45:38.000Z</time>
      </trkpt>
      <trkpt lat="48.87702" lon="2.36632">
        <ele>32</ele>
        <time>2015-10-12T18:45:42.000Z</time>
      </trkpt>
      <trkpt lat="48.87705" lon="2.36627">
        <ele>31.200000762939</ele>
        <time>2015-10-12T18:45:43.000Z</time>
      </trkpt>
      <trkpt lat="48.87719" lon="2.3661">
        <ele>29.60000038147</ele>
        <time>2015-10-12T18:45:47.000Z</time>
      </trkpt>
      <trkpt lat="48.8773" lon="2.36595">
        <ele>29</ele>
        <time>2015-10-12T18:45:51.000Z</time>
      </trkpt>
      <trkpt lat="48.87737" lon="2.36584">
        <ele>29</ele>
        <time>2015-10-12T18:45:55.000Z</time>
      </trkpt>
      <trkpt lat="48.87742" lon="2.36578">
        <ele>29.200000762939</ele>
        <time>2015-10-12T18:45:58.000Z</time>
      </trkpt>
      <trkpt lat="48.87747" lon="2.36574">
        <ele>29.60000038147</ele>
        <time>2015-10-12T18:46:00.000Z</time>
      </trkpt>
      <trkpt lat="48.8776" lon="2.36552">
        <ele>30.799999237061</ele>
        <time>2015-10-12T18:46:08.000Z</time>
      </trkpt>
      <trkpt lat="48.87763" lon="2.36543">
        <ele>31.799999237061</ele>
        <time>2015-10-12T18:46:11.000Z</time>
      </trkpt>
      <trkpt lat="48.87782" lon="2.36528">
        <ele>33.200000762939</ele>
        <time>2015-10-12T18:46:18.000Z</time>
      </trkpt>
      <trkpt lat="48.87785" lon="2.36524">
        <ele>33.400001525879</ele>
        <time>2015-10-12T18:46:19.000Z</time>
      </trkpt>
      <trkpt lat="48.87802" lon="2.36503">
        <ele>33.799999237061</ele>
        <time>2015-10-12T18:46:24.000Z</time>
      </trkpt>
      <trkpt lat="48.87817" lon="2.36487">
        <ele>32.799999237061</ele>
        <time>2015-10-12T18:46:28.000Z</time>
      </trkpt>
      <trkpt lat="48.87832" lon="2.36468">
        <ele>31.200000762939</ele>
        <time>2015-10-12T18:46:33.000Z</time>
      </trkpt>
      <trkpt lat="48.87848" lon="2.36448">
        <ele>29.39999961853</ele>
        <time>2015-10-12T18:46:38.000Z</time>
      </trkpt>
      <trkpt lat="48.87863" lon="2.36425">
        <ele>26.200000762939</ele>
        <time>2015-10-12T18:46:44.000Z</time>
      </trkpt>
      <trkpt lat="48.87875" lon="2.36401">
        <ele>23.39999961853</ele>
        <time>2015-10-12T18:46:50.000Z</time>
      </trkpt>
      <trkpt lat="48.8789" lon="2.36378">
        <ele>19.60000038147</ele>
        <time>2015-10-12T18:46:56.000Z</time>
      </trkpt>
      <trkpt lat="48.87903" lon="2.36355">
        <ele>16.39999961853</ele>
        <time>2015-10-12T18:47:01.000Z</time>
      </trkpt>
      <trkpt lat="48.87915" lon="2.36331">
        <ele>14.39999961853</ele>
        <time>2015-10-12T18:47:06.000Z</time>
      </trkpt>
      <trkpt lat="48.87926" lon="2.36306">
        <ele>14.60000038147</ele>
        <time>2015-10-12T18:47:12.000Z</time>
      </trkpt>
      <trkpt lat="48.87928" lon="2.36291">
        <ele>14.800000190735</ele>
        <time>2015-10-12T18:47:18.000Z</time>
      </trkpt>
      <trkpt lat="48.87918" lon="2.36269">
        <ele>17.200000762939</ele>
        <time>2015-10-12T18:47:24.000Z</time>
      </trkpt>
      <trkpt lat="48.87909" lon="2.36252">
        <ele>17.60000038147</ele>
        <time>2015-10-12T18:47:29.000Z</time>
      </trkpt>
      <trkpt lat="48.87922" lon="2.36238">
        <ele>20.200000762939</ele>
        <time>2015-10-12T18:47:36.000Z</time>
      </trkpt>
      <trkpt lat="48.87941" lon="2.36235">
        <ele>25.200000762939</ele>
        <time>2015-10-12T18:47:43.000Z</time>
      </trkpt>
      <trkpt lat="48.8796" lon="2.36229">
        <ele>33.200000762939</ele>
        <time>2015-10-12T18:47:50.000Z</time>
      </trkpt>
      <trkpt lat="48.87981" lon="2.36226">
        <ele>40.599998474121</ele>
        <time>2015-10-12T18:47:56.000Z</time>
      </trkpt>
      <trkpt lat="48.88001" lon="2.36222">
        <ele>54</ele>
        <time>2015-10-12T18:48:02.000Z</time>
      </trkpt>
      <trkpt lat="48.8802" lon="2.3622">
        <ele>59.799999237061</ele>
        <time>2015-10-12T18:48:08.000Z</time>
      </trkpt>
      <trkpt lat="48.88038" lon="2.36217">
        <ele>62.799999237061</ele>
        <time>2015-10-12T18:48:14.000Z</time>
      </trkpt>
      <trkpt lat="48.88055" lon="2.36207">
        <ele>62</ele>
        <time>2015-10-12T18:48:20.000Z</time>
      </trkpt>
      <trkpt lat="48.88073" lon="2.36205">
        <ele>64.599998474121</ele>
        <time>2015-10-12T18:48:27.000Z</time>
      </trkpt>
      <trkpt lat="48.88093" lon="2.362">
        <ele>66.400001525879</ele>
        <time>2015-10-12T18:48:33.000Z</time>
      </trkpt>
      <trkpt lat="48.88114" lon="2.36191">
        <ele>65.599998474121</ele>
        <time>2015-10-12T18:48:38.000Z</time>
      </trkpt>
      <trkpt lat="48.8813" lon="2.36182">
        <ele>66.599998474121</ele>
        <time>2015-10-12T18:48:43.000Z</time>
      </trkpt>
      <trkpt lat="48.8813" lon="2.36161">
        <ele>66.800003051758</ele>
        <time>2015-10-12T18:48:49.000Z</time>
      </trkpt>
      <trkpt lat="48.88117" lon="2.36135">
        <ele>71.199996948242</ele>
        <time>2015-10-12T18:48:55.000Z</time>
      </trkpt>
      <trkpt lat="48.88105" lon="2.36111">
        <ele>71.400001525879</ele>
        <time>2015-10-12T18:49:00.000Z</time>
      </trkpt>
      <trkpt lat="48.88095" lon="2.36082">
        <ele>71.800003051758</ele>
        <time>2015-10-12T18:49:05.000Z</time>
      </trkpt>
      <trkpt lat="48.88085" lon="2.3606">
        <ele>71.199996948242</ele>
        <time>2015-10-12T18:49:09.000Z</time>
      </trkpt>
      <trkpt lat="48.88074" lon="2.36037">
        <ele>71.400001525879</ele>
        <time>2015-10-12T18:49:13.000Z</time>
      </trkpt>
      <trkpt lat="48.88064" lon="2.36013">
        <ele>71</ele>
        <time>2015-10-12T18:49:17.000Z</time>
      </trkpt>
      <trkpt lat="48.88054" lon="2.35989">
        <ele>70.199996948242</ele>
        <time>2015-10-12T18:49:21.000Z</time>
      </trkpt>
      <trkpt lat="48.88043" lon="2.35964">
        <ele>70.199996948242</ele>
        <time>2015-10-12T18:49:25.000Z</time>
      </trkpt>
      <trkpt lat="48.88027" lon="2.35941">
        <ele>69.800003051758</ele>
        <time>2015-10-12T18:49:29.000Z</time>
      </trkpt>
      <trkpt lat="48.88011" lon="2.35919">
        <ele>69.400001525879</ele>
        <time>2015-10-12T18:49:33.000Z</time>
      </trkpt>
      <trkpt lat="48.88002" lon="2.35901">
        <ele>69</ele>
        <time>2015-10-12T18:49:36.000Z</time>
      </trkpt>
      <trkpt lat="48.87989" lon="2.35881">
        <ele>70.800003051758</ele>
        <time>2015-10-12T18:49:40.000Z</time>
      </trkpt>
      <trkpt lat="48.87981" lon="2.35869">
        <ele>70.599998474121</ele>
        <time>2015-10-12T18:49:43.000Z</time>
      </trkpt>
      <trkpt lat="48.87971" lon="2.35844">
        <ele>70.199996948242</ele>
        <time>2015-10-12T18:49:50.000Z</time>
      </trkpt>
      <trkpt lat="48.87968" lon="2.35837">
        <ele>69.800003051758</ele>
        <time>2015-10-12T18:49:52.000Z</time>
      </trkpt>
      <trkpt lat="48.87965" lon="2.35834">
        <ele>69.800003051758</ele>
        <time>2015-10-12T18:49:53.000Z</time>
      </trkpt>
      <trkpt lat="48.87955" lon="2.35814">
        <ele>70</ele>
        <time>2015-10-12T18:49:59.000Z</time>
      </trkpt>
      <trkpt lat="48.87948" lon="2.35787">
        <ele>67</ele>
        <time>2015-10-12T18:50:07.000Z</time>
      </trkpt>
      <trkpt lat="48.87948" lon="2.35755">
        <ele>62.599998474121</ele>
        <time>2015-10-12T18:50:13.000Z</time>
      </trkpt>
      <trkpt lat="48.87955" lon="2.35729">
        <ele>58.799999237061</ele>
        <time>2015-10-12T18:50:19.000Z</time>
      </trkpt>
      <trkpt lat="48.87961" lon="2.35702">
        <ele>55.400001525879</ele>
        <time>2015-10-12T18:50:24.000Z</time>
      </trkpt>
      <trkpt lat="48.87971" lon="2.35671">
        <ele>51</ele>
        <time>2015-10-12T18:50:29.000Z</time>
      </trkpt>
      <trkpt lat="48.87978" lon="2.35644">
        <ele>48.400001525879</ele>
        <time>2015-10-12T18:50:33.000Z</time>
      </trkpt>
      <trkpt lat="48.87983" lon="2.35615">
        <ele>45.599998474121</ele>
        <time>2015-10-12T18:50:37.000Z</time>
      </trkpt>
      <trkpt lat="48.87989" lon="2.35586">
        <ele>44.200000762939</ele>
        <time>2015-10-12T18:50:41.000Z</time>
      </trkpt>
      <trkpt lat="48.87992" lon="2.35558">
        <ele>42.599998474121</ele>
        <time>2015-10-12T18:50:46.000Z</time>
      </trkpt>
      <trkpt lat="48.87992" lon="2.3553">
        <ele>40.799999237061</ele>
        <time>2015-10-12T18:50:52.000Z</time>
      </trkpt>
      <trkpt lat="48.87993" lon="2.35526">
        <ele>40.599998474121</ele>
        <time>2015-10-12T18:50:53.000Z</time>
      </trkpt>
      <trkpt lat="48.87998" lon="2.35496">
        <ele>41.799999237061</ele>
        <time>2015-10-12T18:51:01.000Z</time>
      </trkpt>
      <trkpt lat="48.88004" lon="2.35467">
        <ele>40.799999237061</ele>
        <time>2015-10-12T18:51:08.000Z</time>
      </trkpt>
      <trkpt lat="48.88009" lon="2.35438">
        <ele>44</ele>
        <time>2015-10-12T18:51:15.000Z</time>
      </trkpt>
      <trkpt lat="48.88015" lon="2.35411">
        <ele>42.799999237061</ele>
        <time>2015-10-12T18:51:23.000Z</time>
      </trkpt>
      <trkpt lat="48.88021" lon="2.35385">
        <ele>43</ele>
        <time>2015-10-12T18:51:31.000Z</time>
      </trkpt>
      <trkpt lat="48.88022" lon="2.35375">
        <ele>43.200000762939</ele>
        <time>2015-10-12T18:51:34.000Z</time>
      </trkpt>
      <trkpt lat="48.88026" lon="2.35364">
        <ele>42.400001525879</ele>
        <time>2015-10-12T18:51:38.000Z</time>
      </trkpt>
      <trkpt lat="48.88034" lon="2.35337">
        <ele>40.599998474121</ele>
        <time>2015-10-12T18:51:44.000Z</time>
      </trkpt>
      <trkpt lat="48.88042" lon="2.35308">
        <ele>39.599998474121</ele>
        <time>2015-10-12T18:51:50.000Z</time>
      </trkpt>
      <trkpt lat="48.88049" lon="2.35279">
        <ele>40</ele>
        <time>2015-10-12T18:51:56.000Z</time>
      </trkpt>
      <trkpt lat="48.88059" lon="2.35256">
        <ele>42.200000762939</ele>
        <time>2015-10-12T18:52:04.000Z</time>
      </trkpt>
      <trkpt lat="48.88066" lon="2.35239">
        <ele>43.400001525879</ele>
        <time>2015-10-12T18:52:12.000Z</time>
      </trkpt>
      <trkpt lat="48.8805" lon="2.35242">
        <ele>45</ele>
        <time>2015-10-12T18:52:32.000Z</time>
      </trkpt>
      <trkpt lat="48.88035" lon="2.3523">
        <ele>50.799999237061</ele>
        <time>2015-10-12T18:53:14.000Z</time>
      </trkpt>
      <trkpt lat="48.88018" lon="2.3522">
        <ele>52</ele>
        <time>2015-10-12T18:53:22.000Z</time>
      </trkpt>
      <trkpt lat="48.87998" lon="2.35216">
        <ele>52.200000762939</ele>
        <time>2015-10-12T18:53:31.000Z</time>
      </trkpt>
      <trkpt lat="48.87978" lon="2.35213">
        <ele>51.599998474121</ele>
        <time>2015-10-12T18:53:39.000Z</time>
      </trkpt>
      <trkpt lat="48.8796" lon="2.35206">
        <ele>51.400001525879</ele>
        <time>2015-10-12T18:53:46.000Z</time>
      </trkpt>
      <trkpt lat="48.87949" lon="2.35181">
        <ele>50.799999237061</ele>
        <time>2015-10-12T18:53:53.000Z</time>
      </trkpt>
      <trkpt lat="48.87936" lon="2.35164">
        <ele>50.400001525879</ele>
        <time>2015-10-12T18:53:58.000Z</time>
      </trkpt>
      <trkpt lat="48.87918" lon="2.35159">
        <ele>49.599998474121</ele>
        <time>2015-10-12T18:54:03.000Z</time>
      </trkpt>
      <trkpt lat="48.87897" lon="2.35155">
        <ele>48</ele>
        <time>2015-10-12T18:54:09.000Z</time>
      </trkpt>
      <trkpt lat="48.87878" lon="2.3515">
        <ele>46.200000762939</ele>
        <time>2015-10-12T18:54:16.000Z</time>
      </trkpt>
      <trkpt lat="48.87867" lon="2.35147">
        <ele>44.799999237061</ele>
        <time>2015-10-12T18:54:24.000Z</time>
      </trkpt>
      <trkpt lat="48.87865" lon="2.35147">
        <ele>44.599998474121</ele>
        <time>2015-10-12T18:54:27.000Z</time>
      </trkpt>
      <trkpt lat="48.87861" lon="2.35159">
        <ele>45.200000762939</ele>
        <time>2015-10-12T18:54:38.000Z</time>
      </trkpt>
      <trkpt lat="48.87854" lon="2.35151">
        <ele>45.799999237061</ele>
        <time>2015-10-12T18:54:54.000Z</time>
      </trkpt>
      <trkpt lat="48.87835" lon="2.35146">
        <ele>48.400001525879</ele>
        <time>2015-10-12T18:55:05.000Z</time>
      </trkpt>
      <trkpt lat="48.87828" lon="2.35136">
        <ele>48.799999237061</ele>
        <time>2015-10-12T18:55:08.000Z</time>
      </trkpt>
      <trkpt lat="48.87814" lon="2.35123">
        <ele>47.599998474121</ele>
        <time>2015-10-12T18:55:16.000Z</time>
      </trkpt>
      <trkpt lat="48.87816" lon="2.35117">
        <ele>47</ele>
        <time>2015-10-12T18:55:19.000Z</time>
      </trkpt>
      <trkpt lat="48.8783" lon="2.35094">
        <ele>45</ele>
        <time>2015-10-12T18:55:27.000Z</time>
      </trkpt>
      <trkpt lat="48.87842" lon="2.35073">
        <ele>44.400001525879</ele>
        <time>2015-10-12T18:55:33.000Z</time>
      </trkpt>
      <trkpt lat="48.87857" lon="2.35056">
        <ele>43.599998474121</ele>
        <time>2015-10-12T18:55:41.000Z</time>
      </trkpt>
      <trkpt lat="48.87858" lon="2.35056">
        <ele>43.400001525879</ele>
        <time>2015-10-12T18:55:43.000Z</time>
      </trkpt>
      <trkpt lat="48.87864" lon="2.3504">
        <ele>51</ele>
        <time>2015-10-12T18:56:42.000Z</time>
      </trkpt>
      <trkpt lat="48.87857" lon="2.35046">
        <ele>52.599998474121</ele>
        <time>2015-10-12T18:58:03.000Z</time>
      </trkpt>
      <trkpt lat="48.87856" lon="2.35058">
        <ele>53.799999237061</ele>
        <time>2015-10-12T18:58:56.000Z</time>
      </trkpt>
      <trkpt lat="48.87861" lon="2.35066">
        <ele>54</ele>
        <time>2015-10-12T18:59:02.000Z</time>
      </trkpt>
      <trkpt lat="48.87873" lon="2.35035">
        <ele>54.200000762939</ele>
        <time>2015-10-12T18:59:10.000Z</time>
      </trkpt>
      <trkpt lat="48.87874" lon="2.3503">
        <ele>54.200000762939</ele>
        <time>2015-10-12T18:59:11.000Z</time>
      </trkpt>
      <trkpt lat="48.87881" lon="2.35014">
        <ele>54.200000762939</ele>
        <time>2015-10-12T18:59:14.000Z</time>
      </trkpt>
      <trkpt lat="48.87892" lon="2.3499">
        <ele>54.400001525879</ele>
        <time>2015-10-12T18:59:20.000Z</time>
      </trkpt>
      <trkpt lat="48.87904" lon="2.34965">
        <ele>54</ele>
        <time>2015-10-12T18:59:26.000Z</time>
      </trkpt>
      <trkpt lat="48.87914" lon="2.34941">
        <ele>54.200000762939</ele>
        <time>2015-10-12T18:59:32.000Z</time>
      </trkpt>
      <trkpt lat="48.87919" lon="2.34934">
        <ele>54</ele>
        <time>2015-10-12T18:59:34.000Z</time>
      </trkpt>
      <trkpt lat="48.87937" lon="2.34937">
        <ele>53.599998474121</ele>
        <time>2015-10-12T18:59:40.000Z</time>
      </trkpt>
      <trkpt lat="48.8794" lon="2.34938">
        <ele>53.400001525879</ele>
        <time>2015-10-12T18:59:41.000Z</time>
      </trkpt>
      <trkpt lat="48.87959" lon="2.34942">
        <ele>53.200000762939</ele>
        <time>2015-10-12T18:59:47.000Z</time>
      </trkpt>
      <trkpt lat="48.87976" lon="2.34956">
        <ele>54</ele>
        <time>2015-10-12T18:59:53.000Z</time>
      </trkpt>
      <trkpt lat="48.87993" lon="2.34967">
        <ele>56.799999237061</ele>
        <time>2015-10-12T18:59:59.000Z</time>
      </trkpt>
      <trkpt lat="48.88012" lon="2.3498">
        <ele>59.799999237061</ele>
        <time>2015-10-12T19:00:05.000Z</time>
      </trkpt>
      <trkpt lat="48.88029" lon="2.34992">
        <ele>61</ele>
        <time>2015-10-12T19:00:10.000Z</time>
      </trkpt>
      <trkpt lat="48.8805" lon="2.34996">
        <ele>62.200000762939</ele>
        <time>2015-10-12T19:00:15.000Z</time>
      </trkpt>
      <trkpt lat="48.8807" lon="2.34996">
        <ele>64.800003051758</ele>
        <time>2015-10-12T19:00:20.000Z</time>
      </trkpt>
      <trkpt lat="48.88092" lon="2.34991">
        <ele>68</ele>
        <time>2015-10-12T19:00:25.000Z</time>
      </trkpt>
      <trkpt lat="48.88113" lon="2.34983">
        <ele>71.800003051758</ele>
        <time>2015-10-12T19:00:30.000Z</time>
      </trkpt>
      <trkpt lat="48.88131" lon="2.34978">
        <ele>76.199996948242</ele>
        <time>2015-10-12T19:00:35.000Z</time>
      </trkpt>
      <trkpt lat="48.8815" lon="2.34972">
        <ele>83</ele>
        <time>2015-10-12T19:00:40.000Z</time>
      </trkpt>
      <trkpt lat="48.88168" lon="2.34973">
        <ele>90.400001525879</ele>
        <time>2015-10-12T19:00:45.000Z</time>
      </trkpt>
      <trkpt lat="48.88188" lon="2.3497">
        <ele>96.199996948242</ele>
        <time>2015-10-12T19:00:50.000Z</time>
      </trkpt>
      <trkpt lat="48.88206" lon="2.34964">
        <ele>99.199996948242</ele>
        <time>2015-10-12T19:00:54.000Z</time>
      </trkpt>
      <trkpt lat="48.88225" lon="2.34951">
        <ele>101.80000305176</ele>
        <time>2015-10-12T19:00:59.000Z</time>
      </trkpt>
      <trkpt lat="48.88234" lon="2.34927">
        <ele>100.19999694824</ele>
        <time>2015-10-12T19:01:06.000Z</time>
      </trkpt>
      <trkpt lat="48.88239" lon="2.34898">
        <ele>96.599998474121</ele>
        <time>2015-10-12T19:01:13.000Z</time>
      </trkpt>
      <trkpt lat="48.88241" lon="2.3487">
        <ele>97</ele>
        <time>2015-10-12T19:01:19.000Z</time>
      </trkpt>
      <trkpt lat="48.88249" lon="2.3484">
        <ele>87.400001525879</ele>
        <time>2015-10-12T19:01:27.000Z</time>
      </trkpt>
      <trkpt lat="48.88252" lon="2.34809">
        <ele>80.800003051758</ele>
        <time>2015-10-12T19:01:34.000Z</time>
      </trkpt>
      <trkpt lat="48.88252" lon="2.34778">
        <ele>78</ele>
        <time>2015-10-12T19:01:41.000Z</time>
      </trkpt>
      <trkpt lat="48.88252" lon="2.3475">
        <ele>74</ele>
        <time>2015-10-12T19:01:48.000Z</time>
      </trkpt>
      <trkpt lat="48.88253" lon="2.34723">
        <ele>72</ele>
        <time>2015-10-12T19:01:54.000Z</time>
      </trkpt>
      <trkpt lat="48.88251" lon="2.34694">
        <ele>70.599998474121</ele>
        <time>2015-10-12T19:02:01.000Z</time>
      </trkpt>
      <trkpt lat="48.88249" lon="2.34681">
        <ele>71.199996948242</ele>
        <time>2015-10-12T19:02:08.000Z</time>
      </trkpt>
      <trkpt lat="48.88243" lon="2.34684">
        <ele>70.599998474121</ele>
        <time>2015-10-12T19:02:21.000Z</time>
      </trkpt>
      <trkpt lat="48.88226" lon="2.34675">
        <ele>69.599998474121</ele>
        <time>2015-10-12T19:02:29.000Z</time>
      </trkpt>
      <trkpt lat="48.88223" lon="2.34675">
        <ele>69.400001525879</ele>
        <time>2015-10-12T19:02:30.000Z</time>
      </trkpt>
      <trkpt lat="48.88204" lon="2.34668">
        <ele>68.400001525879</ele>
        <time>2015-10-12T19:02:36.000Z</time>
      </trkpt>
      <trkpt lat="48.88192" lon="2.34648">
        <ele>67</ele>
        <time>2015-10-12T19:02:41.000Z</time>
      </trkpt>
      <trkpt lat="48.88186" lon="2.34617">
        <ele>62.200000762939</ele>
        <time>2015-10-12T19:02:47.000Z</time>
      </trkpt>
      <trkpt lat="48.88181" lon="2.3459">
        <ele>57.599998474121</ele>
        <time>2015-10-12T19:02:52.000Z</time>
      </trkpt>
      <trkpt lat="48.88175" lon="2.3456">
        <ele>53.599998474121</ele>
        <time>2015-10-12T19:02:58.000Z</time>
      </trkpt>
      <trkpt lat="48.88176" lon="2.3453">
        <ele>50.799999237061</ele>
        <time>2015-10-12T19:03:03.000Z</time>
      </trkpt>
      <trkpt lat="48.8818" lon="2.34501">
        <ele>46.799999237061</ele>
        <time>2015-10-12T19:03:09.000Z</time>
      </trkpt>
      <trkpt lat="48.88175" lon="2.34475">
        <ele>48.599998474121</ele>
        <time>2015-10-12T19:03:15.000Z</time>
      </trkpt>
      <trkpt lat="48.88162" lon="2.34455">
        <ele>45.799999237061</ele>
        <time>2015-10-12T19:03:23.000Z</time>
      </trkpt>
      <trkpt lat="48.88147" lon="2.34438">
        <ele>44.200000762939</ele>
        <time>2015-10-12T19:03:32.000Z</time>
      </trkpt>
      <trkpt lat="48.88127" lon="2.34431">
        <ele>41.400001525879</ele>
        <time>2015-10-12T19:03:39.000Z</time>
      </trkpt>
      <trkpt lat="48.88106" lon="2.3442">
        <ele>39.599998474121</ele>
        <time>2015-10-12T19:03:45.000Z</time>
      </trkpt>
      <trkpt lat="48.88084" lon="2.34411">
        <ele>37.400001525879</ele>
        <time>2015-10-12T19:03:50.000Z</time>
      </trkpt>
      <trkpt lat="48.88065" lon="2.34405">
        <ele>36.400001525879</ele>
        <time>2015-10-12T19:03:54.000Z</time>
      </trkpt>
      <trkpt lat="48.88045" lon="2.34393">
        <ele>35.200000762939</ele>
        <time>2015-10-12T19:03:59.000Z</time>
      </trkpt>
      <trkpt lat="48.88025" lon="2.34384">
        <ele>35.400001525879</ele>
        <time>2015-10-12T19:04:04.000Z</time>
      </trkpt>
      <trkpt lat="48.88006" lon="2.34378">
        <ele>32.799999237061</ele>
        <time>2015-10-12T19:04:08.000Z</time>
      </trkpt>
      <trkpt lat="48.87986" lon="2.34373">
        <ele>31</ele>
        <time>2015-10-12T19:04:13.000Z</time>
      </trkpt>
      <trkpt lat="48.87967" lon="2.34357">
        <ele>29.799999237061</ele>
        <time>2015-10-12T19:04:18.000Z</time>
      </trkpt>
      <trkpt lat="48.87949" lon="2.34346">
        <ele>29.200000762939</ele>
        <time>2015-10-12T19:04:23.000Z</time>
      </trkpt>
      <trkpt lat="48.8793" lon="2.3433">
        <ele>29.200000762939</ele>
        <time>2015-10-12T19:04:29.000Z</time>
      </trkpt>
      <trkpt lat="48.87911" lon="2.34322">
        <ele>27.60000038147</ele>
        <time>2015-10-12T19:04:34.000Z</time>
      </trkpt>
      <trkpt lat="48.87893" lon="2.3431">
        <ele>25.799999237061</ele>
        <time>2015-10-12T19:04:39.000Z</time>
      </trkpt>
      <trkpt lat="48.87874" lon="2.34295">
        <ele>24</ele>
        <time>2015-10-12T19:04:44.000Z</time>
      </trkpt>
      <trkpt lat="48.87854" lon="2.34288">
        <ele>21.799999237061</ele>
        <time>2015-10-12T19:04:49.000Z</time>
      </trkpt>
      <trkpt lat="48.87835" lon="2.34279">
        <ele>18.799999237061</ele>
        <time>2015-10-12T19:04:54.000Z</time>
      </trkpt>
      <trkpt lat="48.87819" lon="2.34266">
        <ele>17</ele>
        <time>2015-10-12T19:04:58.000Z</time>
      </trkpt>
      <trkpt lat="48.87802" lon="2.34253">
        <ele>15.199999809265</ele>
        <time>2015-10-12T19:05:02.000Z</time>
      </trkpt>
      <trkpt lat="48.87783" lon="2.34249">
        <ele>12.60000038147</ele>
        <time>2015-10-12T19:05:06.000Z</time>
      </trkpt>
      <trkpt lat="48.87765" lon="2.3425">
        <ele>10.39999961853</ele>
        <time>2015-10-12T19:05:10.000Z</time>
      </trkpt>
      <trkpt lat="48.87753" lon="2.34253">
        <ele>9.1999998092651</ele>
        <time>2015-10-12T19:05:13.000Z</time>
      </trkpt>
      <trkpt lat="48.87734" lon="2.34245">
        <ele>7.5999999046326</ele>
        <time>2015-10-12T19:05:19.000Z</time>
      </trkpt>
      <trkpt lat="48.87715" lon="2.34242">
        <ele>10.60000038147</ele>
        <time>2015-10-12T19:05:23.000Z</time>
      </trkpt>
      <trkpt lat="48.87702" lon="2.34218">
        <ele>13.800000190735</ele>
        <time>2015-10-12T19:05:27.000Z</time>
      </trkpt>
      <trkpt lat="48.87698" lon="2.34204">
        <ele>13.60000038147</ele>
        <time>2015-10-12T19:05:29.000Z</time>
      </trkpt>
      <trkpt lat="48.87686" lon="2.34176">
        <ele>12.800000190735</ele>
        <time>2015-10-12T19:05:33.000Z</time>
      </trkpt>
      <trkpt lat="48.8767" lon="2.34154">
        <ele>15.199999809265</ele>
        <time>2015-10-12T19:05:37.000Z</time>
      </trkpt>
      <trkpt lat="48.87655" lon="2.34136">
        <ele>17.799999237061</ele>
        <time>2015-10-12T19:05:41.000Z</time>
      </trkpt>
      <trkpt lat="48.87655" lon="2.34103">
        <ele>17.200000762939</ele>
        <time>2015-10-12T19:05:45.000Z</time>
      </trkpt>
      <trkpt lat="48.87658" lon="2.34072">
        <ele>16</ele>
        <time>2015-10-12T19:05:49.000Z</time>
      </trkpt>
      <trkpt lat="48.87657" lon="2.34057">
        <ele>15.60000038147</ele>
        <time>2015-10-12T19:05:51.000Z</time>
      </trkpt>
      <trkpt lat="48.87654" lon="2.34026">
        <ele>15</ele>
        <time>2015-10-12T19:05:56.000Z</time>
      </trkpt>
      <trkpt lat="48.87659" lon="2.34004">
        <ele>14.60000038147</ele>
        <time>2015-10-12T19:06:00.000Z</time>
      </trkpt>
      <trkpt lat="48.87669" lon="2.33973">
        <ele>13.800000190735</ele>
        <time>2015-10-12T19:06:06.000Z</time>
      </trkpt>
      <trkpt lat="48.87674" lon="2.33958">
        <ele>13</ele>
        <time>2015-10-12T19:06:14.000Z</time>
      </trkpt>
      <trkpt lat="48.87669" lon="2.33948">
        <ele>16.200000762939</ele>
        <time>2015-10-12T19:06:29.000Z</time>
      </trkpt>
      <trkpt lat="48.87677" lon="2.33928">
        <ele>19.39999961853</ele>
        <time>2015-10-12T19:06:53.000Z</time>
      </trkpt>
      <trkpt lat="48.87686" lon="2.339">
        <ele>19.60000038147</ele>
        <time>2015-10-12T19:07:00.000Z</time>
      </trkpt>
      <trkpt lat="48.8769" lon="2.33868">
        <ele>20.60000038147</ele>
        <time>2015-10-12T19:07:05.000Z</time>
      </trkpt>
      <trkpt lat="48.87691" lon="2.33855">
        <ele>20.200000762939</ele>
        <time>2015-10-12T19:07:07.000Z</time>
      </trkpt>
      <trkpt lat="48.87693" lon="2.33824">
        <ele>19.60000038147</ele>
        <time>2015-10-12T19:07:11.000Z</time>
      </trkpt>
      <trkpt lat="48.87694" lon="2.33792">
        <ele>19</ele>
        <time>2015-10-12T19:07:15.000Z</time>
      </trkpt>
      <trkpt lat="48.8769" lon="2.33759">
        <ele>17.799999237061</ele>
        <time>2015-10-12T19:07:19.000Z</time>
      </trkpt>
      <trkpt lat="48.87683" lon="2.33726">
        <ele>16.39999961853</ele>
        <time>2015-10-12T19:07:23.000Z</time>
      </trkpt>
      <trkpt lat="48.87684" lon="2.33717">
        <ele>16.200000762939</ele>
        <time>2015-10-12T19:07:24.000Z</time>
      </trkpt>
      <trkpt lat="48.87683" lon="2.33684">
        <ele>14.60000038147</ele>
        <time>2015-10-12T19:07:28.000Z</time>
      </trkpt>
      <trkpt lat="48.87684" lon="2.3366">
        <ele>14.199999809265</ele>
        <time>2015-10-12T19:07:31.000Z</time>
      </trkpt>
      <trkpt lat="48.87682" lon="2.33629">
        <ele>13.39999961853</ele>
        <time>2015-10-12T19:07:35.000Z</time>
      </trkpt>
      <trkpt lat="48.87683" lon="2.33599">
        <ele>12.60000038147</ele>
        <time>2015-10-12T19:07:39.000Z</time>
      </trkpt>
      <trkpt lat="48.87683" lon="2.3357">
        <ele>12</ele>
        <time>2015-10-12T19:07:43.000Z</time>
      </trkpt>
      <trkpt lat="48.87692" lon="2.33551">
        <ele>11.39999961853</ele>
        <time>2015-10-12T19:07:46.000Z</time>
      </trkpt>
      <trkpt lat="48.87698" lon="2.33544">
        <ele>11.199999809265</ele>
        <time>2015-10-12T19:07:48.000Z</time>
      </trkpt>
      <trkpt lat="48.87704" lon="2.33542">
        <ele>10.199999809265</ele>
        <time>2015-10-12T19:07:52.000Z</time>
      </trkpt>
      <trkpt lat="48.87692" lon="2.33546">
        <ele>11</ele>
        <time>2015-10-12T19:08:00.000Z</time>
      </trkpt>
      <trkpt lat="48.8769" lon="2.33525">
        <ele>10</ele>
        <time>2015-10-12T19:08:04.000Z</time>
      </trkpt>
      <trkpt lat="48.87692" lon="2.33492">
        <ele>8.3999996185303</ele>
        <time>2015-10-12T19:08:09.000Z</time>
      </trkpt>
      <trkpt lat="48.87691" lon="2.3346">
        <ele>6.1999998092651</ele>
        <time>2015-10-12T19:08:14.000Z</time>
      </trkpt>
      <trkpt lat="48.87691" lon="2.33427">
        <ele>4.4000000953674</ele>
        <time>2015-10-12T19:08:19.000Z</time>
      </trkpt>
      <trkpt lat="48.8769" lon="2.33399">
        <ele>2.7999999523163</ele>
        <time>2015-10-12T19:08:23.000Z</time>
      </trkpt>
      <trkpt lat="48.87691" lon="2.33366">
        <ele>2.4000000953674</ele>
        <time>2015-10-12T19:08:27.000Z</time>
      </trkpt>
      <trkpt lat="48.87691" lon="2.33334">
        <ele>2.5999999046326</ele>
        <time>2015-10-12T19:08:31.000Z</time>
      </trkpt>
      <trkpt lat="48.8769" lon="2.33304">
        <ele>2.5999999046326</ele>
        <time>2015-10-12T19:08:35.000Z</time>
      </trkpt>
      <trkpt lat="48.87691" lon="2.33274">
        <ele>2.5999999046326</ele>
        <time>2015-10-12T19:08:39.000Z</time>
      </trkpt>
      <trkpt lat="48.87689" lon="2.33243">
        <ele>2</ele>
        <time>2015-10-12T19:08:44.000Z</time>
      </trkpt>
      <trkpt lat="48.87701" lon="2.33226">
        <ele>2.4000000953674</ele>
        <time>2015-10-12T19:08:52.000Z</time>
      </trkpt>
      <trkpt lat="48.87712" lon="2.33213">
        <ele>4.4000000953674</ele>
        <time>2015-10-12T19:08:57.000Z</time>
      </trkpt>
      <trkpt lat="48.87729" lon="2.33201">
        <ele>7.5999999046326</ele>
        <time>2015-10-12T19:09:05.000Z</time>
      </trkpt>
      <trkpt lat="48.87749" lon="2.33196">
        <ele>12</ele>
        <time>2015-10-12T19:09:15.000Z</time>
      </trkpt>
      <trkpt lat="48.87769" lon="2.33186">
        <ele>15.800000190735</ele>
        <time>2015-10-12T19:09:22.000Z</time>
      </trkpt>
      <trkpt lat="48.87778" lon="2.3316">
        <ele>17.799999237061</ele>
        <time>2015-10-12T19:09:27.000Z</time>
      </trkpt>
      <trkpt lat="48.87782" lon="2.33129">
        <ele>18.799999237061</ele>
        <time>2015-10-12T19:09:33.000Z</time>
      </trkpt>
      <trkpt lat="48.87779" lon="2.33101">
        <ele>18</ele>
        <time>2015-10-12T19:09:39.000Z</time>
      </trkpt>
      <trkpt lat="48.87766" lon="2.33079">
        <ele>19.60000038147</ele>
        <time>2015-10-12T19:09:45.000Z</time>
      </trkpt>
      <trkpt lat="48.87762" lon="2.33059">
        <ele>21.799999237061</ele>
        <time>2015-10-12T19:09:51.000Z</time>
      </trkpt>
      <trkpt lat="48.87772" lon="2.33037">
        <ele>23</ele>
        <time>2015-10-12T19:10:00.000Z</time>
      </trkpt>
      <trkpt lat="48.87792" lon="2.33027">
        <ele>24.799999237061</ele>
        <time>2015-10-12T19:10:06.000Z</time>
      </trkpt>
      <trkpt lat="48.87808" lon="2.33011">
        <ele>26.799999237061</ele>
        <time>2015-10-12T19:10:12.000Z</time>
      </trkpt>
      <trkpt lat="48.8782" lon="2.32983">
        <ele>28</ele>
        <time>2015-10-12T19:10:17.000Z</time>
      </trkpt>
      <trkpt lat="48.87822" lon="2.32956">
        <ele>28.799999237061</ele>
        <time>2015-10-12T19:10:21.000Z</time>
      </trkpt>
      <trkpt lat="48.87823" lon="2.32922">
        <ele>28.39999961853</ele>
        <time>2015-10-12T19:10:26.000Z</time>
      </trkpt>
      <trkpt lat="48.87821" lon="2.32895">
        <ele>28.39999961853</ele>
        <time>2015-10-12T19:10:30.000Z</time>
      </trkpt>
      <trkpt lat="48.87818" lon="2.32866">
        <ele>28.200000762939</ele>
        <time>2015-10-12T19:10:34.000Z</time>
      </trkpt>
      <trkpt lat="48.87814" lon="2.32834">
        <ele>27.60000038147</ele>
        <time>2015-10-12T19:10:39.000Z</time>
      </trkpt>
      <trkpt lat="48.87811" lon="2.32806">
        <ele>27</ele>
        <time>2015-10-12T19:10:43.000Z</time>
      </trkpt>
      <trkpt lat="48.87808" lon="2.32779">
        <ele>26.60000038147</ele>
        <time>2015-10-12T19:10:47.000Z</time>
      </trkpt>
      <trkpt lat="48.87805" lon="2.32752">
        <ele>26.200000762939</ele>
        <time>2015-10-12T19:10:51.000Z</time>
      </trkpt>
      <trkpt lat="48.87804" lon="2.32723">
        <ele>26.39999961853</ele>
        <time>2015-10-12T19:10:56.000Z</time>
      </trkpt>
      <trkpt lat="48.878" lon="2.32702">
        <ele>25.60000038147</ele>
        <time>2015-10-12T19:11:02.000Z</time>
      </trkpt>
      <trkpt lat="48.87801" lon="2.32688">
        <ele>25.200000762939</ele>
        <time>2015-10-12T19:11:06.000Z</time>
      </trkpt>
      <trkpt lat="48.87805" lon="2.3266">
        <ele>24.39999961853</ele>
        <time>2015-10-12T19:11:12.000Z</time>
      </trkpt>
      <trkpt lat="48.87814" lon="2.32631">
        <ele>23.200000762939</ele>
        <time>2015-10-12T19:11:18.000Z</time>
      </trkpt>
      <trkpt lat="48.87821" lon="2.32603">
        <ele>22.799999237061</ele>
        <time>2015-10-12T19:11:23.000Z</time>
      </trkpt>
      <trkpt lat="48.8783" lon="2.32576">
        <ele>22</ele>
        <time>2015-10-12T19:11:28.000Z</time>
      </trkpt>
      <trkpt lat="48.87837" lon="2.32548">
        <ele>21.60000038147</ele>
        <time>2015-10-12T19:11:34.000Z</time>
      </trkpt>
      <trkpt lat="48.87847" lon="2.32524">
        <ele>22</ele>
        <time>2015-10-12T19:11:39.000Z</time>
      </trkpt>
      <trkpt lat="48.87858" lon="2.325">
        <ele>22.39999961853</ele>
        <time>2015-10-12T19:11:44.000Z</time>
      </trkpt>
      <trkpt lat="48.87869" lon="2.32474">
        <ele>24.200000762939</ele>
        <time>2015-10-12T19:11:50.000Z</time>
      </trkpt>
      <trkpt lat="48.87878" lon="2.32448">
        <ele>25.39999961853</ele>
        <time>2015-10-12T19:11:56.000Z</time>
      </trkpt>
      <trkpt lat="48.87884" lon="2.32419">
        <ele>28.200000762939</ele>
        <time>2015-10-12T19:12:03.000Z</time>
      </trkpt>
      <trkpt lat="48.87891" lon="2.32392">
        <ele>32.599998474121</ele>
        <time>2015-10-12T19:12:09.000Z</time>
      </trkpt>
      <trkpt lat="48.879" lon="2.32366">
        <ele>35.599998474121</ele>
        <time>2015-10-12T19:12:15.000Z</time>
      </trkpt>
      <trkpt lat="48.87911" lon="2.32343">
        <ele>38.599998474121</ele>
        <time>2015-10-12T19:12:22.000Z</time>
      </trkpt>
      <trkpt lat="48.87916" lon="2.32311">
        <ele>40.200000762939</ele>
        <time>2015-10-12T19:12:28.000Z</time>
      </trkpt>
      <trkpt lat="48.87924" lon="2.32282">
        <ele>41.200000762939</ele>
        <time>2015-10-12T19:12:33.000Z</time>
      </trkpt>
      <trkpt lat="48.87934" lon="2.32255">
        <ele>41.400001525879</ele>
        <time>2015-10-12T19:12:38.000Z</time>
      </trkpt>
      <trkpt lat="48.87945" lon="2.32228">
        <ele>41.599998474121</ele>
        <time>2015-10-12T19:12:43.000Z</time>
      </trkpt>
      <trkpt lat="48.87955" lon="2.32205">
        <ele>42.599998474121</ele>
        <time>2015-10-12T19:12:48.000Z</time>
      </trkpt>
      <trkpt lat="48.87964" lon="2.32179">
        <ele>44.400001525879</ele>
        <time>2015-10-12T19:12:54.000Z</time>
      </trkpt>
      <trkpt lat="48.87971" lon="2.3215">
        <ele>47</ele>
        <time>2015-10-12T19:13:00.000Z</time>
      </trkpt>
      <trkpt lat="48.8798" lon="2.32123">
        <ele>50</ele>
        <time>2015-10-12T19:13:05.000Z</time>
      </trkpt>
      <trkpt lat="48.87989" lon="2.32095">
        <ele>53.799999237061</ele>
        <time>2015-10-12T19:13:10.000Z</time>
      </trkpt>
      <trkpt lat="48.88" lon="2.32067">
        <ele>52.599998474121</ele>
        <time>2015-10-12T19:13:16.000Z</time>
      </trkpt>
      <trkpt lat="48.88009" lon="2.32041">
        <ele>54.599998474121</ele>
        <time>2015-10-12T19:13:21.000Z</time>
      </trkpt>
      <trkpt lat="48.88017" lon="2.32011">
        <ele>55.799999237061</ele>
        <time>2015-10-12T19:13:26.000Z</time>
      </trkpt>
      <trkpt lat="48.88026" lon="2.31984">
        <ele>56.400001525879</ele>
        <time>2015-10-12T19:13:31.000Z</time>
      </trkpt>
      <trkpt lat="48.88036" lon="2.31957">
        <ele>57</ele>
        <time>2015-10-12T19:13:36.000Z</time>
      </trkpt>
      <trkpt lat="48.88046" lon="2.31929">
        <ele>57.200000762939</ele>
        <time>2015-10-12T19:13:41.000Z</time>
      </trkpt>
      <trkpt lat="48.88054" lon="2.319">
        <ele>56.400001525879</ele>
        <time>2015-10-12T19:13:46.000Z</time>
      </trkpt>
      <trkpt lat="48.88064" lon="2.3187">
        <ele>57.400001525879</ele>
        <time>2015-10-12T19:13:51.000Z</time>
      </trkpt>
      <trkpt lat="48.88072" lon="2.3184">
        <ele>57.200000762939</ele>
        <time>2015-10-12T19:13:56.000Z</time>
      </trkpt>
      <trkpt lat="48.88078" lon="2.31814">
        <ele>57.200000762939</ele>
        <time>2015-10-12T19:14:00.000Z</time>
      </trkpt>
      <trkpt lat="48.88085" lon="2.31788">
        <ele>57.400001525879</ele>
        <time>2015-10-12T19:14:04.000Z</time>
      </trkpt>
      <trkpt lat="48.88095" lon="2.31757">
        <ele>58.599998474121</ele>
        <time>2015-10-12T19:14:09.000Z</time>
      </trkpt>
      <trkpt lat="48.88104" lon="2.31728">
        <ele>58.200000762939</ele>
        <time>2015-10-12T19:14:14.000Z</time>
      </trkpt>
      <trkpt lat="48.88113" lon="2.31702">
        <ele>58.200000762939</ele>
        <time>2015-10-12T19:14:19.000Z</time>
      </trkpt>
      <trkpt lat="48.88119" lon="2.31681">
        <ele>55.799999237061</ele>
        <time>2015-10-12T19:14:25.000Z</time>
      </trkpt>
      <trkpt lat="48.88122" lon="2.31673">
        <ele>54.599998474121</ele>
        <time>2015-10-12T19:14:28.000Z</time>
      </trkpt>
      <trkpt lat="48.88122" lon="2.31666">
        <ele>52.200000762939</ele>
        <time>2015-10-12T19:14:32.000Z</time>
      </trkpt>
      <trkpt lat="48.88121" lon="2.31666">
        <ele>51.799999237061</ele>
        <time>2015-10-12T19:14:33.000Z</time>
      </trkpt>
      <trkpt lat="48.88127" lon="2.31645">
        <ele>51.400001525879</ele>
        <time>2015-10-12T19:14:51.000Z</time>
      </trkpt>
      <trkpt lat="48.88128" lon="2.31615">
        <ele>54.200000762939</ele>
        <time>2015-10-12T19:14:59.000Z</time>
      </trkpt>
      <trkpt lat="48.88124" lon="2.31586">
        <ele>52.599998474121</ele>
        <time>2015-10-12T19:15:05.000Z</time>
      </trkpt>
      <trkpt lat="48.88127" lon="2.31581">
        <ele>52.200000762939</ele>
        <time>2015-10-12T19:15:06.000Z</time>
      </trkpt>
      <trkpt lat="48.88125" lon="2.31554">
        <ele>49</ele>
        <time>2015-10-12T19:15:17.000Z</time>
      </trkpt>
      <trkpt lat="48.88106" lon="2.31543">
        <ele>43.799999237061</ele>
        <time>2015-10-12T19:15:25.000Z</time>
      </trkpt>
      <trkpt lat="48.881" lon="2.31544">
        <ele>43.400001525879</ele>
        <time>2015-10-12T19:15:27.000Z</time>
      </trkpt>
      <trkpt lat="48.88082" lon="2.31545">
        <ele>42.400001525879</ele>
        <time>2015-10-12T19:15:32.000Z</time>
      </trkpt>
      <trkpt lat="48.8806" lon="2.31546">
        <ele>41.599998474121</ele>
        <time>2015-10-12T19:15:37.000Z</time>
      </trkpt>
      <trkpt lat="48.8804" lon="2.31547">
        <ele>41.799999237061</ele>
        <time>2015-10-12T19:15:41.000Z</time>
      </trkpt>
      <trkpt lat="48.8802" lon="2.31549">
        <ele>42.200000762939</ele>
        <time>2015-10-12T19:15:45.000Z</time>
      </trkpt>
      <trkpt lat="48.87999" lon="2.31551">
        <ele>42</ele>
        <time>2015-10-12T19:15:50.000Z</time>
      </trkpt>
      <trkpt lat="48.87981" lon="2.3155">
        <ele>42</ele>
        <time>2015-10-12T19:15:54.000Z</time>
      </trkpt>
      <trkpt lat="48.87963" lon="2.31552">
        <ele>42</ele>
        <time>2015-10-12T19:15:58.000Z</time>
      </trkpt>
      <trkpt lat="48.87944" lon="2.31554">
        <ele>41.599998474121</ele>
        <time>2015-10-12T19:16:02.000Z</time>
      </trkpt>
      <trkpt lat="48.87924" lon="2.31559">
        <ele>40.799999237061</ele>
        <time>2015-10-12T19:16:06.000Z</time>
      </trkpt>
      <trkpt lat="48.87905" lon="2.31561">
        <ele>39.599998474121</ele>
        <time>2015-10-12T19:16:10.000Z</time>
      </trkpt>
      <trkpt lat="48.87886" lon="2.31563">
        <ele>39.599998474121</ele>
        <time>2015-10-12T19:16:14.000Z</time>
      </trkpt>
      <trkpt lat="48.87865" lon="2.31565">
        <ele>39.599998474121</ele>
        <time>2015-10-12T19:16:19.000Z</time>
      </trkpt>
      <trkpt lat="48.87857" lon="2.31565">
        <ele>38.200000762939</ele>
        <time>2015-10-12T19:16:22.000Z</time>
      </trkpt>
      <trkpt lat="48.87847" lon="2.31562">
        <ele>37.200000762939</ele>
        <time>2015-10-12T19:16:25.000Z</time>
      </trkpt>
      <trkpt lat="48.87834" lon="2.31563">
        <ele>36.200000762939</ele>
        <time>2015-10-12T19:16:29.000Z</time>
      </trkpt>
      <trkpt lat="48.87815" lon="2.31569">
        <ele>34.200000762939</ele>
        <time>2015-10-12T19:16:34.000Z</time>
      </trkpt>
      <trkpt lat="48.87795" lon="2.31581">
        <ele>31.799999237061</ele>
        <time>2015-10-12T19:16:39.000Z</time>
      </trkpt>
      <trkpt lat="48.87777" lon="2.31584">
        <ele>30</ele>
        <time>2015-10-12T19:16:44.000Z</time>
      </trkpt>
      <trkpt lat="48.87756" lon="2.31578">
        <ele>32</ele>
        <time>2015-10-12T19:16:49.000Z</time>
      </trkpt>
      <trkpt lat="48.87734" lon="2.31576">
        <ele>30</ele>
        <time>2015-10-12T19:16:54.000Z</time>
      </trkpt>
      <trkpt lat="48.87715" lon="2.31577">
        <ele>28</ele>
        <time>2015-10-12T19:16:58.000Z</time>
      </trkpt>
      <trkpt lat="48.87696" lon="2.31579">
        <ele>26.39999961853</ele>
        <time>2015-10-12T19:17:02.000Z</time>
      </trkpt>
      <trkpt lat="48.87676" lon="2.31582">
        <ele>25.200000762939</ele>
        <time>2015-10-12T19:17:06.000Z</time>
      </trkpt>
      <trkpt lat="48.87662" lon="2.31581">
        <ele>25</ele>
        <time>2015-10-12T19:17:09.000Z</time>
      </trkpt>
      <trkpt lat="48.87652" lon="2.31581">
        <ele>24.200000762939</ele>
        <time>2015-10-12T19:17:11.000Z</time>
      </trkpt>
      <trkpt lat="48.87632" lon="2.3158">
        <ele>22.39999961853</ele>
        <time>2015-10-12T19:17:15.000Z</time>
      </trkpt>
      <trkpt lat="48.87613" lon="2.31581">
        <ele>20.799999237061</ele>
        <time>2015-10-12T19:17:19.000Z</time>
      </trkpt>
      <trkpt lat="48.87593" lon="2.31583">
        <ele>18.799999237061</ele>
        <time>2015-10-12T19:17:23.000Z</time>
      </trkpt>
      <trkpt lat="48.87574" lon="2.31585">
        <ele>17</ele>
        <time>2015-10-12T19:17:27.000Z</time>
      </trkpt>
      <trkpt lat="48.87569" lon="2.31586">
        <ele>16.799999237061</ele>
        <time>2015-10-12T19:17:28.000Z</time>
      </trkpt>
      <trkpt lat="48.87556" lon="2.31588">
        <ele>14.199999809265</ele>
        <time>2015-10-12T19:17:32.000Z</time>
      </trkpt>
      <trkpt lat="48.87552" lon="2.31589">
        <ele>13.39999961853</ele>
        <time>2015-10-12T19:17:34.000Z</time>
      </trkpt>
      <trkpt lat="48.87543" lon="2.31588">
        <ele>14.199999809265</ele>
        <time>2015-10-12T19:17:38.000Z</time>
      </trkpt>
      <trkpt lat="48.87541" lon="2.31587">
        <ele>14.199999809265</ele>
        <time>2015-10-12T19:17:39.000Z</time>
      </trkpt>
      <trkpt lat="48.87537" lon="2.31588">
        <ele>14.39999961853</ele>
        <time>2015-10-12T19:17:42.000Z</time>
      </trkpt>
      <trkpt lat="48.87528" lon="2.31584">
        <ele>19.39999961853</ele>
        <time>2015-10-12T19:17:46.000Z</time>
      </trkpt>
      <trkpt lat="48.87507" lon="2.31584">
        <ele>18.799999237061</ele>
        <time>2015-10-12T19:17:54.000Z</time>
      </trkpt>
      <trkpt lat="48.87485" lon="2.31588">
        <ele>15.800000190735</ele>
        <time>2015-10-12T19:18:00.000Z</time>
      </trkpt>
      <trkpt lat="48.87464" lon="2.31595">
        <ele>13.39999961853</ele>
        <time>2015-10-12T19:18:05.000Z</time>
      </trkpt>
      <trkpt lat="48.87445" lon="2.31595">
        <ele>11.199999809265</ele>
        <time>2015-10-12T19:18:09.000Z</time>
      </trkpt>
      <trkpt lat="48.87426" lon="2.316">
        <ele>10.39999961853</ele>
        <time>2015-10-12T19:18:13.000Z</time>
      </trkpt>
      <trkpt lat="48.87407" lon="2.316">
        <ele>10.60000038147</ele>
        <time>2015-10-12T19:18:17.000Z</time>
      </trkpt>
      <trkpt lat="48.87397" lon="2.31603">
        <ele>9.3999996185303</ele>
        <time>2015-10-12T19:18:24.000Z</time>
      </trkpt>
      <trkpt lat="48.87378" lon="2.31601">
        <ele>8.6000003814697</ele>
        <time>2015-10-12T19:18:34.000Z</time>
      </trkpt>
      <trkpt lat="48.87358" lon="2.31606">
        <ele>5.5999999046326</ele>
        <time>2015-10-12T19:18:40.000Z</time>
      </trkpt>
      <trkpt lat="48.87339" lon="2.31606">
        <ele>3</ele>
        <time>2015-10-12T19:18:45.000Z</time>
      </trkpt>
      <trkpt lat="48.87316" lon="2.31609">
        <ele>0.60000002384186</ele>
        <time>2015-10-12T19:18:50.000Z</time>
      </trkpt>
      <trkpt lat="48.87297" lon="2.31612">
        <ele>-0.40000000596046</ele>
        <time>2015-10-12T19:18:54.000Z</time>
      </trkpt>
      <trkpt lat="48.87294" lon="2.31613">
        <ele>-0.40000000596046</ele>
        <time>2015-10-12T19:18:55.000Z</time>
      </trkpt>
      <trkpt lat="48.87295" lon="2.3164">
        <ele>-0.80000001192093</ele>
        <time>2015-10-12T19:19:00.000Z</time>
      </trkpt>
      <trkpt lat="48.87299" lon="2.31668">
        <ele>-1.2000000476837</ele>
        <time>2015-10-12T19:19:04.000Z</time>
      </trkpt>
      <trkpt lat="48.87303" lon="2.31698">
        <ele>-1.6000000238419</ele>
        <time>2015-10-12T19:19:08.000Z</time>
      </trkpt>
      <trkpt lat="48.87305" lon="2.3173">
        <ele>-1.3999999761581</ele>
        <time>2015-10-12T19:19:12.000Z</time>
      </trkpt>
      <trkpt lat="48.87311" lon="2.31763">
        <ele>-1.7999999523163</ele>
        <time>2015-10-12T19:19:16.000Z</time>
      </trkpt>
      <trkpt lat="48.87319" lon="2.31793">
        <ele>-1.3999999761581</ele>
        <time>2015-10-12T19:19:20.000Z</time>
      </trkpt>
      <trkpt lat="48.87319" lon="2.318">
        <ele>-1.6000000238419</ele>
        <time>2015-10-12T19:19:21.000Z</time>
      </trkpt>
      <trkpt lat="48.87323" lon="2.31833">
        <ele>-1.2000000476837</ele>
        <time>2015-10-12T19:19:26.000Z</time>
      </trkpt>
      <trkpt lat="48.87326" lon="2.31858">
        <ele>-1.3999999761581</ele>
        <time>2015-10-12T19:19:30.000Z</time>
      </trkpt>
      <trkpt lat="48.87328" lon="2.31884">
        <ele>-1.3999999761581</ele>
        <time>2015-10-12T19:19:34.000Z</time>
      </trkpt>
      <trkpt lat="48.87331" lon="2.31918">
        <ele>-2.2000000476837</ele>
        <time>2015-10-12T19:19:39.000Z</time>
      </trkpt>
      <trkpt lat="48.87333" lon="2.31951">
        <ele>-3</ele>
        <time>2015-10-12T19:19:44.000Z</time>
      </trkpt>
      <trkpt lat="48.87336" lon="2.31982">
        <ele>-3.7999999523163</ele>
        <time>2015-10-12T19:19:49.000Z</time>
      </trkpt>
      <trkpt lat="48.87337" lon="2.31994">
        <ele>-4</ele>
        <time>2015-10-12T19:19:51.000Z</time>
      </trkpt>
      <trkpt lat="48.87342" lon="2.32024">
        <ele>-3.4000000953674</ele>
        <time>2015-10-12T19:19:57.000Z</time>
      </trkpt>
      <trkpt lat="48.87344" lon="2.32038">
        <ele>-3.5999999046326</ele>
        <time>2015-10-12T19:20:00.000Z</time>
      </trkpt>
      <trkpt lat="48.87347" lon="2.32047">
        <ele>-3.4000000953674</ele>
        <time>2015-10-12T19:20:03.000Z</time>
      </trkpt>
      <trkpt lat="48.87352" lon="2.32052">
        <ele>1.3999999761581</ele>
        <time>2015-10-12T19:20:11.000Z</time>
      </trkpt>
      <trkpt lat="48.87356" lon="2.32053">
        <ele>3.5999999046326</ele>
        <time>2015-10-12T19:20:17.000Z</time>
      </trkpt>
      <trkpt lat="48.87355" lon="2.32077">
        <ele>9.1999998092651</ele>
        <time>2015-10-12T19:20:38.000Z</time>
      </trkpt>
      <trkpt lat="48.8735" lon="2.32107">
        <ele>12.800000190735</ele>
        <time>2015-10-12T19:20:45.000Z</time>
      </trkpt>
      <trkpt lat="48.87352" lon="2.32136">
        <ele>14.800000190735</ele>
        <time>2015-10-12T19:20:50.000Z</time>
      </trkpt>
      <trkpt lat="48.87354" lon="2.32167">
        <ele>16</ele>
        <time>2015-10-12T19:20:55.000Z</time>
      </trkpt>
      <trkpt lat="48.87355" lon="2.32201">
        <ele>17.60000038147</ele>
        <time>2015-10-12T19:21:00.000Z</time>
      </trkpt>
      <trkpt lat="48.87357" lon="2.32229">
        <ele>18.60000038147</ele>
        <time>2015-10-12T19:21:04.000Z</time>
      </trkpt>
      <trkpt lat="48.8736" lon="2.32259">
        <ele>22.60000038147</ele>
        <time>2015-10-12T19:21:09.000Z</time>
      </trkpt>
      <trkpt lat="48.87354" lon="2.32289">
        <ele>25.60000038147</ele>
        <time>2015-10-12T19:21:13.000Z</time>
      </trkpt>
      <trkpt lat="48.87352" lon="2.32317">
        <ele>28</ele>
        <time>2015-10-12T19:21:17.000Z</time>
      </trkpt>
      <trkpt lat="48.87354" lon="2.32348">
        <ele>30</ele>
        <time>2015-10-12T19:21:21.000Z</time>
      </trkpt>
      <trkpt lat="48.87355" lon="2.32367">
        <ele>31.39999961853</ele>
        <time>2015-10-12T19:21:24.000Z</time>
      </trkpt>
      <trkpt lat="48.87358" lon="2.32397">
        <ele>33.200000762939</ele>
        <time>2015-10-12T19:21:28.000Z</time>
      </trkpt>
      <trkpt lat="48.87357" lon="2.32427">
        <ele>34.599998474121</ele>
        <time>2015-10-12T19:21:33.000Z</time>
      </trkpt>
      <trkpt lat="48.87358" lon="2.3246">
        <ele>35.799999237061</ele>
        <time>2015-10-12T19:21:38.000Z</time>
      </trkpt>
      <trkpt lat="48.87359" lon="2.32491">
        <ele>37</ele>
        <time>2015-10-12T19:21:43.000Z</time>
      </trkpt>
      <trkpt lat="48.87351" lon="2.32516">
        <ele>38</ele>
        <time>2015-10-12T19:21:47.000Z</time>
      </trkpt>
      <trkpt lat="48.87334" lon="2.32515">
        <ele>40.400001525879</ele>
        <time>2015-10-12T19:21:54.000Z</time>
      </trkpt>
      <trkpt lat="48.87316" lon="2.32511">
        <ele>42.200000762939</ele>
        <time>2015-10-12T19:21:59.000Z</time>
      </trkpt>
      <trkpt lat="48.87298" lon="2.32507">
        <ele>43.799999237061</ele>
        <time>2015-10-12T19:22:03.000Z</time>
      </trkpt>
      <trkpt lat="48.87278" lon="2.32503">
        <ele>45.799999237061</ele>
        <time>2015-10-12T19:22:08.000Z</time>
      </trkpt>
      <trkpt lat="48.87257" lon="2.32498">
        <ele>46.599998474121</ele>
        <time>2015-10-12T19:22:14.000Z</time>
      </trkpt>
      <trkpt lat="48.87246" lon="2.32508">
        <ele>48</ele>
        <time>2015-10-12T19:22:21.000Z</time>
      </trkpt>
      <trkpt lat="48.87152" lon="2.3259">
        <ele>37.200000762939</ele>
        <time>2015-10-12T19:23:15.000Z</time>
      </trkpt>
      <trkpt lat="48.87133" lon="2.32582">
        <ele>29.799999237061</ele>
        <time>2015-10-12T19:23:35.000Z</time>
      </trkpt>
      <trkpt lat="48.87117" lon="2.32564">
        <ele>29.39999961853</ele>
        <time>2015-10-12T19:23:43.000Z</time>
      </trkpt>
      <trkpt lat="48.87102" lon="2.32549">
        <ele>30.200000762939</ele>
        <time>2015-10-12T19:23:54.000Z</time>
      </trkpt>
      <trkpt lat="48.87092" lon="2.3254">
        <ele>30.200000762939</ele>
        <time>2015-10-12T19:24:03.000Z</time>
      </trkpt>
      <trkpt lat="48.87078" lon="2.32516">
        <ele>34</ele>
        <time>2015-10-12T19:24:12.000Z</time>
      </trkpt>
      <trkpt lat="48.87074" lon="2.32517">
        <ele>34.400001525879</ele>
        <time>2015-10-12T19:24:14.000Z</time>
      </trkpt>
      <trkpt lat="48.87055" lon="2.32524">
        <ele>40</ele>
        <time>2015-10-12T19:24:24.000Z</time>
      </trkpt>
      <trkpt lat="48.87049" lon="2.32521">
        <ele>41</ele>
        <time>2015-10-12T19:24:27.000Z</time>
      </trkpt>
      <trkpt lat="48.87039" lon="2.32513">
        <ele>41</ele>
        <time>2015-10-12T19:24:31.000Z</time>
      </trkpt>
      <trkpt lat="48.8702" lon="2.32502">
        <ele>39.200000762939</ele>
        <time>2015-10-12T19:24:37.000Z</time>
      </trkpt>
      <trkpt lat="48.86999" lon="2.32493">
        <ele>36.200000762939</ele>
        <time>2015-10-12T19:24:43.000Z</time>
      </trkpt>
      <trkpt lat="48.86979" lon="2.32485">
        <ele>35.799999237061</ele>
        <time>2015-10-12T19:24:48.000Z</time>
      </trkpt>
      <trkpt lat="48.86959" lon="2.3248">
        <ele>33.200000762939</ele>
        <time>2015-10-12T19:24:53.000Z</time>
      </trkpt>
      <trkpt lat="48.86944" lon="2.32473">
        <ele>30.799999237061</ele>
        <time>2015-10-12T19:24:59.000Z</time>
      </trkpt>
      <trkpt lat="48.86943" lon="2.32477">
        <ele>29.60000038147</ele>
        <time>2015-10-12T19:25:03.000Z</time>
      </trkpt>
      <trkpt lat="48.86943" lon="2.32503">
        <ele>26</ele>
        <time>2015-10-12T19:25:16.000Z</time>
      </trkpt>
      <trkpt lat="48.86936" lon="2.32516">
        <ele>25.799999237061</ele>
        <time>2015-10-12T19:25:21.000Z</time>
      </trkpt>
      <trkpt lat="48.86918" lon="2.32528">
        <ele>24.799999237061</ele>
        <time>2015-10-12T19:25:27.000Z</time>
      </trkpt>
      <trkpt lat="48.86906" lon="2.32532">
        <ele>24.200000762939</ele>
        <time>2015-10-12T19:25:30.000Z</time>
      </trkpt>
      <trkpt lat="48.86886" lon="2.32542">
        <ele>23.39999961853</ele>
        <time>2015-10-12T19:25:37.000Z</time>
      </trkpt>
      <trkpt lat="48.86869" lon="2.32557">
        <ele>23.39999961853</ele>
        <time>2015-10-12T19:25:42.000Z</time>
      </trkpt>
      <trkpt lat="48.86849" lon="2.3257">
        <ele>23</ele>
        <time>2015-10-12T19:25:47.000Z</time>
      </trkpt>
      <trkpt lat="48.86832" lon="2.32578">
        <ele>22.39999961853</ele>
        <time>2015-10-12T19:25:51.000Z</time>
      </trkpt>
      <trkpt lat="48.86812" lon="2.32585">
        <ele>21.60000038147</ele>
        <time>2015-10-12T19:25:56.000Z</time>
      </trkpt>
      <trkpt lat="48.86794" lon="2.32589">
        <ele>20.799999237061</ele>
        <time>2015-10-12T19:26:00.000Z</time>
      </trkpt>
      <trkpt lat="48.86774" lon="2.32593">
        <ele>20</ele>
        <time>2015-10-12T19:26:04.000Z</time>
      </trkpt>
      <trkpt lat="48.86758" lon="2.32608">
        <ele>21</ele>
        <time>2015-10-12T19:26:08.000Z</time>
      </trkpt>
      <trkpt lat="48.86751" lon="2.32609">
        <ele>21.60000038147</ele>
        <time>2015-10-12T19:26:10.000Z</time>
      </trkpt>
      <trkpt lat="48.86734" lon="2.32594">
        <ele>22.799999237061</ele>
        <time>2015-10-12T19:26:15.000Z</time>
      </trkpt>
      <trkpt lat="48.86715" lon="2.32583">
        <ele>22.799999237061</ele>
        <time>2015-10-12T19:26:19.000Z</time>
      </trkpt>
      <trkpt lat="48.86696" lon="2.32574">
        <ele>22.39999961853</ele>
        <time>2015-10-12T19:26:23.000Z</time>
      </trkpt>
      <trkpt lat="48.86678" lon="2.3256">
        <ele>21.799999237061</ele>
        <time>2015-10-12T19:26:28.000Z</time>
      </trkpt>
      <trkpt lat="48.86682" lon="2.32538">
        <ele>21.60000038147</ele>
        <time>2015-10-12T19:26:32.000Z</time>
      </trkpt>
      <trkpt lat="48.86691" lon="2.32511">
        <ele>21.200000762939</ele>
        <time>2015-10-12T19:26:37.000Z</time>
      </trkpt>
      <trkpt lat="48.86699" lon="2.32484">
        <ele>20.799999237061</ele>
        <time>2015-10-12T19:26:42.000Z</time>
      </trkpt>
      <trkpt lat="48.867" lon="2.32471">
        <ele>20.39999961853</ele>
        <time>2015-10-12T19:26:44.000Z</time>
      </trkpt>
      <trkpt lat="48.86688" lon="2.32446">
        <ele>19.200000762939</ele>
        <time>2015-10-12T19:26:49.000Z</time>
      </trkpt>
      <trkpt lat="48.8667" lon="2.32437">
        <ele>18.200000762939</ele>
        <time>2015-10-12T19:26:54.000Z</time>
      </trkpt>
      <trkpt lat="48.86652" lon="2.32431">
        <ele>17.200000762939</ele>
        <time>2015-10-12T19:26:59.000Z</time>
      </trkpt>
      <trkpt lat="48.86644" lon="2.32421">
        <ele>16.60000038147</ele>
        <time>2015-10-12T19:27:02.000Z</time>
      </trkpt>
      <trkpt lat="48.86639" lon="2.3239">
        <ele>17.39999961853</ele>
        <time>2015-10-12T19:27:08.000Z</time>
      </trkpt>
      <trkpt lat="48.86637" lon="2.32358">
        <ele>19.39999961853</ele>
        <time>2015-10-12T19:27:14.000Z</time>
      </trkpt>
      <trkpt lat="48.86626" lon="2.32332">
        <ele>17.799999237061</ele>
        <time>2015-10-12T19:27:20.000Z</time>
      </trkpt>
      <trkpt lat="48.86608" lon="2.32313">
        <ele>16.60000038147</ele>
        <time>2015-10-12T19:27:26.000Z</time>
      </trkpt>
      <trkpt lat="48.86591" lon="2.323">
        <ele>18.60000038147</ele>
        <time>2015-10-12T19:27:31.000Z</time>
      </trkpt>
      <trkpt lat="48.86575" lon="2.32285">
        <ele>22</ele>
        <time>2015-10-12T19:27:36.000Z</time>
      </trkpt>
      <trkpt lat="48.86557" lon="2.32271">
        <ele>22.39999961853</ele>
        <time>2015-10-12T19:27:41.000Z</time>
      </trkpt>
      <trkpt lat="48.86539" lon="2.32257">
        <ele>23.200000762939</ele>
        <time>2015-10-12T19:27:46.000Z</time>
      </trkpt>
      <trkpt lat="48.8652" lon="2.32245">
        <ele>24.200000762939</ele>
        <time>2015-10-12T19:27:51.000Z</time>
      </trkpt>
      <trkpt lat="48.86503" lon="2.32234">
        <ele>24.200000762939</ele>
        <time>2015-10-12T19:27:56.000Z</time>
      </trkpt>
      <trkpt lat="48.86486" lon="2.32223">
        <ele>24.200000762939</ele>
        <time>2015-10-12T19:28:02.000Z</time>
      </trkpt>
      <trkpt lat="48.86469" lon="2.32211">
        <ele>24.39999961853</ele>
        <time>2015-10-12T19:28:07.000Z</time>
      </trkpt>
      <trkpt lat="48.86451" lon="2.32197">
        <ele>24.60000038147</ele>
        <time>2015-10-12T19:28:12.000Z</time>
      </trkpt>
      <trkpt lat="48.86433" lon="2.32181">
        <ele>25.200000762939</ele>
        <time>2015-10-12T19:28:17.000Z</time>
      </trkpt>
      <trkpt lat="48.86416" lon="2.32167">
        <ele>25</ele>
        <time>2015-10-12T19:28:22.000Z</time>
      </trkpt>
      <trkpt lat="48.86398" lon="2.32151">
        <ele>25.60000038147</ele>
        <time>2015-10-12T19:28:28.000Z</time>
      </trkpt>
      <trkpt lat="48.86392" lon="2.32147">
        <ele>27.39999961853</ele>
        <time>2015-10-12T19:28:31.000Z</time>
      </trkpt>
      <trkpt lat="48.86391" lon="2.3214">
        <ele>28.799999237061</ele>
        <time>2015-10-12T19:28:34.000Z</time>
      </trkpt>
      <trkpt lat="48.86398" lon="2.32125">
        <ele>28</ele>
        <time>2015-10-12T19:29:32.000Z</time>
      </trkpt>
      <trkpt lat="48.86405" lon="2.32096">
        <ele>29.799999237061</ele>
        <time>2015-10-12T19:29:40.000Z</time>
      </trkpt>
      <trkpt lat="48.86414" lon="2.32071">
        <ele>31.39999961853</ele>
        <time>2015-10-12T19:29:46.000Z</time>
      </trkpt>
      <trkpt lat="48.86419" lon="2.3205">
        <ele>32.599998474121</ele>
        <time>2015-10-12T19:29:51.000Z</time>
      </trkpt>
      <trkpt lat="48.86404" lon="2.32034">
        <ele>31.799999237061</ele>
        <time>2015-10-12T19:30:10.000Z</time>
      </trkpt>
      <trkpt lat="48.86389" lon="2.32015">
        <ele>31.39999961853</ele>
        <time>2015-10-12T19:30:20.000Z</time>
      </trkpt>
      <trkpt lat="48.8637" lon="2.32003">
        <ele>31.39999961853</ele>
        <time>2015-10-12T19:30:27.000Z</time>
      </trkpt>
      <trkpt lat="48.86353" lon="2.31991">
        <ele>31.39999961853</ele>
        <time>2015-10-12T19:30:33.000Z</time>
      </trkpt>
      <trkpt lat="48.86337" lon="2.31979">
        <ele>32.599998474121</ele>
        <time>2015-10-12T19:30:38.000Z</time>
      </trkpt>
      <trkpt lat="48.86319" lon="2.31967">
        <ele>31.799999237061</ele>
        <time>2015-10-12T19:30:43.000Z</time>
      </trkpt>
      <trkpt lat="48.86303" lon="2.31953">
        <ele>31.39999961853</ele>
        <time>2015-10-12T19:30:48.000Z</time>
      </trkpt>
      <trkpt lat="48.86285" lon="2.3194">
        <ele>30</ele>
        <time>2015-10-12T19:30:54.000Z</time>
      </trkpt>
      <trkpt lat="48.86268" lon="2.31929">
        <ele>28.799999237061</ele>
        <time>2015-10-12T19:31:00.000Z</time>
      </trkpt>
      <trkpt lat="48.8625" lon="2.31942">
        <ele>27.200000762939</ele>
        <time>2015-10-12T19:31:07.000Z</time>
      </trkpt>
      <trkpt lat="48.86249" lon="2.31944">
        <ele>27</ele>
        <time>2015-10-12T19:31:08.000Z</time>
      </trkpt>
      <trkpt lat="48.86247" lon="2.31945">
        <ele>26.799999237061</ele>
        <time>2015-10-12T19:31:09.000Z</time>
      </trkpt>
      <trkpt lat="48.86232" lon="2.31955">
        <ele>25.799999237061</ele>
        <time>2015-10-12T19:31:35.000Z</time>
      </trkpt>
      <trkpt lat="48.86214" lon="2.31951">
        <ele>25</ele>
        <time>2015-10-12T19:31:41.000Z</time>
      </trkpt>
      <trkpt lat="48.86195" lon="2.31944">
        <ele>24.200000762939</ele>
        <time>2015-10-12T19:31:46.000Z</time>
      </trkpt>
      <trkpt lat="48.86173" lon="2.31934">
        <ele>23.60000038147</ele>
        <time>2015-10-12T19:31:51.000Z</time>
      </trkpt>
      <trkpt lat="48.86154" lon="2.31927">
        <ele>22</ele>
        <time>2015-10-12T19:31:55.000Z</time>
      </trkpt>
      <trkpt lat="48.86136" lon="2.3192">
        <ele>19.799999237061</ele>
        <time>2015-10-12T19:31:59.000Z</time>
      </trkpt>
      <trkpt lat="48.86118" lon="2.31914">
        <ele>18</ele>
        <time>2015-10-12T19:32:03.000Z</time>
      </trkpt>
      <trkpt lat="48.86098" lon="2.31909">
        <ele>16.39999961853</ele>
        <time>2015-10-12T19:32:08.000Z</time>
      </trkpt>
      <trkpt lat="48.86083" lon="2.31904">
        <ele>14.800000190735</ele>
        <time>2015-10-12T19:32:12.000Z</time>
      </trkpt>
      <trkpt lat="48.86072" lon="2.319">
        <ele>13</ele>
        <time>2015-10-12T19:32:16.000Z</time>
      </trkpt>
      <trkpt lat="48.86059" lon="2.31888">
        <ele>11.39999961853</ele>
        <time>2015-10-12T19:32:23.000Z</time>
      </trkpt>
      <trkpt lat="48.86042" lon="2.31875">
        <ele>9.1999998092651</ele>
        <time>2015-10-12T19:32:31.000Z</time>
      </trkpt>
      <trkpt lat="48.86032" lon="2.31864">
        <ele>8.8000001907349</ele>
        <time>2015-10-12T19:32:35.000Z</time>
      </trkpt>
      <trkpt lat="48.86027" lon="2.3185">
        <ele>9</ele>
        <time>2015-10-12T19:32:39.000Z</time>
      </trkpt>
      <trkpt lat="48.86028" lon="2.31844">
        <ele>8.8000001907349</ele>
        <time>2015-10-12T19:32:41.000Z</time>
      </trkpt>
      <trkpt lat="48.8602" lon="2.3183">
        <ele>9.6000003814697</ele>
        <time>2015-10-12T19:32:48.000Z</time>
      </trkpt>
      <trkpt lat="48.86" lon="2.31827">
        <ele>11.800000190735</ele>
        <time>2015-10-12T19:32:54.000Z</time>
      </trkpt>
      <trkpt lat="48.85981" lon="2.31826">
        <ele>12</ele>
        <time>2015-10-12T19:33:02.000Z</time>
      </trkpt>
      <trkpt lat="48.85962" lon="2.31819">
        <ele>11.800000190735</ele>
        <time>2015-10-12T19:33:09.000Z</time>
      </trkpt>
      <trkpt lat="48.85941" lon="2.31815">
        <ele>10.800000190735</ele>
        <time>2015-10-12T19:33:15.000Z</time>
      </trkpt>
      <trkpt lat="48.85922" lon="2.31812">
        <ele>10.199999809265</ele>
        <time>2015-10-12T19:33:20.000Z</time>
      </trkpt>
      <trkpt lat="48.85901" lon="2.31804">
        <ele>9.3999996185303</ele>
        <time>2015-10-12T19:33:25.000Z</time>
      </trkpt>
      <trkpt lat="48.8588" lon="2.31799">
        <ele>8.8000001907349</ele>
        <time>2015-10-12T19:33:30.000Z</time>
      </trkpt>
      <trkpt lat="48.8586" lon="2.31798">
        <ele>8.6000003814697</ele>
        <time>2015-10-12T19:33:34.000Z</time>
      </trkpt>
      <trkpt lat="48.85842" lon="2.31793">
        <ele>8.1999998092651</ele>
        <time>2015-10-12T19:33:38.000Z</time>
      </trkpt>
      <trkpt lat="48.85822" lon="2.31791">
        <ele>7.8000001907349</ele>
        <time>2015-10-12T19:33:43.000Z</time>
      </trkpt>
      <trkpt lat="48.85802" lon="2.31785">
        <ele>6.8000001907349</ele>
        <time>2015-10-12T19:33:48.000Z</time>
      </trkpt>
      <trkpt lat="48.85784" lon="2.3178">
        <ele>6</ele>
        <time>2015-10-12T19:33:53.000Z</time>
      </trkpt>
      <trkpt lat="48.85764" lon="2.31777">
        <ele>5.1999998092651</ele>
        <time>2015-10-12T19:33:58.000Z</time>
      </trkpt>
      <trkpt lat="48.85744" lon="2.31775">
        <ele>4.8000001907349</ele>
        <time>2015-10-12T19:34:02.000Z</time>
      </trkpt>
      <trkpt lat="48.85724" lon="2.31771">
        <ele>4.1999998092651</ele>
        <time>2015-10-12T19:34:07.000Z</time>
      </trkpt>
      <trkpt lat="48.85703" lon="2.31765">
        <ele>4</ele>
        <time>2015-10-12T19:34:12.000Z</time>
      </trkpt>
      <trkpt lat="48.85683" lon="2.31756">
        <ele>2.7999999523163</ele>
        <time>2015-10-12T19:34:17.000Z</time>
      </trkpt>
      <trkpt lat="48.85664" lon="2.31747">
        <ele>1.7999999523163</ele>
        <time>2015-10-12T19:34:22.000Z</time>
      </trkpt>
      <trkpt lat="48.85643" lon="2.31738">
        <ele>1.2000000476837</ele>
        <time>2015-10-12T19:34:27.000Z</time>
      </trkpt>
      <trkpt lat="48.85622" lon="2.31732">
        <ele>0.40000000596046</ele>
        <time>2015-10-12T19:34:32.000Z</time>
      </trkpt>
      <trkpt lat="48.856" lon="2.31728">
        <ele>0.40000000596046</ele>
        <time>2015-10-12T19:34:38.000Z</time>
      </trkpt>
      <trkpt lat="48.85588" lon="2.31724">
        <ele>0.40000000596046</ele>
        <time>2015-10-12T19:34:42.000Z</time>
      </trkpt>
      <trkpt lat="48.85585" lon="2.31709">
        <ele>2</ele>
        <time>2015-10-12T19:34:46.000Z</time>
      </trkpt>
      <trkpt lat="48.85584" lon="2.31707">
        <ele>3</ele>
        <time>2015-10-12T19:34:48.000Z</time>
      </trkpt>
      <trkpt lat="48.85574" lon="2.31729">
        <ele>8.6000003814697</ele>
        <time>2015-10-12T19:35:01.000Z</time>
      </trkpt>
      <trkpt lat="48.85566" lon="2.3176">
        <ele>9.8000001907349</ele>
        <time>2015-10-12T19:35:06.000Z</time>
      </trkpt>
      <trkpt lat="48.85559" lon="2.31785">
        <ele>11</ele>
        <time>2015-10-12T19:35:10.000Z</time>
      </trkpt>
      <trkpt lat="48.85554" lon="2.31813">
        <ele>12.39999961853</ele>
        <time>2015-10-12T19:35:14.000Z</time>
      </trkpt>
      <trkpt lat="48.85542" lon="2.31841">
        <ele>14</ele>
        <time>2015-10-12T19:35:18.000Z</time>
      </trkpt>
      <trkpt lat="48.85533" lon="2.3187">
        <ele>15.199999809265</ele>
        <time>2015-10-12T19:35:22.000Z</time>
      </trkpt>
      <trkpt lat="48.85531" lon="2.3188">
        <ele>15.39999961853</ele>
        <time>2015-10-12T19:35:23.000Z</time>
      </trkpt>
      <trkpt lat="48.85523" lon="2.31909">
        <ele>17.799999237061</ele>
        <time>2015-10-12T19:35:27.000Z</time>
      </trkpt>
      <trkpt lat="48.85514" lon="2.31938">
        <ele>20.799999237061</ele>
        <time>2015-10-12T19:35:31.000Z</time>
      </trkpt>
      <trkpt lat="48.85503" lon="2.31966">
        <ele>25.200000762939</ele>
        <time>2015-10-12T19:35:36.000Z</time>
      </trkpt>
      <trkpt lat="48.85499" lon="2.31985">
        <ele>32.599998474121</ele>
        <time>2015-10-12T19:35:40.000Z</time>
      </trkpt>
      <trkpt lat="48.85511" lon="2.32003">
        <ele>39</ele>
        <time>2015-10-12T19:35:46.000Z</time>
      </trkpt>
      <trkpt lat="48.85525" lon="2.32008">
        <ele>41.599998474121</ele>
        <time>2015-10-12T19:35:50.000Z</time>
      </trkpt>
      <trkpt lat="48.85528" lon="2.32009">
        <ele>42.200000762939</ele>
        <time>2015-10-12T19:35:51.000Z</time>
      </trkpt>
      <trkpt lat="48.85544" lon="2.32024">
        <ele>44</ele>
        <time>2015-10-12T19:35:56.000Z</time>
      </trkpt>
      <trkpt lat="48.85564" lon="2.3204">
        <ele>46</ele>
        <time>2015-10-12T19:36:01.000Z</time>
      </trkpt>
      <trkpt lat="48.85582" lon="2.32061">
        <ele>47.599998474121</ele>
        <time>2015-10-12T19:36:05.000Z</time>
      </trkpt>
      <trkpt lat="48.85599" lon="2.32076">
        <ele>49</ele>
        <time>2015-10-12T19:36:09.000Z</time>
      </trkpt>
      <trkpt lat="48.85617" lon="2.32094">
        <ele>50.400001525879</ele>
        <time>2015-10-12T19:36:14.000Z</time>
      </trkpt>
      <trkpt lat="48.8564" lon="2.32099">
        <ele>51.200000762939</ele>
        <time>2015-10-12T19:36:19.000Z</time>
      </trkpt>
      <trkpt lat="48.85644" lon="2.32102">
        <ele>50.400001525879</ele>
        <time>2015-10-12T19:36:20.000Z</time>
      </trkpt>
      <trkpt lat="48.85641" lon="2.32126">
        <ele>49.400001525879</ele>
        <time>2015-10-12T19:36:24.000Z</time>
      </trkpt>
      <trkpt lat="48.85632" lon="2.32157">
        <ele>52.599998474121</ele>
        <time>2015-10-12T19:36:29.000Z</time>
      </trkpt>
      <trkpt lat="48.85624" lon="2.32183">
        <ele>56.200000762939</ele>
        <time>2015-10-12T19:36:33.000Z</time>
      </trkpt>
      <trkpt lat="48.85616" lon="2.32209">
        <ele>58.799999237061</ele>
        <time>2015-10-12T19:36:37.000Z</time>
      </trkpt>
      <trkpt lat="48.85609" lon="2.32238">
        <ele>59.200000762939</ele>
        <time>2015-10-12T19:36:41.000Z</time>
      </trkpt>
      <trkpt lat="48.85602" lon="2.32266">
        <ele>60</ele>
        <time>2015-10-12T19:36:45.000Z</time>
      </trkpt>
      <trkpt lat="48.85592" lon="2.3229">
        <ele>62</ele>
        <time>2015-10-12T19:36:49.000Z</time>
      </trkpt>
      <trkpt lat="48.85582" lon="2.32314">
        <ele>64.400001525879</ele>
        <time>2015-10-12T19:36:53.000Z</time>
      </trkpt>
      <trkpt lat="48.85571" lon="2.3234">
        <ele>65.800003051758</ele>
        <time>2015-10-12T19:36:57.000Z</time>
      </trkpt>
      <trkpt lat="48.85561" lon="2.32358">
        <ele>68.599998474121</ele>
        <time>2015-10-12T19:37:01.000Z</time>
      </trkpt>
      <trkpt lat="48.85547" lon="2.3238">
        <ele>72.599998474121</ele>
        <time>2015-10-12T19:37:06.000Z</time>
      </trkpt>
      <trkpt lat="48.85535" lon="2.32401">
        <ele>76</ele>
        <time>2015-10-12T19:37:10.000Z</time>
      </trkpt>
      <trkpt lat="48.85521" lon="2.32424">
        <ele>79.400001525879</ele>
        <time>2015-10-12T19:37:15.000Z</time>
      </trkpt>
      <trkpt lat="48.85519" lon="2.32429">
        <ele>80</ele>
        <time>2015-10-12T19:37:16.000Z</time>
      </trkpt>
      <trkpt lat="48.85504" lon="2.32438">
        <ele>63</ele>
        <time>2015-10-12T19:37:32.000Z</time>
      </trkpt>
      <trkpt lat="48.85486" lon="2.32435">
        <ele>58.599998474121</ele>
        <time>2015-10-12T19:37:38.000Z</time>
      </trkpt>
      <trkpt lat="48.85465" lon="2.3243">
        <ele>55.200000762939</ele>
        <time>2015-10-12T19:37:43.000Z</time>
      </trkpt>
      <trkpt lat="48.85446" lon="2.3242">
        <ele>53</ele>
        <time>2015-10-12T19:37:48.000Z</time>
      </trkpt>
      <trkpt lat="48.85428" lon="2.32413">
        <ele>52.200000762939</ele>
        <time>2015-10-12T19:37:53.000Z</time>
      </trkpt>
      <trkpt lat="48.85417" lon="2.32401">
        <ele>52.400001525879</ele>
        <time>2015-10-12T19:38:01.000Z</time>
      </trkpt>
      <trkpt lat="48.85401" lon="2.32393">
        <ele>53.599998474121</ele>
        <time>2015-10-12T19:38:16.000Z</time>
      </trkpt>
      <trkpt lat="48.8538" lon="2.3239">
        <ele>52.599998474121</ele>
        <time>2015-10-12T19:38:23.000Z</time>
      </trkpt>
      <trkpt lat="48.85359" lon="2.32386">
        <ele>51.799999237061</ele>
        <time>2015-10-12T19:38:29.000Z</time>
      </trkpt>
      <trkpt lat="48.85339" lon="2.3238">
        <ele>50.799999237061</ele>
        <time>2015-10-12T19:38:33.000Z</time>
      </trkpt>
      <trkpt lat="48.85317" lon="2.32377">
        <ele>50.200000762939</ele>
        <time>2015-10-12T19:38:38.000Z</time>
      </trkpt>
      <trkpt lat="48.85299" lon="2.32373">
        <ele>49.799999237061</ele>
        <time>2015-10-12T19:38:42.000Z</time>
      </trkpt>
      <trkpt lat="48.85277" lon="2.32367">
        <ele>49.400001525879</ele>
        <time>2015-10-12T19:38:45.000Z</time>
      </trkpt>
      <trkpt lat="48.85258" lon="2.32362">
        <ele>49.599998474121</ele>
        <time>2015-10-12T19:38:48.000Z</time>
      </trkpt>
      <trkpt lat="48.85235" lon="2.32365">
        <ele>49.799999237061</ele>
        <time>2015-10-12T19:38:52.000Z</time>
      </trkpt>
      <trkpt lat="48.85215" lon="2.32366">
        <ele>49</ele>
        <time>2015-10-12T19:38:56.000Z</time>
      </trkpt>
      <trkpt lat="48.85195" lon="2.32367">
        <ele>48</ele>
        <time>2015-10-12T19:39:00.000Z</time>
      </trkpt>
      <trkpt lat="48.85183" lon="2.32368">
        <ele>47.400001525879</ele>
        <time>2015-10-12T19:39:03.000Z</time>
      </trkpt>
      <trkpt lat="48.85161" lon="2.32377">
        <ele>46.200000762939</ele>
        <time>2015-10-12T19:39:08.000Z</time>
      </trkpt>
      <trkpt lat="48.85144" lon="2.32386">
        <ele>46.200000762939</ele>
        <time>2015-10-12T19:39:12.000Z</time>
      </trkpt>
      <trkpt lat="48.85123" lon="2.32397">
        <ele>46.200000762939</ele>
        <time>2015-10-12T19:39:17.000Z</time>
      </trkpt>
      <trkpt lat="48.85104" lon="2.32402">
        <ele>46.599998474121</ele>
        <time>2015-10-12T19:39:21.000Z</time>
      </trkpt>
      <trkpt lat="48.85084" lon="2.3241">
        <ele>47</ele>
        <time>2015-10-12T19:39:26.000Z</time>
      </trkpt>
      <trkpt lat="48.85063" lon="2.32414">
        <ele>47.799999237061</ele>
        <time>2015-10-12T19:39:32.000Z</time>
      </trkpt>
      <trkpt lat="48.85049" lon="2.32417">
        <ele>47.200000762939</ele>
        <time>2015-10-12T19:39:36.000Z</time>
      </trkpt>
      <trkpt lat="48.85031" lon="2.32415">
        <ele>47.799999237061</ele>
        <time>2015-10-12T19:39:41.000Z</time>
      </trkpt>
      <trkpt lat="48.85016" lon="2.32391">
        <ele>45.799999237061</ele>
        <time>2015-10-12T19:39:45.000Z</time>
      </trkpt>
      <trkpt lat="48.85013" lon="2.32385">
        <ele>45.599998474121</ele>
        <time>2015-10-12T19:39:46.000Z</time>
      </trkpt>
      <trkpt lat="48.85002" lon="2.32364">
        <ele>45.400001525879</ele>
        <time>2015-10-12T19:39:50.000Z</time>
      </trkpt>
      <trkpt lat="48.84988" lon="2.3234">
        <ele>46</ele>
        <time>2015-10-12T19:39:55.000Z</time>
      </trkpt>
      <trkpt lat="48.84975" lon="2.32314">
        <ele>45</ele>
        <time>2015-10-12T19:40:00.000Z</time>
      </trkpt>
      <trkpt lat="48.84963" lon="2.32291">
        <ele>44</ele>
        <time>2015-10-12T19:40:04.000Z</time>
      </trkpt>
      <trkpt lat="48.84952" lon="2.32267">
        <ele>42.799999237061</ele>
        <time>2015-10-12T19:40:08.000Z</time>
      </trkpt>
      <trkpt lat="48.84941" lon="2.32242">
        <ele>41.400001525879</ele>
        <time>2015-10-12T19:40:12.000Z</time>
      </trkpt>
      <trkpt lat="48.84936" lon="2.32229">
        <ele>40.799999237061</ele>
        <time>2015-10-12T19:40:14.000Z</time>
      </trkpt>
      <trkpt lat="48.84925" lon="2.32204">
        <ele>40.200000762939</ele>
        <time>2015-10-12T19:40:18.000Z</time>
      </trkpt>
      <trkpt lat="48.84913" lon="2.32181">
        <ele>38.400001525879</ele>
        <time>2015-10-12T19:40:22.000Z</time>
      </trkpt>
      <trkpt lat="48.84898" lon="2.32164">
        <ele>34.400001525879</ele>
        <time>2015-10-12T19:40:26.000Z</time>
      </trkpt>
      <trkpt lat="48.84884" lon="2.32145">
        <ele>32.599998474121</ele>
        <time>2015-10-12T19:40:30.000Z</time>
      </trkpt>
      <trkpt lat="48.8487" lon="2.32125">
        <ele>31.200000762939</ele>
        <time>2015-10-12T19:40:34.000Z</time>
      </trkpt>
      <trkpt lat="48.84855" lon="2.32108">
        <ele>29.60000038147</ele>
        <time>2015-10-12T19:40:38.000Z</time>
      </trkpt>
      <trkpt lat="48.84842" lon="2.32088">
        <ele>28.799999237061</ele>
        <time>2015-10-12T19:40:42.000Z</time>
      </trkpt>
      <trkpt lat="48.84827" lon="2.32067">
        <ele>28</ele>
        <time>2015-10-12T19:40:46.000Z</time>
      </trkpt>
      <trkpt lat="48.84813" lon="2.32046">
        <ele>26.39999961853</ele>
        <time>2015-10-12T19:40:50.000Z</time>
      </trkpt>
      <trkpt lat="48.84803" lon="2.32032">
        <ele>25.60000038147</ele>
        <time>2015-10-12T19:40:53.000Z</time>
      </trkpt>
      <trkpt lat="48.84793" lon="2.32006">
        <ele>25.200000762939</ele>
        <time>2015-10-12T19:40:57.000Z</time>
      </trkpt>
      <trkpt lat="48.84783" lon="2.31983">
        <ele>26</ele>
        <time>2015-10-12T19:41:01.000Z</time>
      </trkpt>
      <trkpt lat="48.84775" lon="2.31955">
        <ele>25.799999237061</ele>
        <time>2015-10-12T19:41:05.000Z</time>
      </trkpt>
      <trkpt lat="48.84766" lon="2.31929">
        <ele>25.799999237061</ele>
        <time>2015-10-12T19:41:09.000Z</time>
      </trkpt>
      <trkpt lat="48.84756" lon="2.31899">
        <ele>27</ele>
        <time>2015-10-12T19:41:14.000Z</time>
      </trkpt>
      <trkpt lat="48.84744" lon="2.31877">
        <ele>26</ele>
        <time>2015-10-12T19:41:17.000Z</time>
      </trkpt>
      <trkpt lat="48.84732" lon="2.31857">
        <ele>25.39999961853</ele>
        <time>2015-10-12T19:41:20.000Z</time>
      </trkpt>
      <trkpt lat="48.84718" lon="2.31831">
        <ele>25</ele>
        <time>2015-10-12T19:41:24.000Z</time>
      </trkpt>
      <trkpt lat="48.84707" lon="2.31803">
        <ele>25.799999237061</ele>
        <time>2015-10-12T19:41:28.000Z</time>
      </trkpt>
      <trkpt lat="48.84697" lon="2.31776">
        <ele>26.799999237061</ele>
        <time>2015-10-12T19:41:32.000Z</time>
      </trkpt>
      <trkpt lat="48.84694" lon="2.3176">
        <ele>28</ele>
        <time>2015-10-12T19:41:34.000Z</time>
      </trkpt>
      <trkpt lat="48.84684" lon="2.31733">
        <ele>29.799999237061</ele>
        <time>2015-10-12T19:41:38.000Z</time>
      </trkpt>
      <trkpt lat="48.84681" lon="2.31721">
        <ele>30.39999961853</ele>
        <time>2015-10-12T19:41:40.000Z</time>
      </trkpt>
      <trkpt lat="48.8468" lon="2.31704">
        <ele>30.60000038147</ele>
        <time>2015-10-12T19:41:42.000Z</time>
      </trkpt>
      <trkpt lat="48.84676" lon="2.31691">
        <ele>30.799999237061</ele>
        <time>2015-10-12T19:41:45.000Z</time>
      </trkpt>
      <trkpt lat="48.84665" lon="2.31666">
        <ele>32.599998474121</ele>
        <time>2015-10-12T19:41:51.000Z</time>
      </trkpt>
      <trkpt lat="48.84664" lon="2.31655">
        <ele>33.200000762939</ele>
        <time>2015-10-12T19:41:53.000Z</time>
      </trkpt>
      <trkpt lat="48.84658" lon="2.31641">
        <ele>33.599998474121</ele>
        <time>2015-10-12T19:41:56.000Z</time>
      </trkpt>
      <trkpt lat="48.84652" lon="2.31621">
        <ele>34.599998474121</ele>
        <time>2015-10-12T19:42:00.000Z</time>
      </trkpt>
      <trkpt lat="48.84646" lon="2.3159">
        <ele>38.400001525879</ele>
        <time>2015-10-12T19:42:05.000Z</time>
      </trkpt>
      <trkpt lat="48.84642" lon="2.31577">
        <ele>40</ele>
        <time>2015-10-12T19:42:07.000Z</time>
      </trkpt>
      <trkpt lat="48.8463" lon="2.31551">
        <ele>39.799999237061</ele>
        <time>2015-10-12T19:42:12.000Z</time>
      </trkpt>
      <trkpt lat="48.84626" lon="2.31546">
        <ele>38.799999237061</ele>
        <time>2015-10-12T19:42:13.000Z</time>
      </trkpt>
      <trkpt lat="48.84612" lon="2.31527">
        <ele>34</ele>
        <time>2015-10-12T19:42:17.000Z</time>
      </trkpt>
      <trkpt lat="48.84601" lon="2.315">
        <ele>31.60000038147</ele>
        <time>2015-10-12T19:42:21.000Z</time>
      </trkpt>
      <trkpt lat="48.84593" lon="2.31469">
        <ele>31</ele>
        <time>2015-10-12T19:42:25.000Z</time>
      </trkpt>
      <trkpt lat="48.84584" lon="2.31437">
        <ele>30.39999961853</ele>
        <time>2015-10-12T19:42:29.000Z</time>
      </trkpt>
      <trkpt lat="48.84585" lon="2.31402">
        <ele>32.200000762939</ele>
        <time>2015-10-12T19:42:32.000Z</time>
      </trkpt>
      <trkpt lat="48.84582" lon="2.31384">
        <ele>32.799999237061</ele>
        <time>2015-10-12T19:42:34.000Z</time>
      </trkpt>
      <trkpt lat="48.84575" lon="2.3135">
        <ele>32.799999237061</ele>
        <time>2015-10-12T19:42:38.000Z</time>
      </trkpt>
      <trkpt lat="48.84565" lon="2.31319">
        <ele>31.799999237061</ele>
        <time>2015-10-12T19:42:42.000Z</time>
      </trkpt>
      <trkpt lat="48.84556" lon="2.31289">
        <ele>31.39999961853</ele>
        <time>2015-10-12T19:42:46.000Z</time>
      </trkpt>
      <trkpt lat="48.84548" lon="2.3126">
        <ele>31.39999961853</ele>
        <time>2015-10-12T19:42:50.000Z</time>
      </trkpt>
      <trkpt lat="48.8454" lon="2.31231">
        <ele>31.60000038147</ele>
        <time>2015-10-12T19:42:54.000Z</time>
      </trkpt>
      <trkpt lat="48.84534" lon="2.31212">
        <ele>31.39999961853</ele>
        <time>2015-10-12T19:42:57.000Z</time>
      </trkpt>
      <trkpt lat="48.84531" lon="2.31184">
        <ele>31.39999961853</ele>
        <time>2015-10-12T19:43:01.000Z</time>
      </trkpt>
      <trkpt lat="48.84525" lon="2.31152">
        <ele>31.60000038147</ele>
        <time>2015-10-12T19:43:06.000Z</time>
      </trkpt>
      <trkpt lat="48.84523" lon="2.31135">
        <ele>32</ele>
        <time>2015-10-12T19:43:09.000Z</time>
      </trkpt>
      <trkpt lat="48.84522" lon="2.31124">
        <ele>31.60000038147</ele>
        <time>2015-10-12T19:43:12.000Z</time>
      </trkpt>
      <trkpt lat="48.8452" lon="2.31108">
        <ele>32.400001525879</ele>
        <time>2015-10-12T19:43:18.000Z</time>
      </trkpt>
      <trkpt lat="48.84518" lon="2.31101">
        <ele>32.599998474121</ele>
        <time>2015-10-12T19:43:20.000Z</time>
      </trkpt>
      <trkpt lat="48.84509" lon="2.31077">
        <ele>32.599998474121</ele>
        <time>2015-10-12T19:43:27.000Z</time>
      </trkpt>
      <trkpt lat="48.84506" lon="2.31071">
        <ele>32.799999237061</ele>
        <time>2015-10-12T19:43:29.000Z</time>
      </trkpt>
      <trkpt lat="48.84495" lon="2.31046">
        <ele>32</ele>
        <time>2015-10-12T19:43:35.000Z</time>
      </trkpt>
      <trkpt lat="48.84485" lon="2.31018">
        <ele>32</ele>
        <time>2015-10-12T19:43:40.000Z</time>
      </trkpt>
      <trkpt lat="48.84476" lon="2.30995">
        <ele>33</ele>
        <time>2015-10-12T19:43:44.000Z</time>
      </trkpt>
      <trkpt lat="48.84466" lon="2.30969">
        <ele>33.599998474121</ele>
        <time>2015-10-12T19:43:48.000Z</time>
      </trkpt>
      <trkpt lat="48.84455" lon="2.30944">
        <ele>34.599998474121</ele>
        <time>2015-10-12T19:43:52.000Z</time>
      </trkpt>
      <trkpt lat="48.84445" lon="2.3092">
        <ele>36.400001525879</ele>
        <time>2015-10-12T19:43:56.000Z</time>
      </trkpt>
      <trkpt lat="48.84435" lon="2.30893">
        <ele>38</ele>
        <time>2015-10-12T19:44:00.000Z</time>
      </trkpt>
      <trkpt lat="48.84432" lon="2.30887">
        <ele>38.200000762939</ele>
        <time>2015-10-12T19:44:01.000Z</time>
      </trkpt>
      <trkpt lat="48.84422" lon="2.30857">
        <ele>39.400001525879</ele>
        <time>2015-10-12T19:44:05.000Z</time>
      </trkpt>
      <trkpt lat="48.84412" lon="2.30827">
        <ele>40.599998474121</ele>
        <time>2015-10-12T19:44:09.000Z</time>
      </trkpt>
      <trkpt lat="48.84401" lon="2.30797">
        <ele>40.599998474121</ele>
        <time>2015-10-12T19:44:13.000Z</time>
      </trkpt>
      <trkpt lat="48.84392" lon="2.30767">
        <ele>41</ele>
        <time>2015-10-12T19:44:17.000Z</time>
      </trkpt>
      <trkpt lat="48.84384" lon="2.30737">
        <ele>42.599998474121</ele>
        <time>2015-10-12T19:44:21.000Z</time>
      </trkpt>
      <trkpt lat="48.84375" lon="2.3071">
        <ele>43.599998474121</ele>
        <time>2015-10-12T19:44:25.000Z</time>
      </trkpt>
      <trkpt lat="48.84372" lon="2.30705">
        <ele>43.799999237061</ele>
        <time>2015-10-12T19:44:26.000Z</time>
      </trkpt>
      <trkpt lat="48.84368" lon="2.30686">
        <ele>44.799999237061</ele>
        <time>2015-10-12T19:44:29.000Z</time>
      </trkpt>
      <trkpt lat="48.8436" lon="2.30659">
        <ele>46.799999237061</ele>
        <time>2015-10-12T19:44:33.000Z</time>
      </trkpt>
      <trkpt lat="48.84355" lon="2.30646">
        <ele>47.799999237061</ele>
        <time>2015-10-12T19:44:35.000Z</time>
      </trkpt>
      <trkpt lat="48.84349" lon="2.30619">
        <ele>48.599998474121</ele>
        <time>2015-10-12T19:44:38.000Z</time>
      </trkpt>
      <trkpt lat="48.8434" lon="2.30591">
        <ele>49.599998474121</ele>
        <time>2015-10-12T19:44:42.000Z</time>
      </trkpt>
      <trkpt lat="48.84337" lon="2.30585">
        <ele>49.799999237061</ele>
        <time>2015-10-12T19:44:43.000Z</time>
      </trkpt>
      <trkpt lat="48.84328" lon="2.30557">
        <ele>50.799999237061</ele>
        <time>2015-10-12T19:44:47.000Z</time>
      </trkpt>
      <trkpt lat="48.84317" lon="2.30528">
        <ele>51.799999237061</ele>
        <time>2015-10-12T19:44:51.000Z</time>
      </trkpt>
      <trkpt lat="48.84308" lon="2.30499">
        <ele>52</ele>
        <time>2015-10-12T19:44:55.000Z</time>
      </trkpt>
      <trkpt lat="48.84304" lon="2.30486">
        <ele>52.400001525879</ele>
        <time>2015-10-12T19:44:57.000Z</time>
      </trkpt>
      <trkpt lat="48.84297" lon="2.30457">
        <ele>53.200000762939</ele>
        <time>2015-10-12T19:45:01.000Z</time>
      </trkpt>
      <trkpt lat="48.84287" lon="2.30429">
        <ele>54.200000762939</ele>
        <time>2015-10-12T19:45:05.000Z</time>
      </trkpt>
      <trkpt lat="48.84277" lon="2.304">
        <ele>55.200000762939</ele>
        <time>2015-10-12T19:45:09.000Z</time>
      </trkpt>
      <trkpt lat="48.84272" lon="2.30387">
        <ele>55.599998474121</ele>
        <time>2015-10-12T19:45:11.000Z</time>
      </trkpt>
      <trkpt lat="48.84267" lon="2.30372">
        <ele>54.599998474121</ele>
        <time>2015-10-12T19:45:13.000Z</time>
      </trkpt>
      <trkpt lat="48.84257" lon="2.30341">
        <ele>50.599998474121</ele>
        <time>2015-10-12T19:45:17.000Z</time>
      </trkpt>
      <trkpt lat="48.84248" lon="2.3032">
        <ele>49.400001525879</ele>
        <time>2015-10-12T19:45:21.000Z</time>
      </trkpt>
      <trkpt lat="48.84242" lon="2.30297">
        <ele>49</ele>
        <time>2015-10-12T19:45:25.000Z</time>
      </trkpt>
      <trkpt lat="48.84234" lon="2.30271">
        <ele>49</ele>
        <time>2015-10-12T19:45:29.000Z</time>
      </trkpt>
      <trkpt lat="48.84228" lon="2.3024">
        <ele>49.799999237061</ele>
        <time>2015-10-12T19:45:33.000Z</time>
      </trkpt>
      <trkpt lat="48.84221" lon="2.30214">
        <ele>50</ele>
        <time>2015-10-12T19:45:37.000Z</time>
      </trkpt>
      <trkpt lat="48.84214" lon="2.30187">
        <ele>48</ele>
        <time>2015-10-12T19:45:41.000Z</time>
      </trkpt>
      <trkpt lat="48.8421" lon="2.30174">
        <ele>47.599998474121</ele>
        <time>2015-10-12T19:45:43.000Z</time>
      </trkpt>
      <trkpt lat="48.84204" lon="2.30144">
        <ele>46</ele>
        <time>2015-10-12T19:45:47.000Z</time>
      </trkpt>
      <trkpt lat="48.84197" lon="2.30115">
        <ele>46.400001525879</ele>
        <time>2015-10-12T19:45:51.000Z</time>
      </trkpt>
      <trkpt lat="48.84189" lon="2.30086">
        <ele>46.400001525879</ele>
        <time>2015-10-12T19:45:55.000Z</time>
      </trkpt>
      <trkpt lat="48.84184" lon="2.30065">
        <ele>47.400001525879</ele>
        <time>2015-10-12T19:45:58.000Z</time>
      </trkpt>
      <trkpt lat="48.84172" lon="2.30039">
        <ele>47</ele>
        <time>2015-10-12T19:46:02.000Z</time>
      </trkpt>
      <trkpt lat="48.84161" lon="2.3001">
        <ele>46.200000762939</ele>
        <time>2015-10-12T19:46:07.000Z</time>
      </trkpt>
      <trkpt lat="48.84155" lon="2.29982">
        <ele>45.400001525879</ele>
        <time>2015-10-12T19:46:12.000Z</time>
      </trkpt>
      <trkpt lat="48.84149" lon="2.29955">
        <ele>43.599998474121</ele>
        <time>2015-10-12T19:46:18.000Z</time>
      </trkpt>
      <trkpt lat="48.84157" lon="2.2993">
        <ele>44.799999237061</ele>
        <time>2015-10-12T19:46:22.000Z</time>
      </trkpt>
      <trkpt lat="48.8416" lon="2.29924">
        <ele>44.799999237061</ele>
        <time>2015-10-12T19:46:28.000Z</time>
      </trkpt>
      <trkpt lat="48.8416" lon="2.29924">
        <ele>45</ele>
        <time>2015-10-12T19:46:29.000Z</time>
      </trkpt>
      <trkpt lat="48.8416" lon="2.29916">
        <ele>46</ele>
        <time>2015-10-12T19:46:33.000Z</time>
      </trkpt>
      <trkpt lat="48.84153" lon="2.29888">
        <ele>45</ele>
        <time>2015-10-12T19:46:41.000Z</time>
      </trkpt>
      <trkpt lat="48.84143" lon="2.29858">
        <ele>40.400001525879</ele>
        <time>2015-10-12T19:46:47.000Z</time>
      </trkpt>
      <trkpt lat="48.84134" lon="2.29828">
        <ele>38.599998474121</ele>
        <time>2015-10-12T19:46:52.000Z</time>
      </trkpt>
      <trkpt lat="48.84123" lon="2.29804">
        <ele>38.400001525879</ele>
        <time>2015-10-12T19:46:56.000Z</time>
      </trkpt>
      <trkpt lat="48.84113" lon="2.29777">
        <ele>39.200000762939</ele>
        <time>2015-10-12T19:47:00.000Z</time>
      </trkpt>
      <trkpt lat="48.84099" lon="2.29749">
        <ele>40</ele>
        <time>2015-10-12T19:47:04.000Z</time>
      </trkpt>
      <trkpt lat="48.84089" lon="2.2972">
        <ele>40.799999237061</ele>
        <time>2015-10-12T19:47:08.000Z</time>
      </trkpt>
      <trkpt lat="48.84078" lon="2.29694">
        <ele>41.799999237061</ele>
        <time>2015-10-12T19:47:12.000Z</time>
      </trkpt>
      <trkpt lat="48.84068" lon="2.29669">
        <ele>43.200000762939</ele>
        <time>2015-10-12T19:47:16.000Z</time>
      </trkpt>
      <trkpt lat="48.84055" lon="2.29643">
        <ele>43.799999237061</ele>
        <time>2015-10-12T19:47:20.000Z</time>
      </trkpt>
      <trkpt lat="48.84043" lon="2.29614">
        <ele>43.799999237061</ele>
        <time>2015-10-12T19:47:24.000Z</time>
      </trkpt>
      <trkpt lat="48.84034" lon="2.29586">
        <ele>43.200000762939</ele>
        <time>2015-10-12T19:47:28.000Z</time>
      </trkpt>
      <trkpt lat="48.84021" lon="2.29558">
        <ele>40.200000762939</ele>
        <time>2015-10-12T19:47:32.000Z</time>
      </trkpt>
      <trkpt lat="48.84018" lon="2.29551">
        <ele>39.599998474121</ele>
        <time>2015-10-12T19:47:33.000Z</time>
      </trkpt>
      <trkpt lat="48.84008" lon="2.29522">
        <ele>38.799999237061</ele>
        <time>2015-10-12T19:47:37.000Z</time>
      </trkpt>
      <trkpt lat="48.84002" lon="2.29486">
        <ele>40.200000762939</ele>
        <time>2015-10-12T19:47:41.000Z</time>
      </trkpt>
      <trkpt lat="48.84" lon="2.29462">
        <ele>43.200000762939</ele>
        <time>2015-10-12T19:47:44.000Z</time>
      </trkpt>
      <trkpt lat="48.83993" lon="2.29434">
        <ele>44.799999237061</ele>
        <time>2015-10-12T19:47:48.000Z</time>
      </trkpt>
      <trkpt lat="48.83986" lon="2.29402">
        <ele>46</ele>
        <time>2015-10-12T19:47:52.000Z</time>
      </trkpt>
      <trkpt lat="48.83977" lon="2.29375">
        <ele>47.200000762939</ele>
        <time>2015-10-12T19:47:56.000Z</time>
      </trkpt>
      <trkpt lat="48.83975" lon="2.29368">
        <ele>47.799999237061</ele>
        <time>2015-10-12T19:47:57.000Z</time>
      </trkpt>
      <trkpt lat="48.83968" lon="2.29339">
        <ele>50.200000762939</ele>
        <time>2015-10-12T19:48:01.000Z</time>
      </trkpt>
      <trkpt lat="48.83958" lon="2.29316">
        <ele>51</ele>
        <time>2015-10-12T19:48:05.000Z</time>
      </trkpt>
      <trkpt lat="48.83951" lon="2.29303">
        <ele>48</ele>
        <time>2015-10-12T19:48:07.000Z</time>
      </trkpt>
      <trkpt lat="48.83938" lon="2.29279">
        <ele>44.400001525879</ele>
        <time>2015-10-12T19:48:11.000Z</time>
      </trkpt>
      <trkpt lat="48.83935" lon="2.29274">
        <ele>43.400001525879</ele>
        <time>2015-10-12T19:48:12.000Z</time>
      </trkpt>
      <trkpt lat="48.83924" lon="2.29248">
        <ele>41</ele>
        <time>2015-10-12T19:48:17.000Z</time>
      </trkpt>
      <trkpt lat="48.83918" lon="2.29239">
        <ele>39.599998474121</ele>
        <time>2015-10-12T19:48:20.000Z</time>
      </trkpt>
      <trkpt lat="48.83914" lon="2.29232">
        <ele>38.599998474121</ele>
        <time>2015-10-12T19:48:25.000Z</time>
      </trkpt>
      <trkpt lat="48.83915" lon="2.2923">
        <ele>38.799999237061</ele>
        <time>2015-10-12T19:48:27.000Z</time>
      </trkpt>
      <trkpt lat="48.83929" lon="2.292">
        <ele>37</ele>
        <time>2015-10-12T19:48:50.000Z</time>
      </trkpt>
      <trkpt lat="48.83923" lon="2.2918">
        <ele>30.799999237061</ele>
        <time>2015-10-12T19:49:56.000Z</time>
      </trkpt>
      <trkpt lat="48.83912" lon="2.29154">
        <ele>32.200000762939</ele>
        <time>2015-10-12T19:50:02.000Z</time>
      </trkpt>
      <trkpt lat="48.83897" lon="2.2913">
        <ele>31.799999237061</ele>
        <time>2015-10-12T19:50:07.000Z</time>
      </trkpt>
      <trkpt lat="48.83888" lon="2.29099">
        <ele>32</ele>
        <time>2015-10-12T19:50:12.000Z</time>
      </trkpt>
      <trkpt lat="48.8388" lon="2.29073">
        <ele>32.200000762939</ele>
        <time>2015-10-12T19:50:16.000Z</time>
      </trkpt>
      <trkpt lat="48.83871" lon="2.29049">
        <ele>32.599998474121</ele>
        <time>2015-10-12T19:50:20.000Z</time>
      </trkpt>
      <trkpt lat="48.83859" lon="2.29024">
        <ele>33.400001525879</ele>
        <time>2015-10-12T19:50:25.000Z</time>
      </trkpt>
      <trkpt lat="48.83846" lon="2.28993">
        <ele>32.599998474121</ele>
        <time>2015-10-12T19:50:30.000Z</time>
      </trkpt>
      <trkpt lat="48.83836" lon="2.28972">
        <ele>31.39999961853</ele>
        <time>2015-10-12T19:50:34.000Z</time>
      </trkpt>
      <trkpt lat="48.83829" lon="2.2894">
        <ele>30.799999237061</ele>
        <time>2015-10-12T19:50:39.000Z</time>
      </trkpt>
      <trkpt lat="48.83822" lon="2.28909">
        <ele>30.799999237061</ele>
        <time>2015-10-12T19:50:44.000Z</time>
      </trkpt>
      <trkpt lat="48.83816" lon="2.28877">
        <ele>31.200000762939</ele>
        <time>2015-10-12T19:50:49.000Z</time>
      </trkpt>
      <trkpt lat="48.83808" lon="2.2885">
        <ele>32</ele>
        <time>2015-10-12T19:50:53.000Z</time>
      </trkpt>
      <trkpt lat="48.83802" lon="2.28821">
        <ele>33.200000762939</ele>
        <time>2015-10-12T19:50:57.000Z</time>
      </trkpt>
      <trkpt lat="48.83795" lon="2.2879">
        <ele>33</ele>
        <time>2015-10-12T19:51:01.000Z</time>
      </trkpt>
      <trkpt lat="48.83787" lon="2.28759">
        <ele>33.799999237061</ele>
        <time>2015-10-12T19:51:05.000Z</time>
      </trkpt>
      <trkpt lat="48.83779" lon="2.2873">
        <ele>34</ele>
        <time>2015-10-12T19:51:09.000Z</time>
      </trkpt>
      <trkpt lat="48.83772" lon="2.287">
        <ele>34.599998474121</ele>
        <time>2015-10-12T19:51:13.000Z</time>
      </trkpt>
      <trkpt lat="48.83766" lon="2.28677">
        <ele>34.799999237061</ele>
        <time>2015-10-12T19:51:16.000Z</time>
      </trkpt>
      <trkpt lat="48.83757" lon="2.28645">
        <ele>34.599998474121</ele>
        <time>2015-10-12T19:51:20.000Z</time>
      </trkpt>
      <trkpt lat="48.8375" lon="2.2862">
        <ele>33</ele>
        <time>2015-10-12T19:51:23.000Z</time>
      </trkpt>
      <trkpt lat="48.83739" lon="2.2859">
        <ele>31</ele>
        <time>2015-10-12T19:51:27.000Z</time>
      </trkpt>
      <trkpt lat="48.83737" lon="2.28582">
        <ele>30.200000762939</ele>
        <time>2015-10-12T19:51:28.000Z</time>
      </trkpt>
      <trkpt lat="48.83728" lon="2.28555">
        <ele>28.39999961853</ele>
        <time>2015-10-12T19:51:32.000Z</time>
      </trkpt>
      <trkpt lat="48.8372" lon="2.28528">
        <ele>28.200000762939</ele>
        <time>2015-10-12T19:51:36.000Z</time>
      </trkpt>
      <trkpt lat="48.83719" lon="2.2852">
        <ele>28.200000762939</ele>
        <time>2015-10-12T19:51:37.000Z</time>
      </trkpt>
      <trkpt lat="48.8371" lon="2.28491">
        <ele>28.60000038147</ele>
        <time>2015-10-12T19:51:41.000Z</time>
      </trkpt>
      <trkpt lat="48.837" lon="2.28463">
        <ele>29.60000038147</ele>
        <time>2015-10-12T19:51:45.000Z</time>
      </trkpt>
      <trkpt lat="48.83689" lon="2.28435">
        <ele>29.39999961853</ele>
        <time>2015-10-12T19:51:49.000Z</time>
      </trkpt>
      <trkpt lat="48.8368" lon="2.28411">
        <ele>29.200000762939</ele>
        <time>2015-10-12T19:51:53.000Z</time>
      </trkpt>
      <trkpt lat="48.83673" lon="2.28386">
        <ele>30.200000762939</ele>
        <time>2015-10-12T19:51:57.000Z</time>
      </trkpt>
      <trkpt lat="48.83671" lon="2.2838">
        <ele>30.60000038147</ele>
        <time>2015-10-12T19:51:58.000Z</time>
      </trkpt>
      <trkpt lat="48.83668" lon="2.28361">
        <ele>31.799999237061</ele>
        <time>2015-10-12T19:52:01.000Z</time>
      </trkpt>
      <trkpt lat="48.83657" lon="2.28333">
        <ele>30.60000038147</ele>
        <time>2015-10-12T19:52:05.000Z</time>
      </trkpt>
      <trkpt lat="48.83648" lon="2.28315">
        <ele>31.39999961853</ele>
        <time>2015-10-12T19:52:08.000Z</time>
      </trkpt>
      <trkpt lat="48.83643" lon="2.2828">
        <ele>33.200000762939</ele>
        <time>2015-10-12T19:52:12.000Z</time>
      </trkpt>
      <trkpt lat="48.83641" lon="2.28274">
        <ele>33.599998474121</ele>
        <time>2015-10-12T19:52:13.000Z</time>
      </trkpt>
      <trkpt lat="48.83634" lon="2.28245">
        <ele>34.599998474121</ele>
        <time>2015-10-12T19:52:17.000Z</time>
      </trkpt>
      <trkpt lat="48.83623" lon="2.28221">
        <ele>34.599998474121</ele>
        <time>2015-10-12T19:52:21.000Z</time>
      </trkpt>
      <trkpt lat="48.83609" lon="2.28196">
        <ele>33.400001525879</ele>
        <time>2015-10-12T19:52:25.000Z</time>
      </trkpt>
      <trkpt lat="48.83598" lon="2.28173">
        <ele>33</ele>
        <time>2015-10-12T19:52:29.000Z</time>
      </trkpt>
      <trkpt lat="48.83592" lon="2.28162">
        <ele>32.799999237061</ele>
        <time>2015-10-12T19:52:32.000Z</time>
      </trkpt>
      <trkpt lat="48.83572" lon="2.28153">
        <ele>34.200000762939</ele>
        <time>2015-10-12T19:52:41.000Z</time>
      </trkpt>
      <trkpt lat="48.8357" lon="2.28151">
        <ele>34</ele>
        <time>2015-10-12T19:52:42.000Z</time>
      </trkpt>
      <trkpt lat="48.83568" lon="2.2815">
        <ele>34.200000762939</ele>
        <time>2015-10-12T19:52:43.000Z</time>
      </trkpt>
      <trkpt lat="48.83564" lon="2.28147">
        <ele>34.599998474121</ele>
        <time>2015-10-12T19:52:45.000Z</time>
      </trkpt>
      <trkpt lat="48.83556" lon="2.2813">
        <ele>36.200000762939</ele>
        <time>2015-10-12T19:52:53.000Z</time>
      </trkpt>
      <trkpt lat="48.83543" lon="2.2812">
        <ele>38.200000762939</ele>
        <time>2015-10-12T19:53:02.000Z</time>
      </trkpt>
      <trkpt lat="48.83533" lon="2.28143">
        <ele>44.200000762939</ele>
        <time>2015-10-12T19:53:13.000Z</time>
      </trkpt>
      <trkpt lat="48.83525" lon="2.28168">
        <ele>50</ele>
        <time>2015-10-12T19:53:20.000Z</time>
      </trkpt>
      <trkpt lat="48.83509" lon="2.28191">
        <ele>67.199996948242</ele>
        <time>2015-10-12T19:53:29.000Z</time>
      </trkpt>
      <trkpt lat="48.83501" lon="2.2822">
        <ele>77.400001525879</ele>
        <time>2015-10-12T19:53:35.000Z</time>
      </trkpt>
      <trkpt lat="48.83493" lon="2.28248">
        <ele>85.800003051758</ele>
        <time>2015-10-12T19:53:40.000Z</time>
      </trkpt>
      <trkpt lat="48.83482" lon="2.28274">
        <ele>93.199996948242</ele>
        <time>2015-10-12T19:53:46.000Z</time>
      </trkpt>
      <trkpt lat="48.83473" lon="2.283">
        <ele>102.40000152588</ele>
        <time>2015-10-12T19:53:51.000Z</time>
      </trkpt>
      <trkpt lat="48.83466" lon="2.28327">
        <ele>121.40000152588</ele>
        <time>2015-10-12T19:53:57.000Z</time>
      </trkpt>
      <trkpt lat="48.83462" lon="2.28356">
        <ele>130.80000305176</ele>
        <time>2015-10-12T19:54:02.000Z</time>
      </trkpt>
      <trkpt lat="48.8345" lon="2.28379">
        <ele>138.39999389648</ele>
        <time>2015-10-12T19:54:08.000Z</time>
      </trkpt>
      <trkpt lat="48.83438" lon="2.28403">
        <ele>146.19999694824</ele>
        <time>2015-10-12T19:54:14.000Z</time>
      </trkpt>
      <trkpt lat="48.83427" lon="2.28427">
        <ele>149.60000610352</ele>
        <time>2015-10-12T19:54:19.000Z</time>
      </trkpt>
      <trkpt lat="48.8342" lon="2.28455">
        <ele>151.19999694824</ele>
        <time>2015-10-12T19:54:23.000Z</time>
      </trkpt>
      <trkpt lat="48.8341" lon="2.28483">
        <ele>153.19999694824</ele>
        <time>2015-10-12T19:54:28.000Z</time>
      </trkpt>
      <trkpt lat="48.83401" lon="2.28509">
        <ele>155.39999389648</ele>
        <time>2015-10-12T19:54:34.000Z</time>
      </trkpt>
      <trkpt lat="48.83386" lon="2.28533">
        <ele>159.39999389648</ele>
        <time>2015-10-12T19:54:41.000Z</time>
      </trkpt>
      <trkpt lat="48.83372" lon="2.28556">
        <ele>163.80000305176</ele>
        <time>2015-10-12T19:54:47.000Z</time>
      </trkpt>
      <trkpt lat="48.83359" lon="2.28577">
        <ele>170.60000610352</ele>
        <time>2015-10-12T19:54:53.000Z</time>
      </trkpt>
      <trkpt lat="48.8335" lon="2.28605">
        <ele>177.80000305176</ele>
        <time>2015-10-12T19:55:01.000Z</time>
      </trkpt>
      <trkpt lat="48.83341" lon="2.2863">
        <ele>180.39999389648</ele>
        <time>2015-10-12T19:55:08.000Z</time>
      </trkpt>
      <trkpt lat="48.83329" lon="2.28651">
        <ele>183.19999694824</ele>
        <time>2015-10-12T19:55:14.000Z</time>
      </trkpt>
      <trkpt lat="48.83319" lon="2.28674">
        <ele>185.80000305176</ele>
        <time>2015-10-12T19:55:20.000Z</time>
      </trkpt>
      <trkpt lat="48.83304" lon="2.28695">
        <ele>191.80000305176</ele>
        <time>2015-10-12T19:55:27.000Z</time>
      </trkpt>
      <trkpt lat="48.83288" lon="2.28714">
        <ele>197.60000610352</ele>
        <time>2015-10-12T19:55:34.000Z</time>
      </trkpt>
      <trkpt lat="48.83279" lon="2.28739">
        <ele>200.80000305176</ele>
        <time>2015-10-12T19:55:41.000Z</time>
      </trkpt>
      <trkpt lat="48.83273" lon="2.28768">
        <ele>196.19999694824</ele>
        <time>2015-10-12T19:55:49.000Z</time>
      </trkpt>
      <trkpt lat="48.83277" lon="2.28815">
        <ele>170</ele>
        <time>2015-10-12T19:56:00.000Z</time>
      </trkpt>
      <trkpt lat="48.83278" lon="2.28822">
        <ele>162</ele>
        <time>2015-10-12T19:56:03.000Z</time>
      </trkpt>
      <trkpt lat="48.8328" lon="2.28828">
        <ele>137.19999694824</ele>
        <time>2015-10-12T19:56:42.000Z</time>
      </trkpt>
      <trkpt lat="48.83294" lon="2.2885">
        <ele>135</ele>
        <time>2015-10-12T19:56:48.000Z</time>
      </trkpt>
      <trkpt lat="48.83305" lon="2.28873">
        <ele>133</ele>
        <time>2015-10-12T19:56:54.000Z</time>
      </trkpt>
      <trkpt lat="48.8332" lon="2.28897">
        <ele>131.60000610352</ele>
        <time>2015-10-12T19:57:01.000Z</time>
      </trkpt>
      <trkpt lat="48.83332" lon="2.28923">
        <ele>128.39999389648</ele>
        <time>2015-10-12T19:57:07.000Z</time>
      </trkpt>
      <trkpt lat="48.83346" lon="2.28938">
        <ele>126.40000152588</ele>
        <time>2015-10-12T19:57:12.000Z</time>
      </trkpt>
      <trkpt lat="48.83363" lon="2.28955">
        <ele>124.80000305176</ele>
        <time>2015-10-12T19:57:18.000Z</time>
      </trkpt>
      <trkpt lat="48.83379" lon="2.28977">
        <ele>122</ele>
        <time>2015-10-12T19:57:24.000Z</time>
      </trkpt>
      <trkpt lat="48.83386" lon="2.29003">
        <ele>120.80000305176</ele>
        <time>2015-10-12T19:57:29.000Z</time>
      </trkpt>
      <trkpt lat="48.83393" lon="2.2903">
        <ele>119.59999847412</ele>
        <time>2015-10-12T19:57:34.000Z</time>
      </trkpt>
      <trkpt lat="48.83401" lon="2.29055">
        <ele>118</ele>
        <time>2015-10-12T19:57:39.000Z</time>
      </trkpt>
      <trkpt lat="48.83411" lon="2.29082">
        <ele>115.59999847412</ele>
        <time>2015-10-12T19:57:44.000Z</time>
      </trkpt>
      <trkpt lat="48.8343" lon="2.29098">
        <ele>112</ele>
        <time>2015-10-12T19:57:47.000Z</time>
      </trkpt>
      <trkpt lat="48.83445" lon="2.29119">
        <ele>109.59999847412</ele>
        <time>2015-10-12T19:57:51.000Z</time>
      </trkpt>
      <trkpt lat="48.83463" lon="2.29132">
        <ele>108.59999847412</ele>
        <time>2015-10-12T19:57:54.000Z</time>
      </trkpt>
      <trkpt lat="48.83472" lon="2.29143">
        <ele>107.40000152588</ele>
        <time>2015-10-12T19:57:56.000Z</time>
      </trkpt>
      <trkpt lat="48.83486" lon="2.2917">
        <ele>102.40000152588</ele>
        <time>2015-10-12T19:58:01.000Z</time>
      </trkpt>
      <trkpt lat="48.83497" lon="2.29189">
        <ele>97.800003051758</ele>
        <time>2015-10-12T19:58:04.000Z</time>
      </trkpt>
      <trkpt lat="48.83514" lon="2.29214">
        <ele>89.800003051758</ele>
        <time>2015-10-12T19:58:07.000Z</time>
      </trkpt>
      <trkpt lat="48.83528" lon="2.29237">
        <ele>85</ele>
        <time>2015-10-12T19:58:11.000Z</time>
      </trkpt>
      <trkpt lat="48.83542" lon="2.29256">
        <ele>81</ele>
        <time>2015-10-12T19:58:14.000Z</time>
      </trkpt>
      <trkpt lat="48.8355" lon="2.29269">
        <ele>79</ele>
        <time>2015-10-12T19:58:16.000Z</time>
      </trkpt>
      <trkpt lat="48.83564" lon="2.29296">
        <ele>75.800003051758</ele>
        <time>2015-10-12T19:58:20.000Z</time>
      </trkpt>
      <trkpt lat="48.83577" lon="2.29318">
        <ele>73</ele>
        <time>2015-10-12T19:58:24.000Z</time>
      </trkpt>
      <trkpt lat="48.83591" lon="2.2934">
        <ele>69.800003051758</ele>
        <time>2015-10-12T19:58:28.000Z</time>
      </trkpt>
      <trkpt lat="48.83594" lon="2.29347">
        <ele>69</ele>
        <time>2015-10-12T19:58:29.000Z</time>
      </trkpt>
      <trkpt lat="48.83602" lon="2.29363">
        <ele>67.800003051758</ele>
        <time>2015-10-12T19:58:32.000Z</time>
      </trkpt>
      <trkpt lat="48.83609" lon="2.29388">
        <ele>63.599998474121</ele>
        <time>2015-10-12T19:58:36.000Z</time>
      </trkpt>
      <trkpt lat="48.83619" lon="2.29413">
        <ele>59.599998474121</ele>
        <time>2015-10-12T19:58:40.000Z</time>
      </trkpt>
      <trkpt lat="48.83625" lon="2.2943">
        <ele>58.400001525879</ele>
        <time>2015-10-12T19:58:43.000Z</time>
      </trkpt>
      <trkpt lat="48.83636" lon="2.29458">
        <ele>57.400001525879</ele>
        <time>2015-10-12T19:58:47.000Z</time>
      </trkpt>
      <trkpt lat="48.8365" lon="2.29487">
        <ele>55.400001525879</ele>
        <time>2015-10-12T19:58:51.000Z</time>
      </trkpt>
      <trkpt lat="48.83663" lon="2.29513">
        <ele>53.200000762939</ele>
        <time>2015-10-12T19:58:55.000Z</time>
      </trkpt>
      <trkpt lat="48.83671" lon="2.29526">
        <ele>52.400001525879</ele>
        <time>2015-10-12T19:58:57.000Z</time>
      </trkpt>
      <trkpt lat="48.83683" lon="2.29554">
        <ele>51.400001525879</ele>
        <time>2015-10-12T19:59:01.000Z</time>
      </trkpt>
      <trkpt lat="48.8369" lon="2.29566">
        <ele>50.200000762939</ele>
        <time>2015-10-12T19:59:03.000Z</time>
      </trkpt>
      <trkpt lat="48.83701" lon="2.29591">
        <ele>48.400001525879</ele>
        <time>2015-10-12T19:59:07.000Z</time>
      </trkpt>
      <trkpt lat="48.83709" lon="2.29611">
        <ele>47.400001525879</ele>
        <time>2015-10-12T19:59:10.000Z</time>
      </trkpt>
      <trkpt lat="48.83707" lon="2.29623">
        <ele>46.400001525879</ele>
        <time>2015-10-12T19:59:12.000Z</time>
      </trkpt>
      <trkpt lat="48.83714" lon="2.29632">
        <ele>46</ele>
        <time>2015-10-12T19:59:16.000Z</time>
      </trkpt>
      <trkpt lat="48.83725" lon="2.29644">
        <ele>45.799999237061</ele>
        <time>2015-10-12T19:59:20.000Z</time>
      </trkpt>
      <trkpt lat="48.83727" lon="2.29649">
        <ele>46.200000762939</ele>
        <time>2015-10-12T19:59:21.000Z</time>
      </trkpt>
      <trkpt lat="48.83732" lon="2.29657">
        <ele>43.400001525879</ele>
        <time>2015-10-12T19:59:23.000Z</time>
      </trkpt>
      <trkpt lat="48.83737" lon="2.29669">
        <ele>41.200000762939</ele>
        <time>2015-10-12T19:59:26.000Z</time>
      </trkpt>
      <trkpt lat="48.83743" lon="2.29689">
        <ele>39.200000762939</ele>
        <time>2015-10-12T19:59:30.000Z</time>
      </trkpt>
      <trkpt lat="48.83747" lon="2.29696">
        <ele>38.400001525879</ele>
        <time>2015-10-12T19:59:32.000Z</time>
      </trkpt>
      <trkpt lat="48.8376" lon="2.29712">
        <ele>38.599998474121</ele>
        <time>2015-10-12T19:59:36.000Z</time>
      </trkpt>
      <trkpt lat="48.83765" lon="2.29721">
        <ele>38.400001525879</ele>
        <time>2015-10-12T19:59:38.000Z</time>
      </trkpt>
      <trkpt lat="48.83768" lon="2.29735">
        <ele>38</ele>
        <time>2015-10-12T19:59:41.000Z</time>
      </trkpt>
      <trkpt lat="48.83777" lon="2.29751">
        <ele>37</ele>
        <time>2015-10-12T19:59:45.000Z</time>
      </trkpt>
      <trkpt lat="48.83784" lon="2.29759">
        <ele>36.200000762939</ele>
        <time>2015-10-12T19:59:47.000Z</time>
      </trkpt>
      <trkpt lat="48.83791" lon="2.29783">
        <ele>34.200000762939</ele>
        <time>2015-10-12T19:59:52.000Z</time>
      </trkpt>
      <trkpt lat="48.83801" lon="2.29807">
        <ele>32.799999237061</ele>
        <time>2015-10-12T19:59:57.000Z</time>
      </trkpt>
      <trkpt lat="48.83819" lon="2.29824">
        <ele>31.799999237061</ele>
        <time>2015-10-12T20:00:01.000Z</time>
      </trkpt>
      <trkpt lat="48.8383" lon="2.29851">
        <ele>28.799999237061</ele>
        <time>2015-10-12T20:00:05.000Z</time>
      </trkpt>
      <trkpt lat="48.83842" lon="2.2988">
        <ele>27.200000762939</ele>
        <time>2015-10-12T20:00:09.000Z</time>
      </trkpt>
      <trkpt lat="48.83858" lon="2.29902">
        <ele>26</ele>
        <time>2015-10-12T20:00:13.000Z</time>
      </trkpt>
      <trkpt lat="48.83861" lon="2.29908">
        <ele>25.799999237061</ele>
        <time>2015-10-12T20:00:14.000Z</time>
      </trkpt>
      <trkpt lat="48.83876" lon="2.29931">
        <ele>24.200000762939</ele>
        <time>2015-10-12T20:00:18.000Z</time>
      </trkpt>
      <trkpt lat="48.83878" lon="2.29939">
        <ele>23.799999237061</ele>
        <time>2015-10-12T20:00:19.000Z</time>
      </trkpt>
      <trkpt lat="48.83888" lon="2.29963">
        <ele>22.60000038147</ele>
        <time>2015-10-12T20:00:23.000Z</time>
      </trkpt>
      <trkpt lat="48.83892" lon="2.29968">
        <ele>22.200000762939</ele>
        <time>2015-10-12T20:00:24.000Z</time>
      </trkpt>
      <trkpt lat="48.83904" lon="2.29984">
        <ele>21</ele>
        <time>2015-10-12T20:00:27.000Z</time>
      </trkpt>
      <trkpt lat="48.83916" lon="2.30008">
        <ele>19.60000038147</ele>
        <time>2015-10-12T20:00:31.000Z</time>
      </trkpt>
      <trkpt lat="48.83925" lon="2.30032">
        <ele>18.60000038147</ele>
        <time>2015-10-12T20:00:35.000Z</time>
      </trkpt>
      <trkpt lat="48.83933" lon="2.30049">
        <ele>18.39999961853</ele>
        <time>2015-10-12T20:00:38.000Z</time>
      </trkpt>
      <trkpt lat="48.83942" lon="2.30078">
        <ele>17.60000038147</ele>
        <time>2015-10-12T20:00:43.000Z</time>
      </trkpt>
      <trkpt lat="48.83947" lon="2.30094">
        <ele>17</ele>
        <time>2015-10-12T20:00:46.000Z</time>
      </trkpt>
      <trkpt lat="48.83954" lon="2.30119">
        <ele>16.60000038147</ele>
        <time>2015-10-12T20:00:50.000Z</time>
      </trkpt>
      <trkpt lat="48.83959" lon="2.30132">
        <ele>16.799999237061</ele>
        <time>2015-10-12T20:00:52.000Z</time>
      </trkpt>
      <trkpt lat="48.83968" lon="2.3016">
        <ele>15.60000038147</ele>
        <time>2015-10-12T20:00:56.000Z</time>
      </trkpt>
      <trkpt lat="48.83975" lon="2.30181">
        <ele>16</ele>
        <time>2015-10-12T20:00:59.000Z</time>
      </trkpt>
      <trkpt lat="48.83987" lon="2.30209">
        <ele>17</ele>
        <time>2015-10-12T20:01:03.000Z</time>
      </trkpt>
      <trkpt lat="48.83998" lon="2.30237">
        <ele>22.799999237061</ele>
        <time>2015-10-12T20:01:07.000Z</time>
      </trkpt>
      <trkpt lat="48.84001" lon="2.30244">
        <ele>23.799999237061</ele>
        <time>2015-10-12T20:01:08.000Z</time>
      </trkpt>
      <trkpt lat="48.84008" lon="2.30272">
        <ele>30.799999237061</ele>
        <time>2015-10-12T20:01:12.000Z</time>
      </trkpt>
      <trkpt lat="48.84015" lon="2.30302">
        <ele>34.599998474121</ele>
        <time>2015-10-12T20:01:16.000Z</time>
      </trkpt>
      <trkpt lat="48.84023" lon="2.30332">
        <ele>41.400001525879</ele>
        <time>2015-10-12T20:01:20.000Z</time>
      </trkpt>
      <trkpt lat="48.8403" lon="2.30359">
        <ele>46.200000762939</ele>
        <time>2015-10-12T20:01:24.000Z</time>
      </trkpt>
      <trkpt lat="48.84035" lon="2.3039">
        <ele>53.200000762939</ele>
        <time>2015-10-12T20:01:29.000Z</time>
      </trkpt>
      <trkpt lat="48.84036" lon="2.30394">
        <ele>54.599998474121</ele>
        <time>2015-10-12T20:01:30.000Z</time>
      </trkpt>
      <trkpt lat="48.84038" lon="2.30401">
        <ele>57.799999237061</ele>
        <time>2015-10-12T20:01:33.000Z</time>
      </trkpt>
      <trkpt lat="48.84038" lon="2.30403">
        <ele>60.799999237061</ele>
        <time>2015-10-12T20:01:35.000Z</time>
      </trkpt>
      <trkpt lat="48.84048" lon="2.30431">
        <ele>67.800003051758</ele>
        <time>2015-10-12T20:01:48.000Z</time>
      </trkpt>
      <trkpt lat="48.84055" lon="2.30461">
        <ele>71.800003051758</ele>
        <time>2015-10-12T20:01:53.000Z</time>
      </trkpt>
      <trkpt lat="48.84065" lon="2.30493">
        <ele>75</ele>
        <time>2015-10-12T20:01:58.000Z</time>
      </trkpt>
      <trkpt lat="48.84072" lon="2.3052">
        <ele>75.400001525879</ele>
        <time>2015-10-12T20:02:01.000Z</time>
      </trkpt>
      <trkpt lat="48.84079" lon="2.30545">
        <ele>77.199996948242</ele>
        <time>2015-10-12T20:02:04.000Z</time>
      </trkpt>
      <trkpt lat="48.84087" lon="2.30571">
        <ele>77.800003051758</ele>
        <time>2015-10-12T20:02:07.000Z</time>
      </trkpt>
      <trkpt lat="48.84095" lon="2.30604">
        <ele>78.400001525879</ele>
        <time>2015-10-12T20:02:11.000Z</time>
      </trkpt>
      <trkpt lat="48.84102" lon="2.30629">
        <ele>78.400001525879</ele>
        <time>2015-10-12T20:02:14.000Z</time>
      </trkpt>
      <trkpt lat="48.84106" lon="2.30645">
        <ele>77.800003051758</ele>
        <time>2015-10-12T20:02:17.000Z</time>
      </trkpt>
      <trkpt lat="48.84107" lon="2.30655">
        <ele>76.800003051758</ele>
        <time>2015-10-12T20:02:21.000Z</time>
      </trkpt>
      <trkpt lat="48.84116" lon="2.30684">
        <ele>73.599998474121</ele>
        <time>2015-10-12T20:02:27.000Z</time>
      </trkpt>
      <trkpt lat="48.84126" lon="2.30713">
        <ele>73.199996948242</ele>
        <time>2015-10-12T20:02:32.000Z</time>
      </trkpt>
      <trkpt lat="48.8413" lon="2.3072">
        <ele>73</ele>
        <time>2015-10-12T20:02:33.000Z</time>
      </trkpt>
      <trkpt lat="48.84134" lon="2.30733">
        <ele>73.199996948242</ele>
        <time>2015-10-12T20:02:35.000Z</time>
      </trkpt>
      <trkpt lat="48.84143" lon="2.30761">
        <ele>71.599998474121</ele>
        <time>2015-10-12T20:02:39.000Z</time>
      </trkpt>
      <trkpt lat="48.84151" lon="2.30776">
        <ele>71.199996948242</ele>
        <time>2015-10-12T20:02:42.000Z</time>
      </trkpt>
      <trkpt lat="48.84161" lon="2.308">
        <ele>70.199996948242</ele>
        <time>2015-10-12T20:02:46.000Z</time>
      </trkpt>
      <trkpt lat="48.84163" lon="2.30808">
        <ele>69.800003051758</ele>
        <time>2015-10-12T20:02:47.000Z</time>
      </trkpt>
      <trkpt lat="48.84172" lon="2.30837">
        <ele>68</ele>
        <time>2015-10-12T20:02:51.000Z</time>
      </trkpt>
      <trkpt lat="48.8418" lon="2.30868">
        <ele>65.800003051758</ele>
        <time>2015-10-12T20:02:55.000Z</time>
      </trkpt>
      <trkpt lat="48.84189" lon="2.30898">
        <ele>64</ele>
        <time>2015-10-12T20:02:59.000Z</time>
      </trkpt>
      <trkpt lat="48.84196" lon="2.30921">
        <ele>62.599998474121</ele>
        <time>2015-10-12T20:03:02.000Z</time>
      </trkpt>
      <trkpt lat="48.84203" lon="2.30948">
        <ele>60.400001525879</ele>
        <time>2015-10-12T20:03:06.000Z</time>
      </trkpt>
      <trkpt lat="48.84209" lon="2.30975">
        <ele>58</ele>
        <time>2015-10-12T20:03:10.000Z</time>
      </trkpt>
      <trkpt lat="48.84219" lon="2.31001">
        <ele>55</ele>
        <time>2015-10-12T20:03:14.000Z</time>
      </trkpt>
      <trkpt lat="48.84222" lon="2.31007">
        <ele>54.200000762939</ele>
        <time>2015-10-12T20:03:15.000Z</time>
      </trkpt>
      <trkpt lat="48.84229" lon="2.31026">
        <ele>53.200000762939</ele>
        <time>2015-10-12T20:03:18.000Z</time>
      </trkpt>
      <trkpt lat="48.84236" lon="2.31043">
        <ele>52</ele>
        <time>2015-10-12T20:03:21.000Z</time>
      </trkpt>
      <trkpt lat="48.84243" lon="2.31069">
        <ele>49</ele>
        <time>2015-10-12T20:03:25.000Z</time>
      </trkpt>
      <trkpt lat="48.84253" lon="2.31099">
        <ele>46.200000762939</ele>
        <time>2015-10-12T20:03:30.000Z</time>
      </trkpt>
      <trkpt lat="48.84255" lon="2.31111">
        <ele>44.599998474121</ele>
        <time>2015-10-12T20:03:32.000Z</time>
      </trkpt>
      <trkpt lat="48.84261" lon="2.31136">
        <ele>43.799999237061</ele>
        <time>2015-10-12T20:03:36.000Z</time>
      </trkpt>
      <trkpt lat="48.84268" lon="2.31167">
        <ele>42</ele>
        <time>2015-10-12T20:03:41.000Z</time>
      </trkpt>
      <trkpt lat="48.8427" lon="2.31173">
        <ele>41.799999237061</ele>
        <time>2015-10-12T20:03:42.000Z</time>
      </trkpt>
      <trkpt lat="48.84273" lon="2.31184">
        <ele>41.200000762939</ele>
        <time>2015-10-12T20:03:44.000Z</time>
      </trkpt>
      <trkpt lat="48.84276" lon="2.31201">
        <ele>40.200000762939</ele>
        <time>2015-10-12T20:03:47.000Z</time>
      </trkpt>
      <trkpt lat="48.8428" lon="2.31215">
        <ele>40.400001525879</ele>
        <time>2015-10-12T20:03:51.000Z</time>
      </trkpt>
      <trkpt lat="48.84283" lon="2.31225">
        <ele>40.400001525879</ele>
        <time>2015-10-12T20:03:54.000Z</time>
      </trkpt>
      <trkpt lat="48.84288" lon="2.31237">
        <ele>38</ele>
        <time>2015-10-12T20:03:57.000Z</time>
      </trkpt>
      <trkpt lat="48.84293" lon="2.31253">
        <ele>36.799999237061</ele>
        <time>2015-10-12T20:04:00.000Z</time>
      </trkpt>
      <trkpt lat="48.84301" lon="2.31277">
        <ele>36.200000762939</ele>
        <time>2015-10-12T20:04:04.000Z</time>
      </trkpt>
      <trkpt lat="48.84309" lon="2.31302">
        <ele>38.599998474121</ele>
        <time>2015-10-12T20:04:08.000Z</time>
      </trkpt>
      <trkpt lat="48.84316" lon="2.31328">
        <ele>37.200000762939</ele>
        <time>2015-10-12T20:04:12.000Z</time>
      </trkpt>
      <trkpt lat="48.84318" lon="2.31334">
        <ele>37</ele>
        <time>2015-10-12T20:04:13.000Z</time>
      </trkpt>
      <trkpt lat="48.84324" lon="2.3136">
        <ele>36.799999237061</ele>
        <time>2015-10-12T20:04:17.000Z</time>
      </trkpt>
      <trkpt lat="48.84332" lon="2.31388">
        <ele>36</ele>
        <time>2015-10-12T20:04:21.000Z</time>
      </trkpt>
      <trkpt lat="48.84342" lon="2.31407">
        <ele>36</ele>
        <time>2015-10-12T20:04:24.000Z</time>
      </trkpt>
      <trkpt lat="48.84351" lon="2.31434">
        <ele>36</ele>
        <time>2015-10-12T20:04:28.000Z</time>
      </trkpt>
      <trkpt lat="48.8436" lon="2.31462">
        <ele>43.599998474121</ele>
        <time>2015-10-12T20:04:33.000Z</time>
      </trkpt>
      <trkpt lat="48.84368" lon="2.31495">
        <ele>46</ele>
        <time>2015-10-12T20:04:38.000Z</time>
      </trkpt>
      <trkpt lat="48.84376" lon="2.31522">
        <ele>45.799999237061</ele>
        <time>2015-10-12T20:04:42.000Z</time>
      </trkpt>
      <trkpt lat="48.84384" lon="2.31548">
        <ele>46</ele>
        <time>2015-10-12T20:04:46.000Z</time>
      </trkpt>
      <trkpt lat="48.84388" lon="2.31561">
        <ele>45.799999237061</ele>
        <time>2015-10-12T20:04:48.000Z</time>
      </trkpt>
      <trkpt lat="48.84392" lon="2.31573">
        <ele>45.400001525879</ele>
        <time>2015-10-12T20:04:50.000Z</time>
      </trkpt>
      <trkpt lat="48.84401" lon="2.316">
        <ele>44.400001525879</ele>
        <time>2015-10-12T20:04:54.000Z</time>
      </trkpt>
      <trkpt lat="48.84409" lon="2.31626">
        <ele>44.200000762939</ele>
        <time>2015-10-12T20:04:58.000Z</time>
      </trkpt>
      <trkpt lat="48.84413" lon="2.31639">
        <ele>44.200000762939</ele>
        <time>2015-10-12T20:05:00.000Z</time>
      </trkpt>
      <trkpt lat="48.8442" lon="2.31667">
        <ele>44.200000762939</ele>
        <time>2015-10-12T20:05:04.000Z</time>
      </trkpt>
      <trkpt lat="48.84424" lon="2.3168">
        <ele>44.200000762939</ele>
        <time>2015-10-12T20:05:06.000Z</time>
      </trkpt>
      <trkpt lat="48.84433" lon="2.31708">
        <ele>44.400001525879</ele>
        <time>2015-10-12T20:05:10.000Z</time>
      </trkpt>
      <trkpt lat="48.84438" lon="2.3173">
        <ele>44.799999237061</ele>
        <time>2015-10-12T20:05:13.000Z</time>
      </trkpt>
      <trkpt lat="48.84443" lon="2.31758">
        <ele>45.599998474121</ele>
        <time>2015-10-12T20:05:17.000Z</time>
      </trkpt>
      <trkpt lat="48.84446" lon="2.31786">
        <ele>45.200000762939</ele>
        <time>2015-10-12T20:05:21.000Z</time>
      </trkpt>
      <trkpt lat="48.84447" lon="2.31794">
        <ele>45.200000762939</ele>
        <time>2015-10-12T20:05:22.000Z</time>
      </trkpt>
      <trkpt lat="48.84454" lon="2.31825">
        <ele>45.799999237061</ele>
        <time>2015-10-12T20:05:26.000Z</time>
      </trkpt>
      <trkpt lat="48.84461" lon="2.31857">
        <ele>45.400001525879</ele>
        <time>2015-10-12T20:05:30.000Z</time>
      </trkpt>
      <trkpt lat="48.8447" lon="2.31886">
        <ele>44.599998474121</ele>
        <time>2015-10-12T20:05:34.000Z</time>
      </trkpt>
      <trkpt lat="48.84478" lon="2.31916">
        <ele>44.200000762939</ele>
        <time>2015-10-12T20:05:38.000Z</time>
      </trkpt>
      <trkpt lat="48.84486" lon="2.31946">
        <ele>45.599998474121</ele>
        <time>2015-10-12T20:05:42.000Z</time>
      </trkpt>
      <trkpt lat="48.84492" lon="2.31974">
        <ele>46.400001525879</ele>
        <time>2015-10-12T20:05:46.000Z</time>
      </trkpt>
      <trkpt lat="48.84499" lon="2.31994">
        <ele>46.400001525879</ele>
        <time>2015-10-12T20:05:49.000Z</time>
      </trkpt>
      <trkpt lat="48.8451" lon="2.32017">
        <ele>46.599998474121</ele>
        <time>2015-10-12T20:05:53.000Z</time>
      </trkpt>
      <trkpt lat="48.84512" lon="2.32023">
        <ele>46.799999237061</ele>
        <time>2015-10-12T20:05:54.000Z</time>
      </trkpt>
      <trkpt lat="48.84522" lon="2.32048">
        <ele>48.200000762939</ele>
        <time>2015-10-12T20:05:58.000Z</time>
      </trkpt>
      <trkpt lat="48.8453" lon="2.32078">
        <ele>49.200000762939</ele>
        <time>2015-10-12T20:06:02.000Z</time>
      </trkpt>
      <trkpt lat="48.8454" lon="2.32109">
        <ele>49.200000762939</ele>
        <time>2015-10-12T20:06:06.000Z</time>
      </trkpt>
      <trkpt lat="48.84549" lon="2.3214">
        <ele>48.599998474121</ele>
        <time>2015-10-12T20:06:10.000Z</time>
      </trkpt>
      <trkpt lat="48.84557" lon="2.32172">
        <ele>48.400001525879</ele>
        <time>2015-10-12T20:06:14.000Z</time>
      </trkpt>
      <trkpt lat="48.84568" lon="2.32201">
        <ele>47.799999237061</ele>
        <time>2015-10-12T20:06:18.000Z</time>
      </trkpt>
      <trkpt lat="48.8458" lon="2.32228">
        <ele>47.599998474121</ele>
        <time>2015-10-12T20:06:22.000Z</time>
      </trkpt>
      <trkpt lat="48.8459" lon="2.32257">
        <ele>48.400001525879</ele>
        <time>2015-10-12T20:06:26.000Z</time>
      </trkpt>
      <trkpt lat="48.846" lon="2.32286">
        <ele>48.799999237061</ele>
        <time>2015-10-12T20:06:30.000Z</time>
      </trkpt>
      <trkpt lat="48.84608" lon="2.32315">
        <ele>49.799999237061</ele>
        <time>2015-10-12T20:06:34.000Z</time>
      </trkpt>
      <trkpt lat="48.84613" lon="2.32335">
        <ele>50.200000762939</ele>
        <time>2015-10-12T20:06:37.000Z</time>
      </trkpt>
      <trkpt lat="48.84618" lon="2.32363">
        <ele>49.400001525879</ele>
        <time>2015-10-12T20:06:41.000Z</time>
      </trkpt>
      <trkpt lat="48.84623" lon="2.32395">
        <ele>47.799999237061</ele>
        <time>2015-10-12T20:06:45.000Z</time>
      </trkpt>
      <trkpt lat="48.84626" lon="2.32411">
        <ele>47.400001525879</ele>
        <time>2015-10-12T20:06:47.000Z</time>
      </trkpt>
      <trkpt lat="48.84632" lon="2.32441">
        <ele>47.599998474121</ele>
        <time>2015-10-12T20:06:51.000Z</time>
      </trkpt>
      <trkpt lat="48.8464" lon="2.32471">
        <ele>46.400001525879</ele>
        <time>2015-10-12T20:06:55.000Z</time>
      </trkpt>
      <trkpt lat="48.84643" lon="2.32486">
        <ele>45.799999237061</ele>
        <time>2015-10-12T20:06:57.000Z</time>
      </trkpt>
      <trkpt lat="48.84651" lon="2.32516">
        <ele>43.599998474121</ele>
        <time>2015-10-12T20:07:01.000Z</time>
      </trkpt>
      <trkpt lat="48.84661" lon="2.32546">
        <ele>41.599998474121</ele>
        <time>2015-10-12T20:07:05.000Z</time>
      </trkpt>
      <trkpt lat="48.84673" lon="2.32577">
        <ele>42</ele>
        <time>2015-10-12T20:07:09.000Z</time>
      </trkpt>
      <trkpt lat="48.84684" lon="2.32607">
        <ele>42.200000762939</ele>
        <time>2015-10-12T20:07:13.000Z</time>
      </trkpt>
      <trkpt lat="48.84691" lon="2.32637">
        <ele>43.799999237061</ele>
        <time>2015-10-12T20:07:17.000Z</time>
      </trkpt>
      <trkpt lat="48.84693" lon="2.32643">
        <ele>44.200000762939</ele>
        <time>2015-10-12T20:07:18.000Z</time>
      </trkpt>
      <trkpt lat="48.847" lon="2.32668">
        <ele>45.200000762939</ele>
        <time>2015-10-12T20:07:23.000Z</time>
      </trkpt>
      <trkpt lat="48.847" lon="2.32691">
        <ele>43</ele>
        <time>2015-10-12T20:07:30.000Z</time>
      </trkpt>
      <trkpt lat="48.84704" lon="2.32696">
        <ele>42</ele>
        <time>2015-10-12T20:07:31.000Z</time>
      </trkpt>
      <trkpt lat="48.84708" lon="2.327">
        <ele>41.200000762939</ele>
        <time>2015-10-12T20:07:32.000Z</time>
      </trkpt>
      <trkpt lat="48.84722" lon="2.32726">
        <ele>38.799999237061</ele>
        <time>2015-10-12T20:07:37.000Z</time>
      </trkpt>
      <trkpt lat="48.84724" lon="2.32733">
        <ele>38.400001525879</ele>
        <time>2015-10-12T20:07:38.000Z</time>
      </trkpt>
      <trkpt lat="48.84731" lon="2.32763">
        <ele>38.599998474121</ele>
        <time>2015-10-12T20:07:43.000Z</time>
      </trkpt>
      <trkpt lat="48.84733" lon="2.32769">
        <ele>38.599998474121</ele>
        <time>2015-10-12T20:07:44.000Z</time>
      </trkpt>
      <trkpt lat="48.84739" lon="2.32794">
        <ele>40</ele>
        <time>2015-10-12T20:07:50.000Z</time>
      </trkpt>
      <trkpt lat="48.84745" lon="2.32823">
        <ele>40</ele>
        <time>2015-10-12T20:07:57.000Z</time>
      </trkpt>
      <trkpt lat="48.84749" lon="2.32836">
        <ele>40.799999237061</ele>
        <time>2015-10-12T20:07:59.000Z</time>
      </trkpt>
      <trkpt lat="48.84756" lon="2.32865">
        <ele>41</ele>
        <time>2015-10-12T20:08:03.000Z</time>
      </trkpt>
      <trkpt lat="48.84762" lon="2.32895">
        <ele>41</ele>
        <time>2015-10-12T20:08:07.000Z</time>
      </trkpt>
      <trkpt lat="48.8477" lon="2.32923">
        <ele>41.200000762939</ele>
        <time>2015-10-12T20:08:11.000Z</time>
      </trkpt>
      <trkpt lat="48.84781" lon="2.32946">
        <ele>41.599998474121</ele>
        <time>2015-10-12T20:08:15.000Z</time>
      </trkpt>
      <trkpt lat="48.84788" lon="2.32966">
        <ele>41.799999237061</ele>
        <time>2015-10-12T20:08:18.000Z</time>
      </trkpt>
      <trkpt lat="48.84796" lon="2.32994">
        <ele>42</ele>
        <time>2015-10-12T20:08:22.000Z</time>
      </trkpt>
      <trkpt lat="48.84806" lon="2.33024">
        <ele>42.599998474121</ele>
        <time>2015-10-12T20:08:26.000Z</time>
      </trkpt>
      <trkpt lat="48.84816" lon="2.33055">
        <ele>43.599998474121</ele>
        <time>2015-10-12T20:08:30.000Z</time>
      </trkpt>
      <trkpt lat="48.84824" lon="2.33086">
        <ele>43.400001525879</ele>
        <time>2015-10-12T20:08:34.000Z</time>
      </trkpt>
      <trkpt lat="48.84832" lon="2.33108">
        <ele>43.200000762939</ele>
        <time>2015-10-12T20:08:37.000Z</time>
      </trkpt>
      <trkpt lat="48.8484" lon="2.33139">
        <ele>42.799999237061</ele>
        <time>2015-10-12T20:08:41.000Z</time>
      </trkpt>
      <trkpt lat="48.84847" lon="2.33167">
        <ele>42.400001525879</ele>
        <time>2015-10-12T20:08:45.000Z</time>
      </trkpt>
      <trkpt lat="48.84852" lon="2.33194">
        <ele>42.599998474121</ele>
        <time>2015-10-12T20:08:49.000Z</time>
      </trkpt>
      <trkpt lat="48.8486" lon="2.33224">
        <ele>43</ele>
        <time>2015-10-12T20:08:55.000Z</time>
      </trkpt>
      <trkpt lat="48.84866" lon="2.33245">
        <ele>42.799999237061</ele>
        <time>2015-10-12T20:09:00.000Z</time>
      </trkpt>
      <trkpt lat="48.84872" lon="2.33275">
        <ele>42.599998474121</ele>
        <time>2015-10-12T20:09:05.000Z</time>
      </trkpt>
      <trkpt lat="48.84875" lon="2.33289">
        <ele>42.200000762939</ele>
        <time>2015-10-12T20:09:07.000Z</time>
      </trkpt>
      <trkpt lat="48.84881" lon="2.33318">
        <ele>41.599998474121</ele>
        <time>2015-10-12T20:09:11.000Z</time>
      </trkpt>
      <trkpt lat="48.84889" lon="2.3335">
        <ele>41.200000762939</ele>
        <time>2015-10-12T20:09:15.000Z</time>
      </trkpt>
      <trkpt lat="48.84896" lon="2.33382">
        <ele>41.599998474121</ele>
        <time>2015-10-12T20:09:19.000Z</time>
      </trkpt>
      <trkpt lat="48.84903" lon="2.33415">
        <ele>41.599998474121</ele>
        <time>2015-10-12T20:09:23.000Z</time>
      </trkpt>
      <trkpt lat="48.84907" lon="2.33448">
        <ele>41.400001525879</ele>
        <time>2015-10-12T20:09:27.000Z</time>
      </trkpt>
      <trkpt lat="48.84911" lon="2.33479">
        <ele>40.799999237061</ele>
        <time>2015-10-12T20:09:31.000Z</time>
      </trkpt>
      <trkpt lat="48.84916" lon="2.3351">
        <ele>40.400001525879</ele>
        <time>2015-10-12T20:09:35.000Z</time>
      </trkpt>
      <trkpt lat="48.84921" lon="2.33544">
        <ele>40.200000762939</ele>
        <time>2015-10-12T20:09:39.000Z</time>
      </trkpt>
      <trkpt lat="48.84925" lon="2.33577">
        <ele>40</ele>
        <time>2015-10-12T20:09:43.000Z</time>
      </trkpt>
      <trkpt lat="48.8493" lon="2.33608">
        <ele>40.200000762939</ele>
        <time>2015-10-12T20:09:47.000Z</time>
      </trkpt>
      <trkpt lat="48.84931" lon="2.33641">
        <ele>40.799999237061</ele>
        <time>2015-10-12T20:09:51.000Z</time>
      </trkpt>
      <trkpt lat="48.84931" lon="2.33673">
        <ele>40.799999237061</ele>
        <time>2015-10-12T20:09:55.000Z</time>
      </trkpt>
      <trkpt lat="48.84932" lon="2.33704">
        <ele>40.599998474121</ele>
        <time>2015-10-12T20:09:59.000Z</time>
      </trkpt>
      <trkpt lat="48.84931" lon="2.33734">
        <ele>41.599998474121</ele>
        <time>2015-10-12T20:10:03.000Z</time>
      </trkpt>
      <trkpt lat="48.8493" lon="2.33763">
        <ele>42.400001525879</ele>
        <time>2015-10-12T20:10:07.000Z</time>
      </trkpt>
      <trkpt lat="48.84927" lon="2.33788">
        <ele>42.200000762939</ele>
        <time>2015-10-12T20:10:11.000Z</time>
      </trkpt>
      <trkpt lat="48.84926" lon="2.33822">
        <ele>43</ele>
        <time>2015-10-12T20:10:16.000Z</time>
      </trkpt>
      <trkpt lat="48.8492" lon="2.33849">
        <ele>45.200000762939</ele>
        <time>2015-10-12T20:10:20.000Z</time>
      </trkpt>
      <trkpt lat="48.84919" lon="2.33856">
        <ele>45.599998474121</ele>
        <time>2015-10-12T20:10:21.000Z</time>
      </trkpt>
      <trkpt lat="48.84917" lon="2.33869">
        <ele>46</ele>
        <time>2015-10-12T20:10:23.000Z</time>
      </trkpt>
      <trkpt lat="48.84915" lon="2.3389">
        <ele>47.799999237061</ele>
        <time>2015-10-12T20:10:27.000Z</time>
      </trkpt>
      <trkpt lat="48.84915" lon="2.33898">
        <ele>48.799999237061</ele>
        <time>2015-10-12T20:10:29.000Z</time>
      </trkpt>
      <trkpt lat="48.84916" lon="2.33917">
        <ele>49.799999237061</ele>
        <time>2015-10-12T20:10:33.000Z</time>
      </trkpt>
      <trkpt lat="48.84916" lon="2.33923">
        <ele>50</ele>
        <time>2015-10-12T20:10:34.000Z</time>
      </trkpt>
      <trkpt lat="48.84912" lon="2.33952">
        <ele>51.799999237061</ele>
        <time>2015-10-12T20:10:39.000Z</time>
      </trkpt>
      <trkpt lat="48.8491" lon="2.33963">
        <ele>52.400001525879</ele>
        <time>2015-10-12T20:10:41.000Z</time>
      </trkpt>
      <trkpt lat="48.84903" lon="2.33991">
        <ele>54.200000762939</ele>
        <time>2015-10-12T20:10:46.000Z</time>
      </trkpt>
      <trkpt lat="48.84896" lon="2.34016">
        <ele>58</ele>
        <time>2015-10-12T20:10:51.000Z</time>
      </trkpt>
      <trkpt lat="48.84895" lon="2.34022">
        <ele>58.799999237061</ele>
        <time>2015-10-12T20:10:52.000Z</time>
      </trkpt>
      <trkpt lat="48.84895" lon="2.34038">
        <ele>60</ele>
        <time>2015-10-12T20:10:55.000Z</time>
      </trkpt>
      <trkpt lat="48.84894" lon="2.34071">
        <ele>61.599998474121</ele>
        <time>2015-10-12T20:11:00.000Z</time>
      </trkpt>
      <trkpt lat="48.84892" lon="2.34105">
        <ele>62.799999237061</ele>
        <time>2015-10-12T20:11:04.000Z</time>
      </trkpt>
      <trkpt lat="48.84891" lon="2.34135">
        <ele>63.200000762939</ele>
        <time>2015-10-12T20:11:08.000Z</time>
      </trkpt>
      <trkpt lat="48.84891" lon="2.34146">
        <ele>63</ele>
        <time>2015-10-12T20:11:10.000Z</time>
      </trkpt>
      <trkpt lat="48.84885" lon="2.34156">
        <ele>53.400001525879</ele>
        <time>2015-10-12T20:12:07.000Z</time>
      </trkpt>
      <trkpt lat="48.84883" lon="2.34151">
        <ele>52.400001525879</ele>
        <time>2015-10-12T20:13:35.000Z</time>
      </trkpt>
      <trkpt lat="48.84889" lon="2.34161">
        <ele>55.200000762939</ele>
        <time>2015-10-12T20:14:50.000Z</time>
      </trkpt>
      <trkpt lat="48.84904" lon="2.3418">
        <ele>54.799999237061</ele>
        <time>2015-10-12T20:14:59.000Z</time>
      </trkpt>
      <trkpt lat="48.84923" lon="2.34193">
        <ele>54.400001525879</ele>
        <time>2015-10-12T20:15:05.000Z</time>
      </trkpt>
      <trkpt lat="48.84939" lon="2.34204">
        <ele>52.400001525879</ele>
        <time>2015-10-12T20:15:09.000Z</time>
      </trkpt>
      <trkpt lat="48.84958" lon="2.34217">
        <ele>50.200000762939</ele>
        <time>2015-10-12T20:15:14.000Z</time>
      </trkpt>
      <trkpt lat="48.84976" lon="2.34225">
        <ele>49.200000762939</ele>
        <time>2015-10-12T20:15:18.000Z</time>
      </trkpt>
      <trkpt lat="48.84997" lon="2.34234">
        <ele>48.400001525879</ele>
        <time>2015-10-12T20:15:23.000Z</time>
      </trkpt>
      <trkpt lat="48.85016" lon="2.34243">
        <ele>48.400001525879</ele>
        <time>2015-10-12T20:15:27.000Z</time>
      </trkpt>
      <trkpt lat="48.85033" lon="2.34252">
        <ele>49.200000762939</ele>
        <time>2015-10-12T20:15:31.000Z</time>
      </trkpt>
      <trkpt lat="48.85053" lon="2.34259">
        <ele>50.200000762939</ele>
        <time>2015-10-12T20:15:35.000Z</time>
      </trkpt>
      <trkpt lat="48.85074" lon="2.34264">
        <ele>51.799999237061</ele>
        <time>2015-10-12T20:15:39.000Z</time>
      </trkpt>
      <trkpt lat="48.8508" lon="2.34266">
        <ele>52.599998474121</ele>
        <time>2015-10-12T20:15:40.000Z</time>
      </trkpt>
      <trkpt lat="48.851" lon="2.34273">
        <ele>55.200000762939</ele>
        <time>2015-10-12T20:15:44.000Z</time>
      </trkpt>
      <trkpt lat="48.85111" lon="2.34273">
        <ele>58.599998474121</ele>
        <time>2015-10-12T20:15:47.000Z</time>
      </trkpt>
      <trkpt lat="48.85115" lon="2.34273">
        <ele>61.599998474121</ele>
        <time>2015-10-12T20:15:49.000Z</time>
      </trkpt>
      <trkpt lat="48.85118" lon="2.34274">
        <ele>65.800003051758</ele>
        <time>2015-10-12T20:15:52.000Z</time>
      </trkpt>
      <trkpt lat="48.85119" lon="2.34281">
        <ele>65.800003051758</ele>
        <time>2015-10-12T20:15:57.000Z</time>
      </trkpt>
      <trkpt lat="48.85122" lon="2.34288">
        <ele>64.199996948242</ele>
        <time>2015-10-12T20:16:01.000Z</time>
      </trkpt>
      <trkpt lat="48.85123" lon="2.34293">
        <ele>62.400001525879</ele>
        <time>2015-10-12T20:16:02.000Z</time>
      </trkpt>
      <trkpt lat="48.85124" lon="2.34296">
        <ele>61.400001525879</ele>
        <time>2015-10-12T20:16:05.000Z</time>
      </trkpt>
      <trkpt lat="48.85141" lon="2.34306">
        <ele>57.400001525879</ele>
        <time>2015-10-12T20:16:17.000Z</time>
      </trkpt>
      <trkpt lat="48.85163" lon="2.34314">
        <ele>57.200000762939</ele>
        <time>2015-10-12T20:16:22.000Z</time>
      </trkpt>
      <trkpt lat="48.85181" lon="2.34322">
        <ele>57.799999237061</ele>
        <time>2015-10-12T20:16:26.000Z</time>
      </trkpt>
      <trkpt lat="48.85201" lon="2.34328">
        <ele>59.599998474121</ele>
        <time>2015-10-12T20:16:30.000Z</time>
      </trkpt>
      <trkpt lat="48.85219" lon="2.34335">
        <ele>62.400001525879</ele>
        <time>2015-10-12T20:16:34.000Z</time>
      </trkpt>
      <trkpt lat="48.85241" lon="2.3434">
        <ele>66.599998474121</ele>
        <time>2015-10-12T20:16:39.000Z</time>
      </trkpt>
      <trkpt lat="48.85265" lon="2.34352">
        <ele>53.200000762939</ele>
        <time>2015-10-12T20:16:44.000Z</time>
      </trkpt>
      <trkpt lat="48.85276" lon="2.34357">
        <ele>50.400001525879</ele>
        <time>2015-10-12T20:16:46.000Z</time>
      </trkpt>
      <trkpt lat="48.85296" lon="2.34366">
        <ele>48</ele>
        <time>2015-10-12T20:16:50.000Z</time>
      </trkpt>
      <trkpt lat="48.85317" lon="2.34375">
        <ele>46</ele>
        <time>2015-10-12T20:16:54.000Z</time>
      </trkpt>
      <trkpt lat="48.85337" lon="2.34388">
        <ele>45.400001525879</ele>
        <time>2015-10-12T20:16:58.000Z</time>
      </trkpt>
      <trkpt lat="48.85342" lon="2.34392">
        <ele>45.799999237061</ele>
        <time>2015-10-12T20:16:59.000Z</time>
      </trkpt>
      <trkpt lat="48.8536" lon="2.34404">
        <ele>45.799999237061</ele>
        <time>2015-10-12T20:17:03.000Z</time>
      </trkpt>
      <trkpt lat="48.85362" lon="2.34407">
        <ele>45.400001525879</ele>
        <time>2015-10-12T20:17:04.000Z</time>
      </trkpt>
      <trkpt lat="48.85367" lon="2.34414">
        <ele>44</ele>
        <time>2015-10-12T20:17:07.000Z</time>
      </trkpt>
      <trkpt lat="48.85375" lon="2.34437">
        <ele>33</ele>
        <time>2015-10-12T20:17:42.000Z</time>
      </trkpt>
      <trkpt lat="48.85394" lon="2.3445">
        <ele>33.200000762939</ele>
        <time>2015-10-12T20:17:49.000Z</time>
      </trkpt>
      <trkpt lat="48.85411" lon="2.34467">
        <ele>33.799999237061</ele>
        <time>2015-10-12T20:17:54.000Z</time>
      </trkpt>
      <trkpt lat="48.85427" lon="2.34482">
        <ele>35.200000762939</ele>
        <time>2015-10-12T20:17:58.000Z</time>
      </trkpt>
      <trkpt lat="48.85443" lon="2.34497">
        <ele>36.400001525879</ele>
        <time>2015-10-12T20:18:02.000Z</time>
      </trkpt>
      <trkpt lat="48.85458" lon="2.34513">
        <ele>37.799999237061</ele>
        <time>2015-10-12T20:18:06.000Z</time>
      </trkpt>
      <trkpt lat="48.85474" lon="2.34524">
        <ele>40.200000762939</ele>
        <time>2015-10-12T20:18:10.000Z</time>
      </trkpt>
      <trkpt lat="48.85493" lon="2.34536">
        <ele>43.400001525879</ele>
        <time>2015-10-12T20:18:15.000Z</time>
      </trkpt>
      <trkpt lat="48.85511" lon="2.34551">
        <ele>46.200000762939</ele>
        <time>2015-10-12T20:18:19.000Z</time>
      </trkpt>
      <trkpt lat="48.85527" lon="2.34568">
        <ele>46.799999237061</ele>
        <time>2015-10-12T20:18:22.000Z</time>
      </trkpt>
      <trkpt lat="48.85542" lon="2.34582">
        <ele>44</ele>
        <time>2015-10-12T20:18:24.000Z</time>
      </trkpt>
      <trkpt lat="48.85556" lon="2.34594">
        <ele>39.799999237061</ele>
        <time>2015-10-12T20:18:26.000Z</time>
      </trkpt>
      <trkpt lat="48.85566" lon="2.34603">
        <ele>40.400001525879</ele>
        <time>2015-10-12T20:18:28.000Z</time>
      </trkpt>
      <trkpt lat="48.85587" lon="2.34616">
        <ele>39.799999237061</ele>
        <time>2015-10-12T20:18:32.000Z</time>
      </trkpt>
      <trkpt lat="48.85608" lon="2.34627">
        <ele>38</ele>
        <time>2015-10-12T20:18:36.000Z</time>
      </trkpt>
      <trkpt lat="48.85617" lon="2.34632">
        <ele>37</ele>
        <time>2015-10-12T20:18:38.000Z</time>
      </trkpt>
      <trkpt lat="48.85639" lon="2.34634">
        <ele>36.200000762939</ele>
        <time>2015-10-12T20:18:43.000Z</time>
      </trkpt>
      <trkpt lat="48.85647" lon="2.34638">
        <ele>37.799999237061</ele>
        <time>2015-10-12T20:18:45.000Z</time>
      </trkpt>
      <trkpt lat="48.85666" lon="2.34648">
        <ele>39.799999237061</ele>
        <time>2015-10-12T20:18:50.000Z</time>
      </trkpt>
      <trkpt lat="48.85685" lon="2.34658">
        <ele>41.599998474121</ele>
        <time>2015-10-12T20:18:55.000Z</time>
      </trkpt>
      <trkpt lat="48.85704" lon="2.34667">
        <ele>43.599998474121</ele>
        <time>2015-10-12T20:19:00.000Z</time>
      </trkpt>
      <trkpt lat="48.85708" lon="2.34668">
        <ele>43.599998474121</ele>
        <time>2015-10-12T20:19:01.000Z</time>
      </trkpt>
      <trkpt lat="48.8572" lon="2.34668">
        <ele>44.400001525879</ele>
        <time>2015-10-12T20:19:05.000Z</time>
      </trkpt>
      <trkpt lat="48.8574" lon="2.34664">
        <ele>43.799999237061</ele>
        <time>2015-10-12T20:19:14.000Z</time>
      </trkpt>
      <trkpt lat="48.85752" lon="2.34676">
        <ele>44.799999237061</ele>
        <time>2015-10-12T20:19:18.000Z</time>
      </trkpt>
      <trkpt lat="48.8577" lon="2.34686">
        <ele>45.799999237061</ele>
        <time>2015-10-12T20:19:23.000Z</time>
      </trkpt>
      <trkpt lat="48.85789" lon="2.34696">
        <ele>47.799999237061</ele>
        <time>2015-10-12T20:19:28.000Z</time>
      </trkpt>
      <trkpt lat="48.85809" lon="2.34703">
        <ele>51</ele>
        <time>2015-10-12T20:19:33.000Z</time>
      </trkpt>
      <trkpt lat="48.85831" lon="2.34704">
        <ele>54.200000762939</ele>
        <time>2015-10-12T20:19:38.000Z</time>
      </trkpt>
      <trkpt lat="48.8585" lon="2.34707">
        <ele>57.599998474121</ele>
        <time>2015-10-12T20:19:42.000Z</time>
      </trkpt>
      <trkpt lat="48.85869" lon="2.34709">
        <ele>59.599998474121</ele>
        <time>2015-10-12T20:19:46.000Z</time>
      </trkpt>
      <trkpt lat="48.85891" lon="2.34703">
        <ele>64.400001525879</ele>
        <time>2015-10-12T20:19:51.000Z</time>
      </trkpt>
      <trkpt lat="48.85908" lon="2.34692">
        <ele>68.800003051758</ele>
        <time>2015-10-12T20:19:55.000Z</time>
      </trkpt>
      <trkpt lat="48.85929" lon="2.34681">
        <ele>73.199996948242</ele>
        <time>2015-10-12T20:20:00.000Z</time>
      </trkpt>
      <trkpt lat="48.85934" lon="2.34678">
        <ele>74.800003051758</ele>
        <time>2015-10-12T20:20:02.000Z</time>
      </trkpt>
      <trkpt lat="48.85944" lon="2.34682">
        <ele>81.199996948242</ele>
        <time>2015-10-12T20:20:08.000Z</time>
      </trkpt>
      <trkpt lat="48.85945" lon="2.34684">
        <ele>80.800003051758</ele>
        <time>2015-10-12T20:20:09.000Z</time>
      </trkpt>
      <trkpt lat="48.85953" lon="2.34698">
        <ele>87</ele>
        <time>2015-10-12T20:20:24.000Z</time>
      </trkpt>
    </trkseg>
  </trk>
</gpx>